Darstellungsparameter: Aktuell verwendete Einstellungen:
Skalierung der Graphiken ... ?
xyx+y,   Skalierungsfaktor:      Skalierung: Modus: x, Faktor: 1
Darstellungszeitraum ... ?
Vom - - bis: - -   Zeitraum: 21.12.2014 - 20.06.2015
Min/Max/Avg-Anzeige ... ?
Zeige MMA aktuell
Zeige MMA Monat
Zeige MMA alles
Zeige --A aktuell
Zeige --A Monat
Zeige --A alles
Keine MMA-Anzeige
MMA:
Average (ber die Originaldaten)
MMA-Basis: 21.12.2014 - 20.06.2015
Quicknavigation für Darstellung... ?
Tage:      1T, 2T, 3T, 5T -1T -2T -3T -5T +1T +2T +3T +5T
Wochen: 1W, 2W, 3W -1W -2W -3W +1W +2W +3W
Monate: 1M, 3M, 6M -1M -3M -6M +1M +3M +6M
Jahre:    1J, 3J, 5J, 10J -1J -3J -5J -10J +1J +3J +5J +10J
Nutze für die Darstellung ... ?
Originaldaten oder Mittelwerte auf ...
Stundenbasis Tagesbasis Wochenbasis
Monatsbasis Jahresbasis      Datenbasis: Original-Daten
Darstellen als:
Statistik (Auto) Statistik J:M      Darstellung:
Zur Graphik,    zurück zur Übersicht aller Sensoren.
 
Tabellarische Datenbersicht: ?
 
Sensor: Nr:Datum:Temp:Abs-Feuchte:Windchill:Wind:
Aussen-T/F 1 21-12-2014 00:00:00 5.9 C 6.35 g/m*3 4.63 C 6.4 km/h
2 21-12-2014 00:05:00 6 C 6.39 g/m*3 4.28 C 8.1 km/h
3 21-12-2014 00:10:00 6.1 C 6.36 g/m*3 4.4 C 8.1 km/h
4 21-12-2014 00:15:00 6.1 C 6.43 g/m*3 4.86 C 6.4 km/h
5 21-12-2014 00:20:00 5.9 C 6.35 g/m*3 5.9 C 4.8 km/h
6 21-12-2014 00:25:00 5.9 C 6.35 g/m*3 4.63 C 6.4 km/h
7 21-12-2014 00:30:00 5.7 C 6.33 g/m*3 4.4 C 6.4 km/h
8 21-12-2014 00:35:00 5.6 C 6.29 g/m*3 5.6 C 3.2 km/h
9 21-12-2014 00:40:00 5.6 C 6.29 g/m*3 3.44 C 9.7 km/h
10 21-12-2014 00:45:00 5.5 C 6.25 g/m*3 3.32 C 9.7 km/h
11 21-12-2014 00:50:00 5.5 C 6.25 g/m*3 4.17 C 6.4 km/h
12 21-12-2014 00:55:00 5.5 C 6.25 g/m*3 5.5 C 3.2 km/h
13 21-12-2014 01:00:00 5.5 C 6.32 g/m*3 4.17 C 6.4 km/h
14 21-12-2014 01:05:00 5.4 C 6.28 g/m*3 3.2 C 9.7 km/h
15 21-12-2014 01:10:00 5.4 C 6.28 g/m*3 3.58 C 8.1 km/h
16 21-12-2014 01:15:00 5.5 C 6.32 g/m*3 4.17 C 6.4 km/h
17 21-12-2014 01:20:00 5.6 C 6.29 g/m*3 3.81 C 8.1 km/h
18 21-12-2014 01:25:00 5.7 C 6.33 g/m*3 4.4 C 6.4 km/h
19 21-12-2014 01:30:00 5.8 C 6.38 g/m*3 5.8 C 4.8 km/h
20 21-12-2014 01:35:00 5.7 C 6.33 g/m*3 5.7 C 4.8 km/h
21 21-12-2014 01:40:00 5.8 C 6.38 g/m*3 5.8 C 4.8 km/h
22 21-12-2014 01:45:00 5.8 C 6.38 g/m*3 2.81 C 14.5 km/h
23 21-12-2014 01:50:00 5.8 C 6.38 g/m*3 3.68 C 9.7 km/h
24 21-12-2014 01:55:00 5.8 C 6.38 g/m*3 4.52 C 6.4 km/h
25 21-12-2014 02:00:00 5.7 C 6.33 g/m*3 3.56 C 9.7 km/h
Sensor: Nr:Datum:Temp:Abs-Feuchte:Windchill:Wind:
Aussen-T/F 26 21-12-2014 02:05:00 5.7 C 6.4 g/m*3 3.93 C 8.1 km/h
27 21-12-2014 02:10:00 5.6 C 6.36 g/m*3 3.81 C 8.1 km/h
28 21-12-2014 02:15:00 5.6 C 6.36 g/m*3 3.81 C 8.1 km/h
29 21-12-2014 02:20:00 5.4 C 6.35 g/m*3 5.4 C 3.2 km/h
30 21-12-2014 02:25:00 5.3 C 6.38 g/m*3 5.3 C 4.8 km/h
31 21-12-2014 02:30:00 5.1 C 6.36 g/m*3 5.1 C 3.2 km/h
32 21-12-2014 02:35:00 5.1 C 6.43 g/m*3 5.1 C 4.8 km/h
33 21-12-2014 02:40:00 5.1 C 6.43 g/m*3 5.1 C 3.2 km/h
34 21-12-2014 02:45:00 5.1 C 6.43 g/m*3 5.1 C 4.8 km/h
35 21-12-2014 02:50:00 5.1 C 6.5 g/m*3 5.1 C 3.2 km/h
36 21-12-2014 02:55:00 5.1 C 6.5 g/m*3 5.1 C 3.2 km/h
37 21-12-2014 03:00:00 5 C 6.46 g/m*3 5 C 4.8 km/h
38 21-12-2014 03:05:00 5 C 6.46 g/m*3 5 C 3.2 km/h
39 21-12-2014 03:10:00 5.1 C 6.5 g/m*3 5.1 C 3.2 km/h
40 21-12-2014 03:15:00 5.1 C 6.5 g/m*3 5.1 C 4.8 km/h
41 21-12-2014 03:20:00 5.1 C 6.5 g/m*3 5.1 C 4.8 km/h
42 21-12-2014 03:25:00 5.1 C 6.43 g/m*3 5.1 C 3.2 km/h
43 21-12-2014 03:30:00 5.2 C 6.47 g/m*3 5.2 C 3.2 km/h
44 21-12-2014 03:35:00 5.3 C 6.52 g/m*3 5.3 C 3.2 km/h
45 21-12-2014 03:40:00 5.3 C 6.52 g/m*3 3.94 C 6.4 km/h
46 21-12-2014 03:45:00 5.3 C 6.52 g/m*3 5.3 C 4.8 km/h
47 21-12-2014 03:50:00 5.4 C 6.49 g/m*3 5.4 C 4.8 km/h
48 21-12-2014 03:55:00 5.4 C 6.49 g/m*3 5.4 C 4.8 km/h
49 21-12-2014 04:00:00 5.4 C 6.49 g/m*3 5.4 C 3.2 km/h
50 21-12-2014 04:05:00 5.4 C 6.56 g/m*3 5.4 C 4.8 km/h
Sensor: Nr:Datum:Temp:Abs-Feuchte:Windchill:Wind:
Aussen-T/F 51 21-12-2014 04:10:00 5.3 C 6.52 g/m*3 5.3 C 4.8 km/h
52 21-12-2014 04:15:00 5.3 C 6.52 g/m*3 5.3 C 3.2 km/h
53 21-12-2014 04:20:00 5.3 C 6.52 g/m*3 5.3 C 4.8 km/h
54 21-12-2014 04:25:00 5.3 C 6.52 g/m*3 5.3 C 3.2 km/h
55 21-12-2014 04:30:00 5.4 C 6.56 g/m*3 3.2 C 9.7 km/h
56 21-12-2014 04:35:00 5.5 C 6.53 g/m*3 4.17 C 6.4 km/h
57 21-12-2014 04:40:00 5.6 C 6.57 g/m*3 4.29 C 6.4 km/h
58 21-12-2014 04:45:00 5.6 C 6.5 g/m*3 5.6 C 4.8 km/h
59 21-12-2014 04:50:00 5.6 C 6.5 g/m*3 5.6 C 4.8 km/h
60 21-12-2014 04:55:00 5.6 C 6.5 g/m*3 4.29 C 6.4 km/h
61 21-12-2014 05:00:00 5.6 C 6.5 g/m*3 5.6 C 4.8 km/h
62 21-12-2014 05:05:00 5.7 C 6.55 g/m*3 3.93 C 8.1 km/h
63 21-12-2014 05:10:00 5.7 C 6.55 g/m*3 4.4 C 6.4 km/h
64 21-12-2014 05:15:00 5.7 C 6.55 g/m*3 5.7 C 3.2 km/h
65 21-12-2014 05:20:00 5.6 C 6.5 g/m*3 5.6 C 4.8 km/h
66 21-12-2014 05:25:00 5.6 C 6.5 g/m*3 3.81 C 8.1 km/h
67 21-12-2014 05:30:00 5.5 C 6.46 g/m*3 5.5 C 4.8 km/h
68 21-12-2014 05:35:00 5.5 C 6.39 g/m*3 3.32 C 9.7 km/h
69 21-12-2014 05:40:00 5.6 C 6.43 g/m*3 3.44 C 9.7 km/h
70 21-12-2014 05:45:00 5.7 C 6.4 g/m*3 3.23 C 11.3 km/h
71 21-12-2014 05:50:00 5.8 C 6.38 g/m*3 4.05 C 8.1 km/h
72 21-12-2014 05:55:00 5.8 C 6.3 g/m*3 2.81 C 14.5 km/h
73 21-12-2014 06:00:00 5.8 C 6.3 g/m*3 3.68 C 9.7 km/h
74 21-12-2014 06:05:00 5.8 C 6.3 g/m*3 2.81 C 14.5 km/h
75 21-12-2014 06:10:00 5.8 C 6.3 g/m*3 4.05 C 8.1 km/h
Sensor: Nr:Datum:Temp:Abs-Feuchte:Windchill:Wind:
Aussen-T/F 76 21-12-2014 06:15:00 5.7 C 6.26 g/m*3 4.4 C 6.4 km/h
77 21-12-2014 06:20:00 5.4 C 6.21 g/m*3 5.4 C 4.8 km/h
78 21-12-2014 06:25:00 5.2 C 6.2 g/m*3 5.2 C 4.8 km/h
79 21-12-2014 06:30:00 4.9 C 6.14 g/m*3 3.48 C 6.4 km/h
80 21-12-2014 06:35:00 4.8 C 6.1 g/m*3 3.36 C 6.4 km/h
81 21-12-2014 06:40:00 4.8 C 6.1 g/m*3 4.8 C 4.8 km/h
82 21-12-2014 06:45:00 4.7 C 6.06 g/m*3 4.7 C 4.8 km/h
83 21-12-2014 06:50:00 4.7 C 6.06 g/m*3 4.7 C 3.2 km/h
84 21-12-2014 06:55:00 4.6 C 6.09 g/m*3 4.6 C 4.8 km/h
85 21-12-2014 07:00:00 4.4 C 6.01 g/m*3 4.4 C 4.8 km/h
86 21-12-2014 07:05:00 4.4 C 6.01 g/m*3 4.4 C 3.2 km/h
87 21-12-2014 07:10:00 4.6 C 6.09 g/m*3 2.64 C 8.1 km/h
88 21-12-2014 07:15:00 4.5 C 6.05 g/m*3 4.5 C 4.8 km/h
89 21-12-2014 07:20:00 4.4 C 6.01 g/m*3 4.4 C 4.8 km/h
90 21-12-2014 07:25:00 4.3 C 5.97 g/m*3 4.3 C 4.8 km/h
91 21-12-2014 07:30:00 4.3 C 5.97 g/m*3 2.29 C 8.1 km/h
92 21-12-2014 07:35:00 4.4 C 6.01 g/m*3 2.4 C 8.1 km/h
93 21-12-2014 07:40:00 4.6 C 6.02 g/m*3 2.25 C 9.7 km/h
94 21-12-2014 07:45:00 4.9 C 6.14 g/m*3 2.61 C 9.7 km/h
95 21-12-2014 07:50:00 5.1 C 6.16 g/m*3 2.22 C 12.9 km/h
96 21-12-2014 07:55:00 5.1 C 6.09 g/m*3 3.23 C 8.1 km/h
97 21-12-2014 08:00:00 5.1 C 6.16 g/m*3 2.84 C 9.7 km/h
98 21-12-2014 08:05:00 5.2 C 6.13 g/m*3 2.96 C 9.7 km/h
99 21-12-2014 08:10:00 5.2 C 6.13 g/m*3 2.96 C 9.7 km/h
100 21-12-2014 08:15:00 5.2 C 6.13 g/m*3 3.34 C 8.1 km/h
Sensor: Nr:Datum:Temp:Abs-Feuchte:Windchill:Wind:
Aussen-T/F 101 21-12-2014 08:20:00 5.1 C 6.16 g/m*3 3.71 C 6.4 km/h
102 21-12-2014 08:25:00 5 C 6.12 g/m*3 3.11 C 8.1 km/h
103 21-12-2014 08:30:00 5.1 C 6.16 g/m*3 3.23 C 8.1 km/h
104 21-12-2014 08:35:00 4.9 C 6.08 g/m*3 2.61 C 9.7 km/h
105 21-12-2014 08:40:00 4.9 C 6.08 g/m*3 1.97 C 12.9 km/h
106 21-12-2014 08:45:00 4.9 C 6.08 g/m*3 2.99 C 8.1 km/h
107 21-12-2014 08:50:00 4.9 C 6.14 g/m*3 3.48 C 6.4 km/h
108 21-12-2014 08:55:00 5 C 6.18 g/m*3 5 C 4.8 km/h
109 21-12-2014 09:00:00 4.9 C 6.14 g/m*3 2.61 C 9.7 km/h
110 21-12-2014 09:05:00 4.8 C 6.1 g/m*3 3.36 C 6.4 km/h
111 21-12-2014 09:10:00 4.8 C 6.1 g/m*3 3.36 C 6.4 km/h
112 21-12-2014 09:15:00 4.8 C 6.17 g/m*3 3.36 C 6.4 km/h
113 21-12-2014 09:20:00 4.8 C 6.17 g/m*3 2.49 C 9.7 km/h
114 21-12-2014 09:25:00 4.9 C 6.14 g/m*3 1.7 C 14.5 km/h
115 21-12-2014 09:30:00 5.1 C 6.22 g/m*3 2.22 C 12.9 km/h
116 21-12-2014 09:35:00 5.1 C 6.16 g/m*3 3.71 C 6.4 km/h
117 21-12-2014 09:40:00 5.1 C 6.16 g/m*3 2.22 C 12.9 km/h
118 21-12-2014 09:45:00 5.1 C 6.16 g/m*3 2.51 C 11.3 km/h
119 21-12-2014 09:50:00 5.1 C 6.16 g/m*3 2.84 C 9.7 km/h
120 21-12-2014 09:55:00 5 C 6.18 g/m*3 3.11 C 8.1 km/h
121 21-12-2014 10:00:00 4.9 C 6.14 g/m*3 4.9 C 3.2 km/h
122 21-12-2014 10:05:00 4.9 C 6.14 g/m*3 3.48 C 6.4 km/h
123 21-12-2014 10:10:00 4.9 C 6.21 g/m*3 4.9 C 4.8 km/h
124 21-12-2014 10:15:00 5 C 6.18 g/m*3 3.59 C 6.4 km/h
125 21-12-2014 10:20:00 5.2 C 6.27 g/m*3 3.34 C 8.1 km/h
Sensor: Nr:Datum:Temp:Abs-Feuchte:Windchill:Wind:
Aussen-T/F 126 21-12-2014 10:25:00 5.4 C 6.28 g/m*3 2.87 C 11.3 km/h
127 21-12-2014 10:30:00 5.8 C 6.3 g/m*3 3.36 C 11.3 km/h
128 21-12-2014 10:35:00 6.1 C 6.36 g/m*3 3.72 C 11.3 km/h
129 21-12-2014 10:40:00 6.2 C 6.4 g/m*3 4.15 C 9.7 km/h
130 21-12-2014 10:45:00 6.2 C 6.4 g/m*3 3.56 C 12.9 km/h
131 21-12-2014 10:50:00 6.3 C 6.37 g/m*3 3.2 C 16.1 km/h
132 21-12-2014 10:55:00 6.3 C 6.37 g/m*3 2.98 C 17.7 km/h
133 21-12-2014 11:00:00 6.3 C 6.37 g/m*3 3.2 C 16.1 km/h
134 21-12-2014 11:05:00 6.3 C 6.37 g/m*3 4.27 C 9.7 km/h
135 21-12-2014 11:10:00 6.3 C 6.37 g/m*3 3.2 C 16.1 km/h
136 21-12-2014 11:15:00 6.3 C 6.44 g/m*3 3.2 C 16.1 km/h
137 21-12-2014 11:20:00 6.3 C 6.37 g/m*3 2.43 C 22.5 km/h
138 21-12-2014 11:25:00 6.4 C 6.41 g/m*3 3.8 C 12.9 km/h
139 21-12-2014 11:30:00 6.4 C 6.41 g/m*3 3.32 C 16.1 km/h
140 21-12-2014 11:35:00 6.4 C 6.33 g/m*3 2.91 C 19.3 km/h
141 21-12-2014 11:40:00 6.4 C 6.41 g/m*3 3.55 C 14.5 km/h
142 21-12-2014 11:45:00 6.5 C 6.37 g/m*3 3.04 C 19.3 km/h
143 21-12-2014 11:50:00 6.6 C 6.42 g/m*3 4.04 C 12.9 km/h
144 21-12-2014 11:55:00 6.7 C 6.46 g/m*3 4.17 C 12.9 km/h
145 21-12-2014 12:00:00 6.7 C 6.46 g/m*3 3.69 C 16.1 km/h
146 21-12-2014 12:05:00 6.8 C 6.5 g/m*3 4.29 C 12.9 km/h
147 21-12-2014 12:10:00 6.8 C 6.42 g/m*3 3.61 C 17.7 km/h
148 21-12-2014 12:15:00 6.9 C 6.47 g/m*3 3.94 C 16.1 km/h
149 21-12-2014 12:20:00 6.9 C 6.47 g/m*3 5.34 C 8.1 km/h
150 21-12-2014 12:25:00 6.9 C 6.47 g/m*3 4.68 C 11.3 km/h
Sensor: Nr:Datum:Temp:Abs-Feuchte:Windchill:Wind:
Aussen-T/F 151 21-12-2014 12:30:00 6.9 C 6.47 g/m*3 5.34 C 8.1 km/h
152 21-12-2014 12:35:00 6.9 C 6.54 g/m*3 5.34 C 8.1 km/h
153 21-12-2014 12:40:00 6.9 C 6.54 g/m*3 6.9 C 4.8 km/h
154 21-12-2014 12:45:00 6.9 C 6.54 g/m*3 4.99 C 9.7 km/h
155 21-12-2014 12:50:00 6.8 C 6.5 g/m*3 4.56 C 11.3 km/h
156 21-12-2014 12:55:00 6.8 C 6.5 g/m*3 4.87 C 9.7 km/h
157 21-12-2014 13:00:00 6.9 C 6.62 g/m*3 5.34 C 8.1 km/h
158 21-12-2014 13:05:00 6.9 C 6.62 g/m*3 5.34 C 8.1 km/h
159 21-12-2014 13:10:00 7 C 6.66 g/m*3 5.46 C 8.1 km/h
160 21-12-2014 13:15:00 7 C 6.66 g/m*3 5.11 C 9.7 km/h
161 21-12-2014 13:20:00 7.1 C 6.71 g/m*3 6.02 C 6.4 km/h
162 21-12-2014 13:25:00 7.1 C 6.71 g/m*3 5.58 C 8.1 km/h
163 21-12-2014 13:30:00 7.1 C 6.71 g/m*3 4.92 C 11.3 km/h
164 21-12-2014 13:35:00 7.1 C 6.71 g/m*3 4.65 C 12.9 km/h
165 21-12-2014 13:40:00 7.2 C 6.75 g/m*3 5.69 C 8.1 km/h
166 21-12-2014 13:45:00 7.2 C 6.75 g/m*3 5.04 C 11.3 km/h
167 21-12-2014 13:50:00 7.2 C 6.67 g/m*3 4.53 C 14.5 km/h
168 21-12-2014 13:55:00 7.2 C 6.75 g/m*3 4.53 C 14.5 km/h
169 21-12-2014 14:00:00 7.2 C 6.67 g/m*3 4.53 C 14.5 km/h
170 21-12-2014 14:05:00 7.2 C 6.67 g/m*3 5.04 C 11.3 km/h
171 21-12-2014 14:10:00 7.3 C 6.72 g/m*3 5.16 C 11.3 km/h
172 21-12-2014 14:15:00 7.3 C 6.72 g/m*3 5.47 C 9.7 km/h
173 21-12-2014 14:20:00 7.3 C 6.72 g/m*3 5.16 C 11.3 km/h
174 21-12-2014 14:25:00 7.3 C 6.72 g/m*3 4.66 C 14.5 km/h
175 21-12-2014 14:30:00 7.3 C 6.79 g/m*3 5.81 C 8.1 km/h
Sensor: Nr:Datum:Temp:Abs-Feuchte:Windchill:Wind:
Aussen-T/F 176 21-12-2014 14:35:00 7.3 C 6.72 g/m*3 5.47 C 9.7 km/h
177 21-12-2014 14:40:00 7.3 C 6.72 g/m*3 7.3 C 4.8 km/h
178 21-12-2014 14:45:00 7.4 C 6.76 g/m*3 5.93 C 8.1 km/h
179 21-12-2014 14:50:00 7.4 C 6.76 g/m*3 5.58 C 9.7 km/h
180 21-12-2014 14:55:00 7.4 C 6.76 g/m*3 5.58 C 9.7 km/h
181 21-12-2014 15:00:00 7.4 C 6.68 g/m*3 5.58 C 9.7 km/h
182 21-12-2014 15:05:00 7.4 C 6.68 g/m*3 4.78 C 14.5 km/h
183 21-12-2014 15:10:00 7.4 C 6.76 g/m*3 5.28 C 11.3 km/h
184 21-12-2014 15:15:00 7.4 C 6.76 g/m*3 6.37 C 6.4 km/h
185 21-12-2014 15:20:00 7.4 C 6.76 g/m*3 5.58 C 9.7 km/h
186 21-12-2014 15:25:00 7.3 C 6.72 g/m*3 5.47 C 9.7 km/h
187 21-12-2014 15:30:00 7.3 C 6.72 g/m*3 6.25 C 6.4 km/h
188 21-12-2014 15:35:00 7.3 C 6.72 g/m*3 4.9 C 12.9 km/h
189 21-12-2014 15:40:00 7.3 C 6.79 g/m*3 4.9 C 12.9 km/h
190 21-12-2014 15:45:00 7.3 C 6.72 g/m*3 4.9 C 12.9 km/h
191 21-12-2014 15:50:00 7.3 C 6.72 g/m*3 5.16 C 11.3 km/h
192 21-12-2014 15:55:00 7.3 C 6.79 g/m*3 4.9 C 12.9 km/h
193 21-12-2014 16:00:00 7.3 C 6.72 g/m*3 4.66 C 14.5 km/h
194 21-12-2014 16:05:00 7.3 C 6.79 g/m*3 5.47 C 9.7 km/h
195 21-12-2014 16:10:00 7.3 C 6.72 g/m*3 5.16 C 11.3 km/h
196 21-12-2014 16:15:00 7.4 C 6.76 g/m*3 5.28 C 11.3 km/h
197 21-12-2014 16:20:00 7.4 C 6.76 g/m*3 5.02 C 12.9 km/h
198 21-12-2014 16:25:00 7.5 C 6.8 g/m*3 5.14 C 12.9 km/h
199 21-12-2014 16:30:00 7.5 C 6.8 g/m*3 4.68 C 16.1 km/h
200 21-12-2014 16:35:00 7.5 C 6.8 g/m*3 5.7 C 9.7 km/h
Sensor: Nr:Datum:Temp:Abs-Feuchte:Windchill:Wind:
Aussen-T/F 201 21-12-2014 16:40:00 7.5 C 6.8 g/m*3 4.68 C 16.1 km/h
202 21-12-2014 16:45:00 7.5 C 6.8 g/m*3 5.14 C 12.9 km/h
203 21-12-2014 16:50:00 7.5 C 6.8 g/m*3 5.41 C 11.3 km/h
204 21-12-2014 16:55:00 7.5 C 6.8 g/m*3 4.48 C 17.7 km/h
205 21-12-2014 17:00:00 7.5 C 6.8 g/m*3 5.41 C 11.3 km/h
206 21-12-2014 17:05:00 7.4 C 6.76 g/m*3 5.28 C 11.3 km/h
207 21-12-2014 17:10:00 7.4 C 6.76 g/m*3 4.78 C 14.5 km/h
208 21-12-2014 17:15:00 7.4 C 6.76 g/m*3 5.93 C 8.1 km/h
209 21-12-2014 17:20:00 7.6 C 6.85 g/m*3 4.61 C 17.7 km/h
210 21-12-2014 17:25:00 7.6 C 6.85 g/m*3 6.16 C 8.1 km/h
211 21-12-2014 17:30:00 7.6 C 6.85 g/m*3 4.61 C 17.7 km/h
212 21-12-2014 17:35:00 7.6 C 6.85 g/m*3 5.02 C 14.5 km/h
213 21-12-2014 17:40:00 7.6 C 6.85 g/m*3 4.61 C 17.7 km/h
214 21-12-2014 17:45:00 7.6 C 6.85 g/m*3 4.25 C 20.9 km/h
215 21-12-2014 17:50:00 7.6 C 6.85 g/m*3 5.82 C 9.7 km/h
216 21-12-2014 17:55:00 7.6 C 6.85 g/m*3 6.6 C 6.4 km/h
217 21-12-2014 18:00:00 7.6 C 6.85 g/m*3 5.26 C 12.9 km/h
218 21-12-2014 18:05:00 7.6 C 6.85 g/m*3 5.53 C 11.3 km/h
219 21-12-2014 18:10:00 7.7 C 6.89 g/m*3 4.55 C 19.3 km/h
220 21-12-2014 18:15:00 7.7 C 6.89 g/m*3 6.28 C 8.1 km/h
221 21-12-2014 18:20:00 7.7 C 6.89 g/m*3 4.93 C 16.1 km/h
222 21-12-2014 18:25:00 7.7 C 6.89 g/m*3 6.28 C 8.1 km/h
223 21-12-2014 18:30:00 7.7 C 6.89 g/m*3 5.94 C 9.7 km/h
224 21-12-2014 18:35:00 7.6 C 6.93 g/m*3 5.02 C 14.5 km/h
225 21-12-2014 18:40:00 7.6 C 6.93 g/m*3 5.53 C 11.3 km/h
Sensor: Nr:Datum:Temp:Abs-Feuchte:Windchill:Wind:
Aussen-T/F 226 21-12-2014 18:45:00 7.6 C 6.93 g/m*3 4.81 C 16.1 km/h
227 21-12-2014 18:50:00 7.6 C 6.93 g/m*3 5.26 C 12.9 km/h
228 21-12-2014 18:55:00 7.6 C 6.93 g/m*3 5.02 C 14.5 km/h
229 21-12-2014 19:00:00 7.6 C 6.93 g/m*3 4.61 C 17.7 km/h
230 21-12-2014 19:05:00 7.6 C 6.93 g/m*3 5.53 C 11.3 km/h
231 21-12-2014 19:10:00 7.6 C 6.93 g/m*3 5.53 C 11.3 km/h
232 21-12-2014 19:15:00 7.6 C 6.93 g/m*3 5.53 C 11.3 km/h
233 21-12-2014 19:20:00 7.5 C 6.88 g/m*3 4.9 C 14.5 km/h
234 21-12-2014 19:25:00 7.6 C 6.93 g/m*3 5.02 C 14.5 km/h
235 21-12-2014 19:30:00 7.6 C 6.93 g/m*3 5.53 C 11.3 km/h
236 21-12-2014 19:35:00 7.5 C 6.88 g/m*3 4.48 C 17.7 km/h
237 21-12-2014 19:40:00 7.5 C 6.96 g/m*3 5.41 C 11.3 km/h
238 21-12-2014 19:45:00 7.5 C 6.96 g/m*3 4.9 C 14.5 km/h
239 21-12-2014 19:50:00 7.5 C 6.96 g/m*3 5.41 C 11.3 km/h
240 21-12-2014 19:55:00 7.5 C 6.96 g/m*3 4.9 C 14.5 km/h
241 21-12-2014 20:00:00 7.5 C 6.96 g/m*3 4.48 C 17.7 km/h
242 21-12-2014 20:05:00 7.5 C 6.96 g/m*3 5.14 C 12.9 km/h
243 21-12-2014 20:10:00 7.5 C 6.96 g/m*3 5.41 C 11.3 km/h
244 21-12-2014 20:15:00 7.5 C 6.96 g/m*3 5.14 C 12.9 km/h
245 21-12-2014 20:20:00 7.4 C 6.92 g/m*3 4.78 C 14.5 km/h
246 21-12-2014 20:25:00 7.5 C 6.96 g/m*3 5.7 C 9.7 km/h
247 21-12-2014 20:30:00 7.4 C 6.92 g/m*3 5.58 C 9.7 km/h
248 21-12-2014 20:35:00 7.4 C 6.92 g/m*3 5.28 C 11.3 km/h
249 21-12-2014 20:40:00 7.4 C 6.92 g/m*3 5.28 C 11.3 km/h
250 21-12-2014 20:45:00 7.4 C 6.92 g/m*3 4.56 C 16.1 km/h
Sensor: Nr:Datum:Temp:Abs-Feuchte:Windchill:Wind:
Aussen-T/F 251 21-12-2014 20:50:00 7.5 C 6.96 g/m*3 5.14 C 12.9 km/h
252 21-12-2014 20:55:00 7.4 C 7 g/m*3 4.56 C 16.1 km/h
253 21-12-2014 21:00:00 7.4 C 7 g/m*3 5.28 C 11.3 km/h
254 21-12-2014 21:05:00 7.4 C 7 g/m*3 6.37 C 6.4 km/h
255 21-12-2014 21:10:00 7.4 C 7 g/m*3 5.28 C 11.3 km/h
256 21-12-2014 21:15:00 7.4 C 6.92 g/m*3 5.58 C 9.7 km/h
257 21-12-2014 21:20:00 7.5 C 6.96 g/m*3 4.9 C 14.5 km/h
258 21-12-2014 21:25:00 7.6 C 7.01 g/m*3 5.82 C 9.7 km/h
259 21-12-2014 21:30:00 7.6 C 7.01 g/m*3 6.16 C 8.1 km/h
260 21-12-2014 21:35:00 7.6 C 7.01 g/m*3 5.02 C 14.5 km/h
261 21-12-2014 21:40:00 7.6 C 7.01 g/m*3 4.61 C 17.7 km/h
262 21-12-2014 21:45:00 7.6 C 7.01 g/m*3 5.82 C 9.7 km/h
263 21-12-2014 21:50:00 7.6 C 7.01 g/m*3 5.82 C 9.7 km/h
264 21-12-2014 21:55:00 7.6 C 7.01 g/m*3 4.61 C 17.7 km/h
265 21-12-2014 22:00:00 7.7 C 6.97 g/m*3 5.94 C 9.7 km/h
266 21-12-2014 22:05:00 7.7 C 6.97 g/m*3 4.55 C 19.3 km/h
267 21-12-2014 22:10:00 7.7 C 6.97 g/m*3 5.65 C 11.3 km/h
268 21-12-2014 22:15:00 7.7 C 6.97 g/m*3 4.55 C 19.3 km/h
269 21-12-2014 22:20:00 7.7 C 6.97 g/m*3 5.15 C 14.5 km/h
270 21-12-2014 22:25:00 7.7 C 6.97 g/m*3 4.73 C 17.7 km/h
271 21-12-2014 22:30:00 7.7 C 6.97 g/m*3 4.93 C 16.1 km/h
272 21-12-2014 22:35:00 7.7 C 6.97 g/m*3 4.73 C 17.7 km/h
273 21-12-2014 22:40:00 7.7 C 6.97 g/m*3 4.93 C 16.1 km/h
274 21-12-2014 22:45:00 7.7 C 6.97 g/m*3 5.38 C 12.9 km/h
275 21-12-2014 22:50:00 7.7 C 6.97 g/m*3 4.73 C 17.7 km/h
Sensor: Nr:Datum:Temp:Abs-Feuchte:Windchill:Wind:
Aussen-T/F 276 21-12-2014 22:55:00 7.7 C 6.97 g/m*3 5.15 C 14.5 km/h
277 21-12-2014 23:00:00 7.7 C 6.97 g/m*3 4.73 C 17.7 km/h
278 21-12-2014 23:05:00 7.7 C 6.97 g/m*3 5.38 C 12.9 km/h
279 21-12-2014 23:10:00 7.6 C 6.93 g/m*3 5.82 C 9.7 km/h
280 21-12-2014 23:15:00 7.6 C 6.93 g/m*3 5.82 C 9.7 km/h
281 21-12-2014 23:20:00 7.6 C 6.93 g/m*3 5.82 C 9.7 km/h
282 21-12-2014 23:25:00 7.6 C 6.93 g/m*3 5.02 C 14.5 km/h
283 21-12-2014 23:30:00 7.6 C 6.93 g/m*3 4.42 C 19.3 km/h
284 21-12-2014 23:35:00 7.6 C 6.93 g/m*3 4.81 C 16.1 km/h
285 21-12-2014 23:40:00 7.6 C 6.93 g/m*3 5.26 C 12.9 km/h
286 21-12-2014 23:45:00 7.6 C 6.93 g/m*3 6.6 C 6.4 km/h
287 21-12-2014 23:50:00 7.6 C 6.93 g/m*3 5.82 C 9.7 km/h
288 21-12-2014 23:55:00 7.6 C 6.93 g/m*3 5.53 C 11.3 km/h
289 22-12-2014 00:00:00 7.6 C 6.93 g/m*3 4.61 C 17.7 km/h
290 22-12-2014 00:05:00 7.6 C 6.93 g/m*3 4.61 C 17.7 km/h
291 22-12-2014 00:10:00 7.6 C 6.93 g/m*3 4.61 C 17.7 km/h
292 22-12-2014 00:15:00 7.6 C 6.93 g/m*3 5.26 C 12.9 km/h
293 22-12-2014 00:20:00 7.6 C 6.93 g/m*3 5.26 C 12.9 km/h
294 22-12-2014 00:25:00 7.6 C 6.93 g/m*3 5.82 C 9.7 km/h
295 22-12-2014 00:30:00 7.6 C 6.93 g/m*3 5.26 C 12.9 km/h
296 22-12-2014 00:35:00 7.6 C 6.93 g/m*3 5.02 C 14.5 km/h
297 22-12-2014 00:40:00 7.6 C 6.93 g/m*3 4.81 C 16.1 km/h
298 22-12-2014 00:45:00 7.6 C 6.93 g/m*3 5.26 C 12.9 km/h
299 22-12-2014 00:50:00 7.6 C 6.93 g/m*3 5.82 C 9.7 km/h
300 22-12-2014 00:55:00 7.5 C 6.88 g/m*3 5.7 C 9.7 km/h
Sensor: Nr:Datum:Temp:Abs-Feuchte:Windchill:Wind:
Aussen-T/F 301 22-12-2014 01:00:00 7.5 C 6.88 g/m*3 4.48 C 17.7 km/h
302 22-12-2014 01:05:00 7.6 C 6.93 g/m*3 5.26 C 12.9 km/h
303 22-12-2014 01:10:00 7.6 C 6.93 g/m*3 4.81 C 16.1 km/h
304 22-12-2014 01:15:00 7.6 C 6.93 g/m*3 5.26 C 12.9 km/h
305 22-12-2014 01:20:00 7.6 C 6.93 g/m*3 3.94 C 24.1 km/h
306 22-12-2014 01:25:00 7.6 C 6.93 g/m*3 3.94 C 24.1 km/h
307 22-12-2014 01:30:00 7.6 C 6.93 g/m*3 4.81 C 16.1 km/h
308 22-12-2014 01:35:00 7.6 C 6.93 g/m*3 4.09 C 22.5 km/h
309 22-12-2014 01:40:00 7.6 C 6.93 g/m*3 5.02 C 14.5 km/h
310 22-12-2014 01:45:00 7.6 C 6.93 g/m*3 4.61 C 17.7 km/h
311 22-12-2014 01:50:00 7.6 C 6.93 g/m*3 4.42 C 19.3 km/h
312 22-12-2014 01:55:00 7.6 C 6.93 g/m*3 4.25 C 20.9 km/h
313 22-12-2014 02:00:00 7.6 C 6.93 g/m*3 4.25 C 20.9 km/h
314 22-12-2014 02:05:00 7.6 C 7.01 g/m*3 4.25 C 20.9 km/h
315 22-12-2014 02:10:00 7.5 C 6.96 g/m*3 4.9 C 14.5 km/h
316 22-12-2014 02:15:00 7.4 C 6.92 g/m*3 4.36 C 17.7 km/h
317 22-12-2014 02:20:00 7.4 C 7 g/m*3 4.36 C 17.7 km/h
318 22-12-2014 02:25:00 7.4 C 7 g/m*3 3.39 C 27.4 km/h
319 22-12-2014 02:30:00 7.4 C 7 g/m*3 3.84 C 22.5 km/h
320 22-12-2014 02:35:00 7.4 C 7 g/m*3 4.78 C 14.5 km/h
321 22-12-2014 02:40:00 7.4 C 7 g/m*3 3.39 C 27.4 km/h
322 22-12-2014 02:45:00 7.4 C 7 g/m*3 3.14 C 30.6 km/h
323 22-12-2014 02:50:00 7.4 C 7 g/m*3 4.36 C 17.7 km/h
324 22-12-2014 02:55:00 7.4 C 7 g/m*3 4.36 C 17.7 km/h
325 22-12-2014 03:00:00 7.4 C 7 g/m*3 4.78 C 14.5 km/h
Sensor: Nr:Datum:Temp:Abs-Feuchte:Windchill:Wind:
Aussen-T/F 326 22-12-2014 03:05:00 7.4 C 7 g/m*3 4.17 C 19.3 km/h
327 22-12-2014 03:10:00 7.4 C 7 g/m*3 4.78 C 14.5 km/h
328 22-12-2014 03:15:00 7.4 C 7 g/m*3 4 C 20.9 km/h
329 22-12-2014 03:20:00 7.4 C 7.08 g/m*3 4.56 C 16.1 km/h
330 22-12-2014 03:25:00 7.4 C 7.08 g/m*3 3.68 C 24.1 km/h
331 22-12-2014 03:30:00 7.4 C 7.08 g/m*3 4 C 20.9 km/h
332 22-12-2014 03:35:00 7.4 C 7 g/m*3 4.56 C 16.1 km/h
333 22-12-2014 03:40:00 7.4 C 7 g/m*3 3.26 C 29 km/h
334 22-12-2014 03:45:00 7.5 C 7.04 g/m*3 3.27 C 30.6 km/h
335 22-12-2014 03:50:00 7.6 C 7.01 g/m*3 3.4 C 30.6 km/h
336 22-12-2014 03:55:00 7.7 C 7.05 g/m*3 3.65 C 29 km/h
337 22-12-2014 04:00:00 7.7 C 7.05 g/m*3 3.41 C 32.2 km/h
338 22-12-2014 04:05:00 7.7 C 7.05 g/m*3 4.73 C 17.7 km/h
339 22-12-2014 04:10:00 7.7 C 6.97 g/m*3 3.3 C 33.8 km/h
340 22-12-2014 04:15:00 7.7 C 7.05 g/m*3 3.78 C 27.4 km/h
341 22-12-2014 04:20:00 7.7 C 7.05 g/m*3 4.55 C 19.3 km/h
342 22-12-2014 04:25:00 7.7 C 7.05 g/m*3 4.38 C 20.9 km/h
343 22-12-2014 04:30:00 7.7 C 7.05 g/m*3 4.22 C 22.5 km/h
344 22-12-2014 04:35:00 7.7 C 7.05 g/m*3 4.22 C 22.5 km/h
345 22-12-2014 04:40:00 7.7 C 7.05 g/m*3 3.41 C 32.2 km/h
346 22-12-2014 04:45:00 7.7 C 7.05 g/m*3 3.65 C 29 km/h
347 22-12-2014 04:50:00 7.7 C 7.05 g/m*3 4.38 C 20.9 km/h
348 22-12-2014 04:55:00 7.8 C 7.1 g/m*3 4.2 C 24.1 km/h
349 22-12-2014 05:00:00 7.7 C 7.05 g/m*3 3.92 C 25.7 km/h
350 22-12-2014 05:05:00 7.7 C 7.05 g/m*3 4.22 C 22.5 km/h
Sensor: Nr:Datum:Temp:Abs-Feuchte:Windchill:Wind:
Aussen-T/F 351 22-12-2014 05:10:00 7.7 C 7.05 g/m*3 4.93 C 16.1 km/h
352 22-12-2014 05:15:00 7.7 C 7.05 g/m*3 4.07 C 24.1 km/h
353 22-12-2014 05:20:00 7.8 C 7.1 g/m*3 4.35 C 22.5 km/h
354 22-12-2014 05:25:00 7.8 C 7.1 g/m*3 4.51 C 20.9 km/h
355 22-12-2014 05:30:00 7.8 C 7.1 g/m*3 4.2 C 24.1 km/h
356 22-12-2014 05:35:00 7.8 C 7.1 g/m*3 4.68 C 19.3 km/h
357 22-12-2014 05:40:00 7.8 C 7.1 g/m*3 4.68 C 19.3 km/h
358 22-12-2014 05:45:00 7.8 C 7.1 g/m*3 4.51 C 20.9 km/h
359 22-12-2014 05:50:00 7.8 C 7.1 g/m*3 5.06 C 16.1 km/h
360 22-12-2014 05:55:00 7.8 C 7.1 g/m*3 4.86 C 17.7 km/h
361 22-12-2014 06:00:00 7.7 C 7.05 g/m*3 4.22 C 22.5 km/h
362 22-12-2014 06:05:00 7.7 C 7.05 g/m*3 4.73 C 17.7 km/h
363 22-12-2014 06:10:00 7.7 C 7.14 g/m*3 4.55 C 19.3 km/h
364 22-12-2014 06:15:00 7.7 C 7.14 g/m*3 5.65 C 11.3 km/h
365 22-12-2014 06:20:00 7.7 C 7.14 g/m*3 5.38 C 12.9 km/h
366 22-12-2014 06:25:00 7.7 C 7.14 g/m*3 4.55 C 19.3 km/h
367 22-12-2014 06:30:00 7.7 C 7.14 g/m*3 4.55 C 19.3 km/h
368 22-12-2014 06:35:00 7.8 C 7.18 g/m*3 4.2 C 24.1 km/h
369 22-12-2014 06:40:00 7.8 C 7.18 g/m*3 4.51 C 20.9 km/h
370 22-12-2014 06:45:00 7.8 C 7.18 g/m*3 4.51 C 20.9 km/h
371 22-12-2014 06:50:00 7.8 C 7.18 g/m*3 4.05 C 25.7 km/h
372 22-12-2014 06:55:00 7.8 C 7.18 g/m*3 4.68 C 19.3 km/h
373 22-12-2014 07:00:00 7.8 C 7.18 g/m*3 5.06 C 16.1 km/h
374 22-12-2014 07:05:00 7.8 C 7.18 g/m*3 5.27 C 14.5 km/h
375 22-12-2014 07:10:00 7.8 C 7.18 g/m*3 4.51 C 20.9 km/h
Sensor: Nr:Datum:Temp:Abs-Feuchte:Windchill:Wind:
Aussen-T/F 376 22-12-2014 07:15:00 7.8 C 7.18 g/m*3 4.68 C 19.3 km/h
377 22-12-2014 07:20:00 7.8 C 7.18 g/m*3 4.35 C 22.5 km/h
378 22-12-2014 07:25:00 7.8 C 7.18 g/m*3 4.35 C 22.5 km/h
379 22-12-2014 07:30:00 7.8 C 7.18 g/m*3 3.78 C 29 km/h
380 22-12-2014 07:35:00 7.8 C 7.18 g/m*3 4.51 C 20.9 km/h
381 22-12-2014 07:40:00 7.8 C 7.18 g/m*3 4.68 C 19.3 km/h
382 22-12-2014 07:45:00 7.8 C 7.18 g/m*3 4.86 C 17.7 km/h
383 22-12-2014 07:50:00 7.8 C 7.18 g/m*3 4.51 C 20.9 km/h
384 22-12-2014 07:55:00 7.9 C 7.23 g/m*3 4.32 C 24.1 km/h
385 22-12-2014 08:00:00 7.9 C 7.23 g/m*3 4.47 C 22.5 km/h
386 22-12-2014 08:05:00 7.9 C 7.23 g/m*3 4.8 C 19.3 km/h
387 22-12-2014 08:10:00 7.9 C 7.23 g/m*3 4.8 C 19.3 km/h
388 22-12-2014 08:15:00 7.9 C 7.15 g/m*3 5.39 C 14.5 km/h
389 22-12-2014 08:20:00 7.9 C 7.15 g/m*3 4.18 C 25.7 km/h
390 22-12-2014 08:25:00 7.9 C 7.15 g/m*3 4.04 C 27.4 km/h
391 22-12-2014 08:30:00 7.9 C 7.15 g/m*3 5.63 C 12.9 km/h
392 22-12-2014 08:35:00 7.9 C 7.15 g/m*3 4.98 C 17.7 km/h
393 22-12-2014 08:40:00 7.9 C 7.15 g/m*3 4.18 C 25.7 km/h
394 22-12-2014 08:45:00 7.9 C 7.15 g/m*3 4.32 C 24.1 km/h
395 22-12-2014 08:50:00 8 C 7.19 g/m*3 5.11 C 17.7 km/h
396 22-12-2014 08:55:00 7.9 C 7.15 g/m*3 4.47 C 22.5 km/h
397 22-12-2014 09:00:00 7.9 C 7.15 g/m*3 4.32 C 24.1 km/h
398 22-12-2014 09:05:00 7.9 C 7.15 g/m*3 4.8 C 19.3 km/h
399 22-12-2014 09:10:00 7.9 C 7.15 g/m*3 4.47 C 22.5 km/h
400 22-12-2014 09:15:00 7.9 C 7.15 g/m*3 4.98 C 17.7 km/h
Sensor: Nr:Datum:Temp:Abs-Feuchte:Windchill:Wind:
Aussen-T/F 401 22-12-2014 09:20:00 7.9 C 7.15 g/m*3 4.18 C 25.7 km/h
402 22-12-2014 09:25:00 7.9 C 7.15 g/m*3 4.47 C 22.5 km/h
403 22-12-2014 09:30:00 7.9 C 7.15 g/m*3 4.04 C 27.4 km/h
404 22-12-2014 09:35:00 8 C 7.19 g/m*3 3.92 C 30.6 km/h
405 22-12-2014 09:40:00 8.1 C 7.24 g/m*3 3.52 C 38.6 km/h
406 22-12-2014 09:45:00 8.1 C 7.24 g/m*3 4.17 C 29 km/h
407 22-12-2014 09:50:00 8.1 C 7.24 g/m*3 4.73 C 22.5 km/h
408 22-12-2014 09:55:00 8.1 C 7.24 g/m*3 4.58 C 24.1 km/h
409 22-12-2014 10:00:00 8.1 C 7.16 g/m*3 4.89 C 20.9 km/h
410 22-12-2014 10:05:00 8.1 C 7.16 g/m*3 4.73 C 22.5 km/h
411 22-12-2014 10:10:00 8.1 C 7.16 g/m*3 4.3 C 27.4 km/h
412 22-12-2014 10:15:00 8.1 C 7.16 g/m*3 5.05 C 19.3 km/h
413 22-12-2014 10:20:00 8.1 C 7.16 g/m*3 4.89 C 20.9 km/h
414 22-12-2014 10:25:00 8.1 C 7.24 g/m*3 4.05 C 30.6 km/h
415 22-12-2014 10:30:00 8.1 C 7.24 g/m*3 4.89 C 20.9 km/h
416 22-12-2014 10:35:00 8.1 C 7.24 g/m*3 4.17 C 29 km/h
417 22-12-2014 10:40:00 8.1 C 7.24 g/m*3 4.73 C 22.5 km/h
418 22-12-2014 10:45:00 8.1 C 7.24 g/m*3 4.17 C 29 km/h
419 22-12-2014 10:50:00 8.1 C 7.24 g/m*3 4.89 C 20.9 km/h
420 22-12-2014 10:55:00 8.1 C 7.16 g/m*3 5.05 C 19.3 km/h
421 22-12-2014 11:00:00 8.1 C 7.16 g/m*3 5.05 C 19.3 km/h
422 22-12-2014 11:05:00 8.2 C 7.2 g/m*3 4.86 C 22.5 km/h
423 22-12-2014 11:10:00 8.2 C 7.2 g/m*3 4.86 C 22.5 km/h
424 22-12-2014 11:15:00 8.2 C 7.2 g/m*3 5.01 C 20.9 km/h
425 22-12-2014 11:20:00 8.2 C 7.2 g/m*3 5.55 C 16.1 km/h
Sensor: Nr:Datum:Temp:Abs-Feuchte:Windchill:Wind:
Aussen-T/F 426 22-12-2014 11:25:00 8.2 C 7.2 g/m*3 5.18 C 19.3 km/h
427 22-12-2014 11:30:00 8.2 C 7.2 g/m*3 4.3 C 29 km/h
428 22-12-2014 11:35:00 8.2 C 7.2 g/m*3 5.55 C 16.1 km/h
429 22-12-2014 11:40:00 8.2 C 7.2 g/m*3 5.76 C 14.5 km/h
430 22-12-2014 11:45:00 8.2 C 7.2 g/m*3 5.55 C 16.1 km/h
431 22-12-2014 11:50:00 8.2 C 7.2 g/m*3 4.86 C 22.5 km/h
432 22-12-2014 11:55:00 8.2 C 7.2 g/m*3 5.36 C 17.7 km/h
433 22-12-2014 12:00:00 8.2 C 7.2 g/m*3 4.43 C 27.4 km/h
434 22-12-2014 12:05:00 8.2 C 7.2 g/m*3 5.36 C 17.7 km/h
435 22-12-2014 12:10:00 8.2 C 7.29 g/m*3 4.18 C 30.6 km/h
436 22-12-2014 12:15:00 8.2 C 7.29 g/m*3 5.36 C 17.7 km/h
437 22-12-2014 12:20:00 8.2 C 7.29 g/m*3 5.55 C 16.1 km/h
438 22-12-2014 12:25:00 8.2 C 7.29 g/m*3 6.54 C 9.7 km/h
439 22-12-2014 12:30:00 8.2 C 7.29 g/m*3 5.36 C 17.7 km/h
440 22-12-2014 12:35:00 8.2 C 7.2 g/m*3 5.76 C 14.5 km/h
441 22-12-2014 12:40:00 8.3 C 7.25 g/m*3 5.48 C 17.7 km/h
442 22-12-2014 12:45:00 8.3 C 7.33 g/m*3 5.48 C 17.7 km/h
443 22-12-2014 12:50:00 8.3 C 7.33 g/m*3 5.31 C 19.3 km/h
444 22-12-2014 12:55:00 8.3 C 7.25 g/m*3 4.84 C 24.1 km/h
445 22-12-2014 13:00:00 8.3 C 7.33 g/m*3 5.14 C 20.9 km/h
446 22-12-2014 13:05:00 8.3 C 7.33 g/m*3 5.31 C 19.3 km/h
447 22-12-2014 13:10:00 8.4 C 7.38 g/m*3 6.01 C 14.5 km/h
448 22-12-2014 13:15:00 8.3 C 7.33 g/m*3 5.89 C 14.5 km/h
449 22-12-2014 13:20:00 8.3 C 7.33 g/m*3 5.89 C 14.5 km/h
450 22-12-2014 13:25:00 8.3 C 7.33 g/m*3 6.66 C 9.7 km/h
Sensor: Nr:Datum:Temp:Abs-Feuchte:Windchill:Wind:
Aussen-T/F 451 22-12-2014 13:30:00 8.3 C 7.33 g/m*3 5.48 C 17.7 km/h
452 22-12-2014 13:35:00 8.3 C 7.33 g/m*3 6.12 C 12.9 km/h
453 22-12-2014 13:40:00 8.4 C 7.38 g/m*3 6.49 C 11.3 km/h
454 22-12-2014 13:45:00 8.4 C 7.38 g/m*3 5.8 C 16.1 km/h
455 22-12-2014 13:50:00 8.4 C 7.38 g/m*3 5.61 C 17.7 km/h
456 22-12-2014 13:55:00 8.4 C 7.38 g/m*3 6.78 C 9.7 km/h
457 22-12-2014 14:00:00 8.4 C 7.38 g/m*3 6.24 C 12.9 km/h
458 22-12-2014 14:05:00 8.4 C 7.38 g/m*3 5.8 C 16.1 km/h
459 22-12-2014 14:10:00 8.4 C 7.38 g/m*3 5.27 C 20.9 km/h
460 22-12-2014 14:15:00 8.4 C 7.38 g/m*3 4.96 C 24.1 km/h
461 22-12-2014 14:20:00 8.5 C 7.43 g/m*3 5.73 C 17.7 km/h
462 22-12-2014 14:25:00 8.6 C 7.48 g/m*3 5.86 C 17.7 km/h
463 22-12-2014 14:30:00 8.6 C 7.48 g/m*3 6.25 C 14.5 km/h
464 22-12-2014 14:35:00 8.7 C 7.52 g/m*3 5.81 C 19.3 km/h
465 22-12-2014 14:40:00 8.7 C 7.52 g/m*3 5.35 C 24.1 km/h
466 22-12-2014 14:45:00 8.7 C 7.52 g/m*3 5.65 C 20.9 km/h
467 22-12-2014 14:50:00 8.7 C 7.52 g/m*3 6.38 C 14.5 km/h
468 22-12-2014 14:55:00 8.7 C 7.52 g/m*3 5.49 C 22.5 km/h
469 22-12-2014 15:00:00 8.7 C 7.52 g/m*3 5.65 C 20.9 km/h
470 22-12-2014 15:05:00 8.7 C 7.52 g/m*3 6.17 C 16.1 km/h
471 22-12-2014 15:10:00 8.7 C 7.52 g/m*3 5.81 C 19.3 km/h
472 22-12-2014 15:15:00 8.7 C 7.52 g/m*3 4.62 C 33.8 km/h
473 22-12-2014 15:20:00 8.8 C 7.57 g/m*3 5.34 C 25.7 km/h
474 22-12-2014 15:25:00 8.8 C 7.57 g/m*3 5.08 C 29 km/h
475 22-12-2014 15:30:00 8.8 C 7.57 g/m*3 5.93 C 19.3 km/h
Sensor: Nr:Datum:Temp:Abs-Feuchte:Windchill:Wind:
Aussen-T/F 476 22-12-2014 15:35:00 8.8 C 7.57 g/m*3 5.77 C 20.9 km/h
477 22-12-2014 15:40:00 8.8 C 7.57 g/m*3 5.48 C 24.1 km/h
478 22-12-2014 15:45:00 8.7 C 7.52 g/m*3 5.98 C 17.7 km/h
479 22-12-2014 15:50:00 8.7 C 7.52 g/m*3 5.35 C 24.1 km/h
480 22-12-2014 15:55:00 8.7 C 7.52 g/m*3 6.85 C 11.3 km/h
481 22-12-2014 16:00:00 8.7 C 7.52 g/m*3 5.81 C 19.3 km/h
482 22-12-2014 16:05:00 8.7 C 7.61 g/m*3 5.98 C 17.7 km/h
483 22-12-2014 16:10:00 8.7 C 7.61 g/m*3 7.87 C 6.4 km/h
484 22-12-2014 16:15:00 8.7 C 7.61 g/m*3 6.38 C 14.5 km/h
485 22-12-2014 16:20:00 8.7 C 7.61 g/m*3 6.38 C 14.5 km/h
486 22-12-2014 16:25:00 8.8 C 7.66 g/m*3 6.3 C 16.1 km/h
487 22-12-2014 16:30:00 8.8 C 7.66 g/m*3 7.58 C 8.1 km/h
488 22-12-2014 16:35:00 8.8 C 7.66 g/m*3 6.5 C 14.5 km/h
489 22-12-2014 16:40:00 8.8 C 7.66 g/m*3 6.3 C 16.1 km/h
490 22-12-2014 16:45:00 8.8 C 7.66 g/m*3 7.25 C 9.7 km/h
491 22-12-2014 16:50:00 8.8 C 7.66 g/m*3 5.93 C 19.3 km/h
492 22-12-2014 16:55:00 8.8 C 7.66 g/m*3 5.77 C 20.9 km/h
493 22-12-2014 17:00:00 8.9 C 7.71 g/m*3 6.06 C 19.3 km/h
494 22-12-2014 17:05:00 8.9 C 7.71 g/m*3 6.62 C 14.5 km/h
495 22-12-2014 17:10:00 8.9 C 7.71 g/m*3 6.23 C 17.7 km/h
496 22-12-2014 17:15:00 8.9 C 7.71 g/m*3 6.06 C 19.3 km/h
497 22-12-2014 17:20:00 8.9 C 7.71 g/m*3 6.62 C 14.5 km/h
498 22-12-2014 17:25:00 8.9 C 7.71 g/m*3 7.09 C 11.3 km/h
499 22-12-2014 17:30:00 8.9 C 7.71 g/m*3 6.85 C 12.9 km/h
500 22-12-2014 17:35:00 8.9 C 7.71 g/m*3 5.6 C 24.1 km/h
Sensor: Nr:Datum:Temp:Abs-Feuchte:Windchill:Wind:
Aussen-T/F 501 22-12-2014 17:40:00 8.9 C 7.8 g/m*3 6.62 C 14.5 km/h
502 22-12-2014 17:45:00 8.9 C 7.8 g/m*3 5.9 C 20.9 km/h
503 22-12-2014 17:50:00 8.9 C 7.8 g/m*3 6.62 C 14.5 km/h
504 22-12-2014 17:55:00 8.9 C 7.8 g/m*3 6.42 C 16.1 km/h
505 22-12-2014 18:00:00 9 C 7.85 g/m*3 6.19 C 19.3 km/h
506 22-12-2014 18:05:00 9.1 C 7.9 g/m*3 6.87 C 14.5 km/h
507 22-12-2014 18:10:00 9.1 C 7.9 g/m*3 7.33 C 11.3 km/h
508 22-12-2014 18:15:00 9.1 C 7.9 g/m*3 6.15 C 20.9 km/h
509 22-12-2014 18:20:00 9.2 C 7.95 g/m*3 7.21 C 12.9 km/h
510 22-12-2014 18:25:00 9.2 C 7.95 g/m*3 6.61 C 17.7 km/h
511 22-12-2014 18:30:00 9.2 C 7.95 g/m*3 6.79 C 16.1 km/h
512 22-12-2014 18:35:00 9.2 C 7.95 g/m*3 7.73 C 9.7 km/h
513 22-12-2014 18:40:00 9.2 C 7.95 g/m*3 6.79 C 16.1 km/h
514 22-12-2014 18:45:00 9.2 C 7.95 g/m*3 5.6 C 29 km/h
515 22-12-2014 18:50:00 9.3 C 8 g/m*3 5.73 C 29 km/h
516 22-12-2014 18:55:00 9.3 C 8 g/m*3 6.41 C 20.9 km/h
517 22-12-2014 19:00:00 9.3 C 8 g/m*3 6.41 C 20.9 km/h
518 22-12-2014 19:05:00 9.3 C 8 g/m*3 6.56 C 19.3 km/h
519 22-12-2014 19:10:00 9.3 C 7.91 g/m*3 7.12 C 14.5 km/h
520 22-12-2014 19:15:00 9.4 C 7.96 g/m*3 7.7 C 11.3 km/h
521 22-12-2014 19:20:00 9.3 C 7.91 g/m*3 6.92 C 16.1 km/h
522 22-12-2014 19:25:00 9.3 C 7.91 g/m*3 6.73 C 17.7 km/h
523 22-12-2014 19:30:00 9.4 C 7.96 g/m*3 6.25 C 24.1 km/h
524 22-12-2014 19:35:00 9.4 C 7.96 g/m*3 7.24 C 14.5 km/h
525 22-12-2014 19:40:00 9.4 C 7.96 g/m*3 7.04 C 16.1 km/h
Sensor: Nr:Datum:Temp:Abs-Feuchte:Windchill:Wind:
Aussen-T/F 526 22-12-2014 19:45:00 9.4 C 7.96 g/m*3 6.86 C 17.7 km/h
527 22-12-2014 19:50:00 9.4 C 7.96 g/m*3 6.69 C 19.3 km/h
528 22-12-2014 19:55:00 9.5 C 8.01 g/m*3 6.37 C 24.1 km/h
529 22-12-2014 20:00:00 9.5 C 8.01 g/m*3 6.66 C 20.9 km/h
530 22-12-2014 20:05:00 9.5 C 8.01 g/m*3 7.36 C 14.5 km/h
531 22-12-2014 20:10:00 9.5 C 8.01 g/m*3 7.16 C 16.1 km/h
532 22-12-2014 20:15:00 9.4 C 7.96 g/m*3 6.86 C 17.7 km/h
533 22-12-2014 20:20:00 9.4 C 7.96 g/m*3 6.53 C 20.9 km/h
534 22-12-2014 20:25:00 9.4 C 7.96 g/m*3 6.25 C 24.1 km/h
535 22-12-2014 20:30:00 9.3 C 7.91 g/m*3 6.92 C 16.1 km/h
536 22-12-2014 20:35:00 9.4 C 7.96 g/m*3 6.11 C 25.7 km/h
537 22-12-2014 20:40:00 9.4 C 7.96 g/m*3 5.86 C 29 km/h
538 22-12-2014 20:45:00 9.3 C 7.91 g/m*3 6.12 C 24.1 km/h
539 22-12-2014 20:50:00 9.3 C 7.91 g/m*3 6.26 C 22.5 km/h
540 22-12-2014 20:55:00 9.3 C 7.91 g/m*3 5.85 C 27.4 km/h
541 22-12-2014 21:00:00 9.3 C 8 g/m*3 6.92 C 16.1 km/h
542 22-12-2014 21:05:00 9.3 C 8 g/m*3 6.73 C 17.7 km/h
543 22-12-2014 21:10:00 9.3 C 8 g/m*3 7.12 C 14.5 km/h
544 22-12-2014 21:15:00 9.2 C 7.95 g/m*3 6.79 C 16.1 km/h
545 22-12-2014 21:20:00 9.3 C 8 g/m*3 6.92 C 16.1 km/h
546 22-12-2014 21:25:00 9.3 C 8 g/m*3 7.12 C 14.5 km/h
547 22-12-2014 21:30:00 9.2 C 7.95 g/m*3 7.46 C 11.3 km/h
548 22-12-2014 21:35:00 9.2 C 7.95 g/m*3 6.79 C 16.1 km/h
549 22-12-2014 21:40:00 9.2 C 7.95 g/m*3 6.79 C 16.1 km/h
550 22-12-2014 21:45:00 9.3 C 8 g/m*3 7.58 C 11.3 km/h
Sensor: Nr:Datum:Temp:Abs-Feuchte:Windchill:Wind:
Aussen-T/F 551 22-12-2014 21:50:00 9.3 C 8 g/m*3 8.16 C 8.1 km/h
552 22-12-2014 21:55:00 9.3 C 8 g/m*3 8.16 C 8.1 km/h
553 22-12-2014 22:00:00 9.3 C 8 g/m*3 8.56 C 6.4 km/h
554 22-12-2014 22:05:00 9.3 C 8 g/m*3 7.85 C 9.7 km/h
555 22-12-2014 22:10:00 9.3 C 8 g/m*3 7.33 C 12.9 km/h
556 22-12-2014 22:15:00 9.3 C 8 g/m*3 7.85 C 9.7 km/h
557 22-12-2014 22:20:00 9.3 C 8 g/m*3 8.16 C 8.1 km/h
558 22-12-2014 22:25:00 9.3 C 8.09 g/m*3 7.58 C 11.3 km/h
559 22-12-2014 22:30:00 9.3 C 8.09 g/m*3 7.12 C 14.5 km/h
560 22-12-2014 22:35:00 9.4 C 8.05 g/m*3 8.68 C 6.4 km/h
561 22-12-2014 22:40:00 9.4 C 8.05 g/m*3 7.46 C 12.9 km/h
562 22-12-2014 22:45:00 9.4 C 8.05 g/m*3 8.28 C 8.1 km/h
563 22-12-2014 22:50:00 9.4 C 8.05 g/m*3 7.97 C 9.7 km/h
564 22-12-2014 22:55:00 9.4 C 8.05 g/m*3 9.4 C 4.8 km/h
565 22-12-2014 23:00:00 9.4 C 8.05 g/m*3 8.68 C 6.4 km/h
566 22-12-2014 23:05:00 9.5 C 8.1 g/m*3 7.58 C 12.9 km/h
567 22-12-2014 23:10:00 9.6 C 8.15 g/m*3 7.94 C 11.3 km/h
568 22-12-2014 23:15:00 9.6 C 8.15 g/m*3 8.91 C 6.4 km/h
569 22-12-2014 23:20:00 9.6 C 8.15 g/m*3 8.21 C 9.7 km/h
570 22-12-2014 23:25:00 9.7 C 8.2 g/m*3 8.63 C 8.1 km/h
571 22-12-2014 23:30:00 9.7 C 8.2 g/m*3 7.82 C 12.9 km/h
572 22-12-2014 23:35:00 9.7 C 8.2 g/m*3 8.33 C 9.7 km/h
573 22-12-2014 23:40:00 9.7 C 8.2 g/m*3 7.61 C 14.5 km/h
574 22-12-2014 23:45:00 9.7 C 8.2 g/m*3 7.82 C 12.9 km/h
575 22-12-2014 23:50:00 9.7 C 8.2 g/m*3 8.33 C 9.7 km/h
Sensor: Nr:Datum:Temp:Abs-Feuchte:Windchill:Wind:
Aussen-T/F 576 22-12-2014 23:55:00 9.8 C 8.26 g/m*3 8.18 C 11.3 km/h
577 23-12-2014 00:00:00 9.8 C 8.26 g/m*3 8.45 C 9.7 km/h
578 23-12-2014 00:05:00 9.8 C 8.26 g/m*3 8.18 C 11.3 km/h
579 23-12-2014 00:10:00 9.8 C 8.26 g/m*3 7.54 C 16.1 km/h
580 23-12-2014 00:15:00 9.8 C 8.26 g/m*3 7.73 C 14.5 km/h
581 23-12-2014 00:20:00 9.8 C 8.16 g/m*3 7.54 C 16.1 km/h
582 23-12-2014 00:25:00 9.9 C 8.22 g/m*3 7.48 C 17.7 km/h
583 23-12-2014 00:30:00 9.9 C 8.22 g/m*3 7.85 C 14.5 km/h
584 23-12-2014 00:35:00 9.9 C 8.22 g/m*3 8.3 C 11.3 km/h
585 23-12-2014 00:40:00 10 C 8.27 g/m*3 8.42 C 11.3 km/h
586 23-12-2014 00:45:00 10 C 8.27 g/m*3 9.37 C 6.4 km/h
587 23-12-2014 00:50:00 10 C 8.27 g/m*3 9.37 C 6.4 km/h
588 23-12-2014 00:55:00 10 C 8.27 g/m*3 8.42 C 11.3 km/h
589 23-12-2014 01:00:00 10.1 C 8.32 g/m*3 8.54 C 11.3 km/h
590 23-12-2014 01:05:00 10.1 C 8.32 g/m*3 8.54 C 11.3 km/h
591 23-12-2014 01:10:00 10.1 C 8.32 g/m*3 9.1 C 8.1 km/h
592 23-12-2014 01:15:00 10.1 C 8.32 g/m*3 8.31 C 12.9 km/h
593 23-12-2014 01:20:00 10.1 C 8.32 g/m*3 8.54 C 11.3 km/h
594 23-12-2014 01:25:00 10.1 C 8.32 g/m*3 9.1 C 8.1 km/h
595 23-12-2014 01:30:00 10.1 C 8.32 g/m*3 8.8 C 9.7 km/h
596 23-12-2014 01:35:00 10 C 8.27 g/m*3 8.68 C 9.7 km/h
597 23-12-2014 01:40:00 10 C 8.27 g/m*3 8.68 C 9.7 km/h
598 23-12-2014 01:45:00 10 C 8.27 g/m*3 9.37 C 6.4 km/h
599 23-12-2014 01:50:00 10.1 C 8.32 g/m*3 8.31 C 12.9 km/h
600 23-12-2014 01:55:00 10.1 C 8.32 g/m*3 7.91 C 16.1 km/h
Sensor: Nr:Datum:Temp:Abs-Feuchte:Windchill:Wind:
Aussen-T/F 601 23-12-2014 02:00:00 10.1 C 8.32 g/m*3 9.48 C 6.4 km/h
602 23-12-2014 02:05:00 10.1 C 8.32 g/m*3 8.31 C 12.9 km/h
603 23-12-2014 02:10:00 10.1 C 8.32 g/m*3 8.54 C 11.3 km/h
604 23-12-2014 02:15:00 10.1 C 8.32 g/m*3 8.1 C 14.5 km/h
605 23-12-2014 02:20:00 10.2 C 8.37 g/m*3 8.66 C 11.3 km/h
606 23-12-2014 02:25:00 10.2 C 8.28 g/m*3 8.03 C 16.1 km/h
607 23-12-2014 02:30:00 10.3 C 8.33 g/m*3 8.34 C 14.5 km/h
608 23-12-2014 02:35:00 10.3 C 8.33 g/m*3 7.82 C 19.3 km/h
609 23-12-2014 02:40:00 10.3 C 8.33 g/m*3 8.16 C 16.1 km/h
610 23-12-2014 02:45:00 10.3 C 8.33 g/m*3 8.34 C 14.5 km/h
611 23-12-2014 02:50:00 10.3 C 8.33 g/m*3 7.82 C 19.3 km/h
612 23-12-2014 02:55:00 10.4 C 8.38 g/m*3 8.11 C 17.7 km/h
613 23-12-2014 03:00:00 10.4 C 8.29 g/m*3 8.11 C 17.7 km/h
614 23-12-2014 03:05:00 10.4 C 8.29 g/m*3 8.67 C 12.9 km/h
615 23-12-2014 03:10:00 10.4 C 8.29 g/m*3 8.9 C 11.3 km/h
616 23-12-2014 03:15:00 10.3 C 8.33 g/m*3 7.53 C 22.5 km/h
617 23-12-2014 03:20:00 10.3 C 8.33 g/m*3 7.82 C 19.3 km/h
618 23-12-2014 03:25:00 10.2 C 8.28 g/m*3 8.03 C 16.1 km/h
619 23-12-2014 03:30:00 10.2 C 8.28 g/m*3 8.22 C 14.5 km/h
620 23-12-2014 03:35:00 10.2 C 8.28 g/m*3 9.22 C 8.1 km/h
621 23-12-2014 03:40:00 10.2 C 8.28 g/m*3 8.92 C 9.7 km/h
622 23-12-2014 03:45:00 10.2 C 8.28 g/m*3 8.43 C 12.9 km/h
623 23-12-2014 03:50:00 10.2 C 8.28 g/m*3 7.7 C 19.3 km/h
624 23-12-2014 03:55:00 10.3 C 8.33 g/m*3 7.27 C 25.7 km/h
625 23-12-2014 04:00:00 10.4 C 8.29 g/m*3 8.28 C 16.1 km/h
Sensor: Nr:Datum:Temp:Abs-Feuchte:Windchill:Wind:
Aussen-T/F 626 23-12-2014 04:05:00 10.3 C 8.24 g/m*3 8.78 C 11.3 km/h
627 23-12-2014 04:10:00 10.3 C 8.24 g/m*3 9.04 C 9.7 km/h
628 23-12-2014 04:15:00 10.3 C 8.33 g/m*3 8.55 C 12.9 km/h
629 23-12-2014 04:20:00 10.3 C 8.24 g/m*3 7.98 C 17.7 km/h
630 23-12-2014 04:25:00 10.4 C 8.29 g/m*3 7.95 C 19.3 km/h
631 23-12-2014 04:30:00 10.4 C 8.29 g/m*3 8.67 C 12.9 km/h
632 23-12-2014 04:35:00 10.4 C 8.29 g/m*3 8.47 C 14.5 km/h
633 23-12-2014 04:40:00 10.4 C 8.29 g/m*3 8.47 C 14.5 km/h
634 23-12-2014 04:45:00 10.5 C 8.34 g/m*3 8.8 C 12.9 km/h
635 23-12-2014 04:50:00 10.5 C 8.34 g/m*3 8.8 C 12.9 km/h
636 23-12-2014 04:55:00 10.5 C 8.34 g/m*3 8.23 C 17.7 km/h
637 23-12-2014 05:00:00 10.6 C 8.39 g/m*3 8.36 C 17.7 km/h
638 23-12-2014 05:05:00 10.5 C 8.24 g/m*3 8.8 C 12.9 km/h
639 23-12-2014 05:10:00 10.5 C 8.24 g/m*3 8.8 C 12.9 km/h
640 23-12-2014 05:15:00 10.5 C 8.24 g/m*3 8.8 C 12.9 km/h
641 23-12-2014 05:20:00 10.4 C 8.19 g/m*3 8.47 C 14.5 km/h
642 23-12-2014 05:25:00 10.4 C 8.29 g/m*3 8.9 C 11.3 km/h
643 23-12-2014 05:30:00 10.4 C 8.29 g/m*3 7.95 C 19.3 km/h
644 23-12-2014 05:35:00 10.4 C 8.19 g/m*3 8.9 C 11.3 km/h
645 23-12-2014 05:40:00 10.4 C 8.19 g/m*3 8.28 C 16.1 km/h
646 23-12-2014 05:45:00 10.5 C 8.24 g/m*3 9.28 C 9.7 km/h
647 23-12-2014 05:50:00 10.4 C 8.19 g/m*3 8.47 C 14.5 km/h
648 23-12-2014 05:55:00 10.4 C 8.19 g/m*3 8.11 C 17.7 km/h
649 23-12-2014 06:00:00 10.4 C 8.19 g/m*3 8.28 C 16.1 km/h
650 23-12-2014 06:05:00 10.5 C 8.24 g/m*3 8.8 C 12.9 km/h
Sensor: Nr:Datum:Temp:Abs-Feuchte:Windchill:Wind:
Aussen-T/F 651 23-12-2014 06:10:00 10.5 C 8.24 g/m*3 8.4 C 16.1 km/h
652 23-12-2014 06:15:00 10.6 C 8.3 g/m*3 8.53 C 16.1 km/h
653 23-12-2014 06:20:00 10.6 C 8.2 g/m*3 8.92 C 12.9 km/h
654 23-12-2014 06:25:00 10.6 C 8.3 g/m*3 8.53 C 16.1 km/h
655 23-12-2014 06:30:00 10.6 C 8.3 g/m*3 8.53 C 16.1 km/h
656 23-12-2014 06:35:00 10.5 C 8.24 g/m*3 9.28 C 9.7 km/h
657 23-12-2014 06:40:00 10.5 C 8.24 g/m*3 7.53 C 25.7 km/h
658 23-12-2014 06:45:00 10.5 C 8.24 g/m*3 7.92 C 20.9 km/h
659 23-12-2014 06:50:00 10.5 C 8.24 g/m*3 8.4 C 16.1 km/h
660 23-12-2014 06:55:00 10.6 C 8.3 g/m*3 8.2 C 19.3 km/h
661 23-12-2014 07:00:00 10.6 C 8.3 g/m*3 8.53 C 16.1 km/h
662 23-12-2014 07:05:00 10.5 C 8.24 g/m*3 8.59 C 14.5 km/h
663 23-12-2014 07:10:00 10.5 C 8.24 g/m*3 8.8 C 12.9 km/h
664 23-12-2014 07:15:00 10.4 C 8.19 g/m*3 8.9 C 11.3 km/h
665 23-12-2014 07:20:00 10.4 C 8.19 g/m*3 8.9 C 11.3 km/h
666 23-12-2014 07:25:00 10.4 C 8.19 g/m*3 7.95 C 19.3 km/h
667 23-12-2014 07:30:00 10.5 C 8.24 g/m*3 8.23 C 17.7 km/h
668 23-12-2014 07:35:00 10.5 C 8.24 g/m*3 8.23 C 17.7 km/h
669 23-12-2014 07:40:00 10.4 C 8.19 g/m*3 8.28 C 16.1 km/h
670 23-12-2014 07:45:00 10.5 C 8.24 g/m*3 9.57 C 8.1 km/h
671 23-12-2014 07:50:00 10.4 C 8.19 g/m*3 8.9 C 11.3 km/h
672 23-12-2014 07:55:00 10.4 C 8.19 g/m*3 8.67 C 12.9 km/h
673 23-12-2014 08:00:00 10.4 C 8.19 g/m*3 8.47 C 14.5 km/h
674 23-12-2014 08:05:00 10.4 C 8.19 g/m*3 8.67 C 12.9 km/h
675 23-12-2014 08:10:00 10.5 C 8.15 g/m*3 8.59 C 14.5 km/h
Sensor: Nr:Datum:Temp:Abs-Feuchte:Windchill:Wind:
Aussen-T/F 676 23-12-2014 08:15:00 10.4 C 8.1 g/m*3 9.46 C 8.1 km/h
677 23-12-2014 08:20:00 10.4 C 8.19 g/m*3 9.83 C 6.4 km/h
678 23-12-2014 08:25:00 10.4 C 8.19 g/m*3 8.67 C 12.9 km/h
679 23-12-2014 08:30:00 10.4 C 8.19 g/m*3 8.67 C 12.9 km/h
680 23-12-2014 08:35:00 10.4 C 8.19 g/m*3 8.11 C 17.7 km/h
681 23-12-2014 08:40:00 10.4 C 8.19 g/m*3 9.46 C 8.1 km/h
682 23-12-2014 08:45:00 10.4 C 8.19 g/m*3 9.46 C 8.1 km/h
683 23-12-2014 08:50:00 10.4 C 8.19 g/m*3 8.67 C 12.9 km/h
684 23-12-2014 08:55:00 10.4 C 8.1 g/m*3 8.67 C 12.9 km/h
685 23-12-2014 09:00:00 10.4 C 8.1 g/m*3 9.16 C 9.7 km/h
686 23-12-2014 09:05:00 10.4 C 8.1 g/m*3 9.16 C 9.7 km/h
687 23-12-2014 09:10:00 10.4 C 8.1 g/m*3 9.83 C 6.4 km/h
688 23-12-2014 09:15:00 10.4 C 8.1 g/m*3 9.16 C 9.7 km/h
689 23-12-2014 09:20:00 10.4 C 8.1 g/m*3 8.9 C 11.3 km/h
690 23-12-2014 09:25:00 10.4 C 8.1 g/m*3 8.11 C 17.7 km/h
691 23-12-2014 09:50:00 10.4 C 8.19 g/m*3 8.47 C 14.5 km/h
692 23-12-2014 09:55:00 10.4 C 8.19 g/m*3 9.46 C 8.1 km/h
693 23-12-2014 10:00:00 10.3 C 8.14 g/m*3 8.78 C 11.3 km/h
694 23-12-2014 10:05:00 10.4 C 8.19 g/m*3 7.95 C 19.3 km/h
695 23-12-2014 10:10:00 10.4 C 8.19 g/m*3 8.11 C 17.7 km/h
696 23-12-2014 10:15:00 10.4 C 8.19 g/m*3 8.47 C 14.5 km/h
697 23-12-2014 10:20:00 10.4 C 8.19 g/m*3 8.67 C 12.9 km/h
698 23-12-2014 10:25:00 10.4 C 8.19 g/m*3 8.28 C 16.1 km/h
699 23-12-2014 10:30:00 10.4 C 8.19 g/m*3 7.95 C 19.3 km/h
700 23-12-2014 10:35:00 10.4 C 8.19 g/m*3 8.67 C 12.9 km/h
Sensor: Nr:Datum:Temp:Abs-Feuchte:Windchill:Wind:
Aussen-T/F 701 23-12-2014 11:15:00 10.3 C 9.58 g/m*3 8.16 C 16.1 km/h
702 23-12-2014 11:20:00 10.3 C 8.14 g/m*3 8.34 C 14.5 km/h
703 23-12-2014 11:25:00 10.3 C 8.14 g/m*3 8.34 C 14.5 km/h
704 23-12-2014 11:30:00 10.3 C 8.24 g/m*3 8.34 C 14.5 km/h
705 23-12-2014 11:35:00 10.3 C 8.14 g/m*3 8.55 C 12.9 km/h
706 23-12-2014 11:40:00 10.3 C 8.24 g/m*3 7.82 C 19.3 km/h
707 23-12-2014 11:45:00 10.3 C 8.24 g/m*3 8.55 C 12.9 km/h
708 23-12-2014 11:50:00 10.3 C 8.24 g/m*3 7.98 C 17.7 km/h
709 23-12-2014 11:55:00 10.3 C 8.24 g/m*3 8.55 C 12.9 km/h
710 23-12-2014 12:00:00 10.3 C 8.24 g/m*3 8.55 C 12.9 km/h
711 23-12-2014 12:05:00 10.2 C 8.18 g/m*3 8.43 C 12.9 km/h
712 23-12-2014 12:10:00 10.2 C 8.18 g/m*3 8.03 C 16.1 km/h
713 23-12-2014 12:15:00 10.2 C 8.18 g/m*3 8.43 C 12.9 km/h
714 23-12-2014 12:20:00 10.2 C 8.18 g/m*3 7.86 C 17.7 km/h
715 23-12-2014 12:25:00 10.2 C 8.18 g/m*3 8.43 C 12.9 km/h
716 23-12-2014 13:05:00 10.3 C 9.58 g/m*3 8.16 C 16.1 km/h
717 23-12-2014 13:10:00 10.3 C 9.58 g/m*3 7.98 C 17.7 km/h
718 23-12-2014 13:15:00 10.3 C 8.24 g/m*3 8.55 C 12.9 km/h
719 23-12-2014 13:20:00 10.3 C 8.24 g/m*3 9.04 C 9.7 km/h
720 23-12-2014 13:25:00 10.3 C 8.24 g/m*3 8.78 C 11.3 km/h
721 23-12-2014 13:30:00 10.3 C 8.24 g/m*3 8.78 C 11.3 km/h
722 23-12-2014 13:35:00 10.3 C 8.24 g/m*3 8.55 C 12.9 km/h
723 23-12-2014 13:40:00 10.3 C 8.24 g/m*3 9.72 C 6.4 km/h
724 23-12-2014 13:45:00 10.3 C 8.24 g/m*3 9.34 C 8.1 km/h
725 23-12-2014 13:50:00 10.3 C 8.24 g/m*3 9.72 C 6.4 km/h
Sensor: Nr:Datum:Temp:Abs-Feuchte:Windchill:Wind:
Aussen-T/F 726 23-12-2014 13:55:00 10.3 C 8.24 g/m*3 8.78 C 11.3 km/h
727 23-12-2014 14:00:00 10.3 C 8.24 g/m*3 8.16 C 16.1 km/h
728 23-12-2014 14:05:00 10.4 C 8.29 g/m*3 8.67 C 12.9 km/h
729 23-12-2014 14:10:00 10.4 C 8.29 g/m*3 10.4 C 4.8 km/h
730 23-12-2014 14:15:00 10.5 C 8.34 g/m*3 8.07 C 19.3 km/h
731 23-12-2014 14:20:00 10.5 C 8.34 g/m*3 8.59 C 14.5 km/h
732 23-12-2014 14:25:00 10.5 C 8.34 g/m*3 8.8 C 12.9 km/h
733 23-12-2014 14:30:00 10.5 C 8.34 g/m*3 9.57 C 8.1 km/h
734 23-12-2014 14:35:00 10.5 C 8.34 g/m*3 9.28 C 9.7 km/h
735 23-12-2014 14:40:00 10.5 C 8.34 g/m*3 8.8 C 12.9 km/h
736 23-12-2014 14:45:00 10.4 C 8.29 g/m*3 8.67 C 12.9 km/h
737 23-12-2014 14:50:00 10.4 C 8.29 g/m*3 9.16 C 9.7 km/h
738 23-12-2014 14:55:00 10.4 C 8.29 g/m*3 8.67 C 12.9 km/h
739 23-12-2014 15:00:00 10.4 C 8.29 g/m*3 9.16 C 9.7 km/h
740 23-12-2014 15:05:00 10.4 C 8.29 g/m*3 9.46 C 8.1 km/h
741 23-12-2014 15:10:00 10.4 C 8.29 g/m*3 9.16 C 9.7 km/h
742 23-12-2014 15:15:00 10.3 C 8.24 g/m*3 9.04 C 9.7 km/h
743 23-12-2014 15:20:00 10.3 C 8.24 g/m*3 8.55 C 12.9 km/h
744 23-12-2014 15:25:00 10.3 C 8.24 g/m*3 7.98 C 17.7 km/h
745 23-12-2014 15:30:00 10.3 C 8.24 g/m*3 7.98 C 17.7 km/h
746 23-12-2014 15:35:00 10.3 C 8.24 g/m*3 8.55 C 12.9 km/h
747 23-12-2014 15:40:00 10.3 C 8.24 g/m*3 8.78 C 11.3 km/h
748 23-12-2014 15:45:00 10.3 C 8.24 g/m*3 9.34 C 8.1 km/h
749 23-12-2014 15:50:00 10.3 C 8.24 g/m*3 8.55 C 12.9 km/h
750 23-12-2014 15:55:00 10.3 C 8.24 g/m*3 8.55 C 12.9 km/h
Sensor: Nr:Datum:Temp:Abs-Feuchte:Windchill:Wind:
Aussen-T/F 751 23-12-2014 16:00:00 10.3 C 8.24 g/m*3 9.04 C 9.7 km/h
752 23-12-2014 16:05:00 10.3 C 8.24 g/m*3 9.04 C 9.7 km/h
753 23-12-2014 16:10:00 10.3 C 8.14 g/m*3 9.34 C 8.1 km/h
754 23-12-2014 16:15:00 10.2 C 8.18 g/m*3 9.22 C 8.1 km/h
755 23-12-2014 16:20:00 10.2 C 8.09 g/m*3 8.92 C 9.7 km/h
756 23-12-2014 16:25:00 10.2 C 8.09 g/m*3 8.92 C 9.7 km/h
757 23-12-2014 16:30:00 10.2 C 8.18 g/m*3 9.22 C 8.1 km/h
758 23-12-2014 16:35:00 10.2 C 8.09 g/m*3 8.92 C 9.7 km/h
759 23-12-2014 16:40:00 10.2 C 8.09 g/m*3 9.6 C 6.4 km/h
760 23-12-2014 16:45:00 10.1 C 8.13 g/m*3 10.1 C 4.8 km/h
761 23-12-2014 16:50:00 10.1 C 8.13 g/m*3 9.48 C 6.4 km/h
762 23-12-2014 16:55:00 10.1 C 8.13 g/m*3 8.8 C 9.7 km/h
763 23-12-2014 17:00:00 10.1 C 8.13 g/m*3 8.31 C 12.9 km/h
764 23-12-2014 17:05:00 10.1 C 8.04 g/m*3 8.8 C 9.7 km/h
765 23-12-2014 17:10:00 10.1 C 8.13 g/m*3 9.48 C 6.4 km/h
766 23-12-2014 17:15:00 10.1 C 8.04 g/m*3 8.31 C 12.9 km/h
767 23-12-2014 17:20:00 10.1 C 8.04 g/m*3 8.8 C 9.7 km/h
768 23-12-2014 17:25:00 10 C 8.08 g/m*3 8.99 C 8.1 km/h
769 23-12-2014 17:30:00 10 C 8.08 g/m*3 7.98 C 14.5 km/h
770 23-12-2014 17:35:00 10 C 8.08 g/m*3 8.19 C 12.9 km/h
771 23-12-2014 17:40:00 10 C 7.99 g/m*3 8.19 C 12.9 km/h
772 23-12-2014 17:45:00 9.9 C 8.03 g/m*3 8.3 C 11.3 km/h
773 23-12-2014 17:50:00 9.9 C 8.03 g/m*3 8.56 C 9.7 km/h
774 23-12-2014 17:55:00 9.9 C 7.94 g/m*3 7.85 C 14.5 km/h
775 23-12-2014 18:00:00 9.9 C 7.94 g/m*3 8.56 C 9.7 km/h
Sensor: Nr:Datum:Temp:Abs-Feuchte:Windchill:Wind:
Aussen-T/F 776 23-12-2014 18:05:00 9.9 C 7.94 g/m*3 8.56 C 9.7 km/h
777 23-12-2014 18:10:00 9.9 C 7.94 g/m*3 8.56 C 9.7 km/h
778 23-12-2014 18:15:00 9.9 C 7.94 g/m*3 8.56 C 9.7 km/h
779 23-12-2014 18:20:00 9.8 C 7.98 g/m*3 8.45 C 9.7 km/h
780 23-12-2014 18:25:00 9.8 C 7.89 g/m*3 8.18 C 11.3 km/h
781 23-12-2014 18:30:00 9.8 C 7.98 g/m*3 7.54 C 16.1 km/h
782 23-12-2014 18:35:00 9.8 C 7.89 g/m*3 8.75 C 8.1 km/h
783 23-12-2014 18:40:00 9.8 C 7.89 g/m*3 7.94 C 12.9 km/h
784 23-12-2014 18:45:00 9.8 C 7.89 g/m*3 7.94 C 12.9 km/h
785 23-12-2014 18:50:00 9.8 C 7.98 g/m*3 7.73 C 14.5 km/h
786 23-12-2014 18:55:00 9.8 C 7.98 g/m*3 8.18 C 11.3 km/h
787 23-12-2014 19:00:00 9.7 C 7.93 g/m*3 8.33 C 9.7 km/h
788 23-12-2014 19:05:00 9.7 C 7.93 g/m*3 8.06 C 11.3 km/h
789 23-12-2014 19:10:00 9.7 C 7.93 g/m*3 6.91 C 20.9 km/h
790 23-12-2014 19:15:00 9.7 C 7.93 g/m*3 9.02 C 6.4 km/h
791 23-12-2014 19:20:00 9.7 C 7.93 g/m*3 9.02 C 6.4 km/h
792 23-12-2014 19:25:00 9.6 C 7.79 g/m*3 7.7 C 12.9 km/h
793 23-12-2014 19:30:00 9.6 C 7.88 g/m*3 8.21 C 9.7 km/h
794 23-12-2014 19:35:00 9.6 C 7.88 g/m*3 7.7 C 12.9 km/h
795 23-12-2014 19:40:00 9.6 C 7.79 g/m*3 7.29 C 16.1 km/h
796 23-12-2014 19:45:00 9.6 C 7.79 g/m*3 6.79 C 20.9 km/h
797 23-12-2014 19:50:00 9.6 C 7.88 g/m*3 7.29 C 16.1 km/h
798 23-12-2014 19:55:00 9.6 C 7.79 g/m*3 7.48 C 14.5 km/h
799 23-12-2014 20:00:00 9.6 C 7.79 g/m*3 8.52 C 8.1 km/h
800 23-12-2014 20:05:00 9.5 C 7.83 g/m*3 9.5 C 4.8 km/h
Sensor: Nr:Datum:Temp:Abs-Feuchte:Windchill:Wind:
Aussen-T/F 801 23-12-2014 20:10:00 9.5 C 7.83 g/m*3 8.09 C 9.7 km/h
802 23-12-2014 20:15:00 9.4 C 7.78 g/m*3 7.7 C 11.3 km/h
803 23-12-2014 20:20:00 9.4 C 7.78 g/m*3 8.28 C 8.1 km/h
804 23-12-2014 20:25:00 9.4 C 7.78 g/m*3 7.97 C 9.7 km/h
805 23-12-2014 20:30:00 9.4 C 7.78 g/m*3 7.04 C 16.1 km/h
806 23-12-2014 20:35:00 9.4 C 7.69 g/m*3 7.46 C 12.9 km/h
807 23-12-2014 20:40:00 9.4 C 7.69 g/m*3 7.46 C 12.9 km/h
808 23-12-2014 20:45:00 9.4 C 7.69 g/m*3 8.28 C 8.1 km/h
809 23-12-2014 20:50:00 9.4 C 7.69 g/m*3 7.7 C 11.3 km/h
810 23-12-2014 20:55:00 9.4 C 7.69 g/m*3 7.7 C 11.3 km/h
811 23-12-2014 21:00:00 9.4 C 7.69 g/m*3 8.28 C 8.1 km/h
812 23-12-2014 21:05:00 9.3 C 7.64 g/m*3 7.33 C 12.9 km/h
813 23-12-2014 21:10:00 9.3 C 7.64 g/m*3 8.16 C 8.1 km/h
814 23-12-2014 21:15:00 9.3 C 7.64 g/m*3 8.56 C 6.4 km/h
815 23-12-2014 21:20:00 9.3 C 7.64 g/m*3 8.56 C 6.4 km/h
816 23-12-2014 21:25:00 9.2 C 7.59 g/m*3 8.05 C 8.1 km/h
817 23-12-2014 21:30:00 9.2 C 7.5 g/m*3 8.45 C 6.4 km/h
818 23-12-2014 21:35:00 9.3 C 7.46 g/m*3 7.33 C 12.9 km/h
819 23-12-2014 21:40:00 9.3 C 7.46 g/m*3 7.85 C 9.7 km/h
820 23-12-2014 21:45:00 9.3 C 7.37 g/m*3 6.73 C 17.7 km/h
821 23-12-2014 21:50:00 9.3 C 7.46 g/m*3 7.85 C 9.7 km/h
822 23-12-2014 21:55:00 9.3 C 7.46 g/m*3 7.85 C 9.7 km/h
823 23-12-2014 22:00:00 9.2 C 7.32 g/m*3 8.05 C 8.1 km/h
824 23-12-2014 22:05:00 9.2 C 7.32 g/m*3 7.73 C 9.7 km/h
825 23-12-2014 22:10:00 9.2 C 7.32 g/m*3 9.2 C 4.8 km/h
Sensor: Nr:Datum:Temp:Abs-Feuchte:Windchill:Wind:
Aussen-T/F 826 23-12-2014 22:15:00 9.2 C 7.32 g/m*3 9.2 C 4.8 km/h
827 23-12-2014 22:20:00 9.2 C 7.32 g/m*3 9.2 C 4.8 km/h
828 23-12-2014 22:25:00 9.2 C 7.32 g/m*3 8.05 C 8.1 km/h
829 23-12-2014 22:30:00 9.2 C 7.32 g/m*3 8.45 C 6.4 km/h
830 23-12-2014 22:35:00 9.1 C 7.28 g/m*3 7.33 C 11.3 km/h
831 23-12-2014 22:40:00 9.1 C 7.28 g/m*3 8.33 C 6.4 km/h
832 23-12-2014 22:45:00 9.1 C 7.28 g/m*3 9.1 C 4.8 km/h
833 23-12-2014 22:50:00 9.1 C 7.28 g/m*3 8.33 C 6.4 km/h
834 23-12-2014 22:55:00 9 C 7.23 g/m*3 7.21 C 11.3 km/h
835 23-12-2014 23:00:00 9 C 7.23 g/m*3 8.21 C 6.4 km/h
836 23-12-2014 23:05:00 8.9 C 7.18 g/m*3 7.69 C 8.1 km/h
837 23-12-2014 23:10:00 8.9 C 7.18 g/m*3 8.1 C 6.4 km/h
838 23-12-2014 23:15:00 8.9 C 7.1 g/m*3 8.1 C 6.4 km/h
839 23-12-2014 23:20:00 8.9 C 7.18 g/m*3 8.9 C 4.8 km/h
840 23-12-2014 23:25:00 8.8 C 7.14 g/m*3 7.98 C 6.4 km/h
841 23-12-2014 23:30:00 8.8 C 7.14 g/m*3 7.98 C 6.4 km/h
842 23-12-2014 23:35:00 8.8 C 7.14 g/m*3 8.8 C 4.8 km/h
843 23-12-2014 23:40:00 8.8 C 7.14 g/m*3 7.98 C 6.4 km/h
844 23-12-2014 23:45:00 8.7 C 7.09 g/m*3 7.13 C 9.7 km/h
845 23-12-2014 23:50:00 8.7 C 7.09 g/m*3 6.85 C 11.3 km/h
846 23-12-2014 23:55:00 8.7 C 7.09 g/m*3 7.87 C 6.4 km/h
847 24-12-2014 00:00:00 8.7 C 7.09 g/m*3 8.7 C 4.8 km/h
848 24-12-2014 00:05:00 8.7 C 7.09 g/m*3 7.13 C 9.7 km/h
849 24-12-2014 00:10:00 8.6 C 7.05 g/m*3 8.6 C 4.8 km/h
850 24-12-2014 00:15:00 8.6 C 7.05 g/m*3 7.34 C 8.1 km/h
Sensor: Nr:Datum:Temp:Abs-Feuchte:Windchill:Wind:
Aussen-T/F 851 24-12-2014 00:20:00 8.6 C 7.05 g/m*3 7.34 C 8.1 km/h
852 24-12-2014 00:25:00 8.5 C 7 g/m*3 8.5 C 3.2 km/h
853 24-12-2014 00:30:00 8.5 C 7.09 g/m*3 7.64 C 6.4 km/h
854 24-12-2014 00:35:00 8.4 C 6.96 g/m*3 7.11 C 8.1 km/h
855 24-12-2014 00:40:00 8.4 C 7.04 g/m*3 6.01 C 14.5 km/h
856 24-12-2014 00:45:00 8.4 C 7.04 g/m*3 8.4 C 4.8 km/h
857 24-12-2014 00:50:00 8.4 C 7.04 g/m*3 8.4 C 4.8 km/h
858 24-12-2014 00:55:00 8.3 C 7 g/m*3 8.3 C 1.6 km/h
859 24-12-2014 01:00:00 8.3 C 7 g/m*3 6.37 C 11.3 km/h
860 24-12-2014 01:05:00 8.2 C 7.03 g/m*3 8.2 C 4.8 km/h
861 24-12-2014 01:10:00 8.2 C 7.03 g/m*3 8.2 C 4.8 km/h
862 24-12-2014 01:15:00 8.2 C 7.03 g/m*3 5.99 C 12.9 km/h
863 24-12-2014 01:20:00 8.2 C 7.03 g/m*3 7.29 C 6.4 km/h
864 24-12-2014 01:25:00 8.2 C 6.95 g/m*3 5.76 C 14.5 km/h
865 24-12-2014 01:30:00 8.2 C 6.95 g/m*3 6.54 C 9.7 km/h
866 24-12-2014 01:35:00 8.2 C 6.95 g/m*3 8.2 C 4.8 km/h
867 24-12-2014 01:40:00 8.1 C 6.91 g/m*3 5.87 C 12.9 km/h
868 24-12-2014 01:45:00 8.1 C 6.91 g/m*3 6.42 C 9.7 km/h
869 24-12-2014 01:50:00 8.1 C 6.99 g/m*3 6.75 C 8.1 km/h
870 24-12-2014 01:55:00 8.1 C 6.99 g/m*3 8.1 C 4.8 km/h
871 24-12-2014 02:00:00 8 C 6.94 g/m*3 6.01 C 11.3 km/h
872 24-12-2014 02:05:00 7.9 C 6.82 g/m*3 5.89 C 11.3 km/h
873 24-12-2014 02:10:00 7.9 C 6.82 g/m*3 5.63 C 12.9 km/h
874 24-12-2014 02:15:00 7.9 C 6.82 g/m*3 6.18 C 9.7 km/h
875 24-12-2014 02:20:00 7.9 C 6.82 g/m*3 5.89 C 11.3 km/h
Sensor: Nr:Datum:Temp:Abs-Feuchte:Windchill:Wind:
Aussen-T/F 876 24-12-2014 02:25:00 7.8 C 6.77 g/m*3 5.77 C 11.3 km/h
877 24-12-2014 02:30:00 7.8 C 6.77 g/m*3 4.86 C 17.7 km/h
878 24-12-2014 02:35:00 7.8 C 6.86 g/m*3 4.86 C 17.7 km/h
879 24-12-2014 02:40:00 7.8 C 6.86 g/m*3 5.77 C 11.3 km/h
880 24-12-2014 02:45:00 7.7 C 6.81 g/m*3 5.65 C 11.3 km/h
881 24-12-2014 02:50:00 7.7 C 6.73 g/m*3 5.38 C 12.9 km/h
882 24-12-2014 02:55:00 7.7 C 6.81 g/m*3 5.15 C 14.5 km/h
883 24-12-2014 03:00:00 7.6 C 6.77 g/m*3 5.82 C 9.7 km/h
884 24-12-2014 03:05:00 7.6 C 6.77 g/m*3 5.26 C 12.9 km/h
885 24-12-2014 03:10:00 7.5 C 6.72 g/m*3 5.7 C 9.7 km/h
886 24-12-2014 03:15:00 7.4 C 6.68 g/m*3 6.37 C 6.4 km/h
887 24-12-2014 03:20:00 7.4 C 6.68 g/m*3 4.56 C 16.1 km/h
888 24-12-2014 03:25:00 7.4 C 6.68 g/m*3 4.36 C 17.7 km/h
889 24-12-2014 03:30:00 7.4 C 6.68 g/m*3 4.36 C 17.7 km/h
890 24-12-2014 03:35:00 7.4 C 6.68 g/m*3 4.17 C 19.3 km/h
891 24-12-2014 03:40:00 7.4 C 6.68 g/m*3 4.17 C 19.3 km/h
892 24-12-2014 03:45:00 7.4 C 6.68 g/m*3 5.28 C 11.3 km/h
893 24-12-2014 03:50:00 7.4 C 6.6 g/m*3 4.56 C 16.1 km/h
894 24-12-2014 03:55:00 7.3 C 6.64 g/m*3 5.47 C 9.7 km/h
895 24-12-2014 04:00:00 7.3 C 6.64 g/m*3 4.23 C 17.7 km/h
896 24-12-2014 04:05:00 7.3 C 6.56 g/m*3 6.25 C 6.4 km/h
897 24-12-2014 04:10:00 7.3 C 6.64 g/m*3 6.25 C 6.4 km/h
898 24-12-2014 04:15:00 7.3 C 6.64 g/m*3 7.3 C 4.8 km/h
899 24-12-2014 04:20:00 7.3 C 6.64 g/m*3 6.25 C 6.4 km/h
900 24-12-2014 04:25:00 7.3 C 6.56 g/m*3 4.44 C 16.1 km/h
Sensor: Nr:Datum:Temp:Abs-Feuchte:Windchill:Wind:
Aussen-T/F 901 24-12-2014 04:30:00 7.3 C 6.64 g/m*3 5.81 C 8.1 km/h
902 24-12-2014 04:35:00 7.3 C 6.56 g/m*3 5.81 C 8.1 km/h
903 24-12-2014 04:40:00 7.3 C 6.56 g/m*3 5.16 C 11.3 km/h
904 24-12-2014 04:45:00 7.4 C 6.52 g/m*3 4.56 C 16.1 km/h
905 24-12-2014 04:50:00 7.4 C 6.52 g/m*3 4.78 C 14.5 km/h
906 24-12-2014 04:55:00 7.4 C 6.6 g/m*3 5.58 C 9.7 km/h
907 24-12-2014 05:00:00 7.3 C 6.56 g/m*3 5.16 C 11.3 km/h
908 24-12-2014 05:05:00 7.3 C 6.56 g/m*3 4.05 C 19.3 km/h
909 24-12-2014 05:10:00 7.3 C 6.56 g/m*3 6.25 C 6.4 km/h
910 24-12-2014 05:15:00 7.3 C 6.56 g/m*3 5.81 C 8.1 km/h
911 24-12-2014 05:20:00 7.3 C 6.56 g/m*3 5.81 C 8.1 km/h
912 24-12-2014 05:25:00 7.4 C 6.6 g/m*3 5.28 C 11.3 km/h
913 24-12-2014 05:30:00 7.4 C 6.6 g/m*3 6.37 C 6.4 km/h
914 24-12-2014 05:35:00 7.4 C 6.6 g/m*3 5.58 C 9.7 km/h
915 24-12-2014 05:40:00 7.4 C 6.6 g/m*3 5.28 C 11.3 km/h
916 24-12-2014 05:45:00 7.3 C 6.56 g/m*3 5.16 C 11.3 km/h
917 24-12-2014 05:50:00 7.3 C 6.56 g/m*3 5.81 C 8.1 km/h
918 24-12-2014 05:55:00 7.3 C 6.56 g/m*3 4.9 C 12.9 km/h
919 24-12-2014 06:00:00 7.3 C 6.64 g/m*3 5.16 C 11.3 km/h
920 24-12-2014 06:05:00 7.3 C 6.64 g/m*3 5.16 C 11.3 km/h
921 24-12-2014 06:10:00 7.3 C 6.64 g/m*3 4.9 C 12.9 km/h
922 24-12-2014 06:15:00 7.3 C 6.64 g/m*3 4.66 C 14.5 km/h
923 24-12-2014 06:20:00 7.2 C 6.59 g/m*3 4.77 C 12.9 km/h
924 24-12-2014 06:25:00 7.2 C 6.59 g/m*3 5.35 C 9.7 km/h
925 24-12-2014 06:30:00 7.1 C 6.55 g/m*3 4.41 C 14.5 km/h
Sensor: Nr:Datum:Temp:Abs-Feuchte:Windchill:Wind:
Aussen-T/F 926 24-12-2014 06:35:00 7.1 C 6.55 g/m*3 4.19 C 16.1 km/h
927 24-12-2014 06:40:00 7.1 C 6.55 g/m*3 3.98 C 17.7 km/h
928 24-12-2014 06:45:00 7.1 C 6.63 g/m*3 4.92 C 11.3 km/h
929 24-12-2014 06:50:00 7.1 C 6.63 g/m*3 4.65 C 12.9 km/h
930 24-12-2014 06:55:00 7.1 C 6.63 g/m*3 4.92 C 11.3 km/h
931 24-12-2014 07:00:00 7.1 C 6.63 g/m*3 5.23 C 9.7 km/h
932 24-12-2014 07:05:00 7.1 C 6.63 g/m*3 4.92 C 11.3 km/h
933 24-12-2014 07:10:00 7.1 C 6.63 g/m*3 4.19 C 16.1 km/h
934 24-12-2014 07:15:00 7.1 C 6.63 g/m*3 5.23 C 9.7 km/h
935 24-12-2014 07:20:00 7.1 C 6.63 g/m*3 4.92 C 11.3 km/h
936 24-12-2014 07:25:00 7.1 C 6.63 g/m*3 5.58 C 8.1 km/h
937 24-12-2014 07:30:00 7.1 C 6.63 g/m*3 3.98 C 17.7 km/h
938 24-12-2014 07:35:00 7.2 C 6.67 g/m*3 4.77 C 12.9 km/h
939 24-12-2014 07:40:00 7.2 C 6.67 g/m*3 5.04 C 11.3 km/h
940 24-12-2014 07:45:00 7.2 C 6.67 g/m*3 5.04 C 11.3 km/h
941 24-12-2014 07:50:00 7.2 C 6.67 g/m*3 4.77 C 12.9 km/h
942 24-12-2014 07:55:00 7.2 C 6.67 g/m*3 4.53 C 14.5 km/h
943 24-12-2014 08:00:00 7.3 C 6.64 g/m*3 4.05 C 19.3 km/h
944 24-12-2014 08:05:00 7.3 C 6.72 g/m*3 6.25 C 6.4 km/h
945 24-12-2014 08:10:00 7.3 C 6.72 g/m*3 4.9 C 12.9 km/h
946 24-12-2014 08:15:00 7.3 C 6.72 g/m*3 4.9 C 12.9 km/h
947 24-12-2014 08:20:00 7.4 C 6.76 g/m*3 5.02 C 12.9 km/h
948 24-12-2014 08:25:00 7.4 C 6.68 g/m*3 5.28 C 11.3 km/h
949 24-12-2014 08:30:00 7.4 C 6.68 g/m*3 4.17 C 19.3 km/h
950 24-12-2014 08:35:00 7.6 C 6.77 g/m*3 4.81 C 16.1 km/h
Sensor: Nr:Datum:Temp:Abs-Feuchte:Windchill:Wind:
Aussen-T/F 951 24-12-2014 08:40:00 7.6 C 6.77 g/m*3 5.26 C 12.9 km/h
952 24-12-2014 08:45:00 7.6 C 6.77 g/m*3 4.81 C 16.1 km/h
953 24-12-2014 08:50:00 7.6 C 6.77 g/m*3 5.82 C 9.7 km/h
954 24-12-2014 08:55:00 7.7 C 6.81 g/m*3 4.55 C 19.3 km/h
955 24-12-2014 09:00:00 7.7 C 6.81 g/m*3 5.65 C 11.3 km/h
956 24-12-2014 09:05:00 7.7 C 6.81 g/m*3 4.22 C 22.5 km/h
957 24-12-2014 09:10:00 7.8 C 6.77 g/m*3 4.86 C 17.7 km/h
958 24-12-2014 09:15:00 7.8 C 6.77 g/m*3 4.51 C 20.9 km/h
959 24-12-2014 09:20:00 7.8 C 6.77 g/m*3 5.06 C 16.1 km/h
960 24-12-2014 09:25:00 7.9 C 6.82 g/m*3 4.47 C 22.5 km/h
961 24-12-2014 09:30:00 7.9 C 6.82 g/m*3 4.8 C 19.3 km/h
962 24-12-2014 09:35:00 7.9 C 6.82 g/m*3 4.8 C 19.3 km/h
963 24-12-2014 09:40:00 8 C 6.94 g/m*3 5.75 C 12.9 km/h
964 24-12-2014 09:45:00 8 C 6.94 g/m*3 5.3 C 16.1 km/h
965 24-12-2014 09:50:00 8 C 6.94 g/m*3 5.52 C 14.5 km/h
966 24-12-2014 09:55:00 8 C 6.94 g/m*3 5.52 C 14.5 km/h
967 24-12-2014 10:00:00 8.1 C 6.99 g/m*3 5.23 C 17.7 km/h
968 24-12-2014 10:05:00 8.1 C 6.99 g/m*3 5.05 C 19.3 km/h
969 24-12-2014 10:10:00 8.1 C 6.99 g/m*3 4.89 C 20.9 km/h
970 24-12-2014 10:15:00 8.1 C 6.99 g/m*3 5.23 C 17.7 km/h
971 24-12-2014 10:20:00 8.2 C 7.03 g/m*3 5.36 C 17.7 km/h
972 24-12-2014 10:25:00 8.2 C 7.03 g/m*3 5.55 C 16.1 km/h
973 24-12-2014 10:30:00 8.3 C 7 g/m*3 5.48 C 17.7 km/h
974 24-12-2014 10:35:00 8.3 C 7.08 g/m*3 5.89 C 14.5 km/h
975 24-12-2014 10:40:00 8.3 C 7 g/m*3 6.66 C 9.7 km/h
Sensor: Nr:Datum:Temp:Abs-Feuchte:Windchill:Wind:
Aussen-T/F 976 24-12-2014 10:45:00 8.3 C 7.08 g/m*3 6.66 C 9.7 km/h
977 24-12-2014 10:50:00 8.4 C 7.13 g/m*3 6.49 C 11.3 km/h
978 24-12-2014 10:55:00 8.4 C 7.13 g/m*3 6.01 C 14.5 km/h
979 24-12-2014 11:00:00 8.4 C 7.13 g/m*3 5.61 C 17.7 km/h
980 24-12-2014 11:05:00 8.4 C 7.13 g/m*3 6.01 C 14.5 km/h
981 24-12-2014 11:10:00 8.4 C 7.13 g/m*3 5.43 C 19.3 km/h
982 24-12-2014 11:15:00 8.5 C 7.17 g/m*3 5.56 C 19.3 km/h
983 24-12-2014 11:20:00 8.6 C 7.22 g/m*3 5.86 C 17.7 km/h
984 24-12-2014 11:25:00 8.6 C 7.22 g/m*3 5.86 C 17.7 km/h
985 24-12-2014 11:30:00 8.6 C 7.22 g/m*3 5.86 C 17.7 km/h
986 24-12-2014 11:35:00 8.6 C 7.22 g/m*3 6.25 C 14.5 km/h
987 24-12-2014 11:40:00 8.7 C 7.26 g/m*3 5.98 C 17.7 km/h
988 24-12-2014 11:45:00 8.7 C 7.35 g/m*3 6.17 C 16.1 km/h
989 24-12-2014 11:50:00 8.7 C 7.35 g/m*3 5.81 C 19.3 km/h
990 24-12-2014 11:55:00 8.8 C 7.4 g/m*3 6.3 C 16.1 km/h
991 24-12-2014 12:00:00 8.8 C 7.4 g/m*3 6.5 C 14.5 km/h
992 24-12-2014 12:05:00 8.9 C 7.45 g/m*3 6.85 C 12.9 km/h
993 24-12-2014 12:10:00 9.1 C 7.45 g/m*3 5.47 C 29 km/h
994 24-12-2014 12:15:00 9.2 C 7.5 g/m*3 5.6 C 29 km/h
995 24-12-2014 12:20:00 9.3 C 7.55 g/m*3 5.62 C 30.6 km/h
996 24-12-2014 12:25:00 9.3 C 7.55 g/m*3 5.62 C 30.6 km/h
997 24-12-2014 12:30:00 9.3 C 7.55 g/m*3 6.12 C 24.1 km/h
998 24-12-2014 12:35:00 9.3 C 7.55 g/m*3 6.56 C 19.3 km/h
999 24-12-2014 12:40:00 9.3 C 7.55 g/m*3 6.12 C 24.1 km/h
1000 24-12-2014 12:45:00 9.3 C 7.55 g/m*3 6.12 C 24.1 km/h
Sensor: Nr:Datum:Temp:Abs-Feuchte:Windchill:Wind:
Aussen-T/F 1001 24-12-2014 12:50:00 9.2 C 7.5 g/m*3 5.86 C 25.7 km/h
1002 24-12-2014 12:55:00 9.2 C 7.59 g/m*3 6.99 C 14.5 km/h
1003 24-12-2014 13:00:00 9.2 C 7.59 g/m*3 5.86 C 25.7 km/h
1004 24-12-2014 13:05:00 9.2 C 7.59 g/m*3 5.99 C 24.1 km/h
1005 24-12-2014 13:10:00 9.3 C 7.64 g/m*3 5.62 C 30.6 km/h
1006 24-12-2014 13:15:00 9.3 C 7.64 g/m*3 6.26 C 22.5 km/h
1007 24-12-2014 13:20:00 9.3 C 7.64 g/m*3 5.98 C 25.7 km/h
1008 24-12-2014 13:25:00 9.3 C 7.64 g/m*3 6.26 C 22.5 km/h
1009 24-12-2014 13:30:00 9.3 C 7.64 g/m*3 5.41 C 33.8 km/h
1010 24-12-2014 13:35:00 9.3 C 7.64 g/m*3 5.41 C 33.8 km/h
1011 24-12-2014 13:40:00 9.4 C 7.69 g/m*3 6.25 C 24.1 km/h
1012 24-12-2014 13:45:00 9.5 C 7.65 g/m*3 6.37 C 24.1 km/h
1013 24-12-2014 13:50:00 9.7 C 7.74 g/m*3 6.14 C 30.6 km/h
1014 24-12-2014 13:55:00 9.8 C 7.7 g/m*3 6.89 C 22.5 km/h
1015 24-12-2014 14:00:00 9.8 C 7.7 g/m*3 6.76 C 24.1 km/h
1016 24-12-2014 14:05:00 9.9 C 7.75 g/m*3 6.1 C 35.4 km/h
1017 24-12-2014 14:10:00 10.1 C 7.75 g/m*3 7.14 C 24.1 km/h
1018 24-12-2014 14:15:00 10.1 C 7.75 g/m*3 7.73 C 17.7 km/h
1019 24-12-2014 14:20:00 10.1 C 7.85 g/m*3 8.1 C 14.5 km/h
1020 24-12-2014 14:25:00 10.2 C 7.8 g/m*3 7.27 C 24.1 km/h
1021 24-12-2014 14:30:00 10.2 C 7.9 g/m*3 8.03 C 16.1 km/h
1022 24-12-2014 14:35:00 10.2 C 7.9 g/m*3 7.7 C 19.3 km/h
1023 24-12-2014 14:40:00 10.1 C 7.85 g/m*3 7.14 C 24.1 km/h
1024 24-12-2014 14:45:00 10.1 C 7.85 g/m*3 7.73 C 17.7 km/h
1025 24-12-2014 14:50:00 10.1 C 7.94 g/m*3 7.42 C 20.9 km/h
Sensor: Nr:Datum:Temp:Abs-Feuchte:Windchill:Wind:
Aussen-T/F 1026 24-12-2014 14:55:00 10 C 7.89 g/m*3 7.44 C 19.3 km/h
1027 24-12-2014 15:00:00 9.9 C 7.84 g/m*3 6.4 C 30.6 km/h
1028 24-12-2014 15:05:00 9.9 C 7.84 g/m*3 6.3 C 32.2 km/h
1029 24-12-2014 15:10:00 9.8 C 7.89 g/m*3 5.87 C 37 km/h
1030 24-12-2014 15:15:00 9.8 C 7.89 g/m*3 5.87 C 37 km/h
1031 24-12-2014 15:20:00 9.7 C 7.84 g/m*3 6.63 C 24.1 km/h
1032 24-12-2014 15:25:00 9.6 C 7.79 g/m*3 7.11 C 17.7 km/h
1033 24-12-2014 15:30:00 9.6 C 7.88 g/m*3 6.01 C 30.6 km/h
1034 24-12-2014 15:35:00 9.6 C 7.88 g/m*3 6.79 C 20.9 km/h
1035 24-12-2014 15:40:00 9.6 C 7.88 g/m*3 6.12 C 29 km/h
1036 24-12-2014 15:45:00 9.5 C 7.83 g/m*3 5.88 C 30.6 km/h
1037 24-12-2014 15:50:00 9.4 C 7.87 g/m*3 6.25 C 24.1 km/h
1038 24-12-2014 15:55:00 9.4 C 7.87 g/m*3 6.38 C 22.5 km/h
1039 24-12-2014 16:00:00 9.4 C 7.87 g/m*3 6.53 C 20.9 km/h
1040 24-12-2014 16:05:00 9.4 C 7.87 g/m*3 6.38 C 22.5 km/h
1041 24-12-2014 16:10:00 9.4 C 7.87 g/m*3 6.11 C 25.7 km/h
1042 24-12-2014 16:15:00 9.3 C 7.91 g/m*3 6.41 C 20.9 km/h
1043 24-12-2014 16:20:00 9.3 C 7.91 g/m*3 6.26 C 22.5 km/h
1044 24-12-2014 16:25:00 9.2 C 7.86 g/m*3 6.13 C 22.5 km/h
1045 24-12-2014 16:30:00 9.2 C 7.86 g/m*3 6.61 C 17.7 km/h
1046 24-12-2014 16:35:00 9.2 C 7.95 g/m*3 6.28 C 20.9 km/h
1047 24-12-2014 16:40:00 9.1 C 7.9 g/m*3 6.67 C 16.1 km/h
1048 24-12-2014 16:45:00 9.1 C 7.99 g/m*3 5.86 C 24.1 km/h
1049 24-12-2014 16:50:00 8.9 C 7.88 g/m*3 6.42 C 16.1 km/h
1050 24-12-2014 16:55:00 8.9 C 7.97 g/m*3 5.33 C 27.4 km/h
Sensor: Nr:Datum:Temp:Abs-Feuchte:Windchill:Wind:
Aussen-T/F 1051 24-12-2014 17:00:00 8.9 C 7.97 g/m*3 6.06 C 19.3 km/h
1052 24-12-2014 17:05:00 8.8 C 7.92 g/m*3 4.97 C 30.6 km/h
1053 24-12-2014 17:10:00 8.8 C 7.92 g/m*3 5.34 C 25.7 km/h
1054 24-12-2014 17:15:00 8.9 C 7.97 g/m*3 6.42 C 16.1 km/h
1055 24-12-2014 17:20:00 8.9 C 7.97 g/m*3 5.6 C 24.1 km/h
1056 24-12-2014 17:25:00 8.9 C 7.97 g/m*3 5.75 C 22.5 km/h
1057 24-12-2014 17:30:00 8.9 C 7.97 g/m*3 5.9 C 20.9 km/h
1058 24-12-2014 17:35:00 8.9 C 7.97 g/m*3 5.6 C 24.1 km/h
1059 24-12-2014 17:40:00 9 C 7.93 g/m*3 6.36 C 17.7 km/h
1060 24-12-2014 17:45:00 9 C 7.93 g/m*3 5.87 C 22.5 km/h
1061 24-12-2014 17:50:00 9.1 C 7.99 g/m*3 6 C 22.5 km/h
1062 24-12-2014 17:55:00 9.1 C 7.99 g/m*3 5.59 C 27.4 km/h
1063 24-12-2014 18:00:00 9.1 C 7.9 g/m*3 6 C 22.5 km/h
1064 24-12-2014 18:05:00 9.2 C 7.95 g/m*3 6.99 C 14.5 km/h
1065 24-12-2014 18:10:00 9.2 C 7.95 g/m*3 6.44 C 19.3 km/h
1066 24-12-2014 18:15:00 9.2 C 7.95 g/m*3 6.28 C 20.9 km/h
1067 24-12-2014 18:20:00 9.2 C 7.95 g/m*3 6.79 C 16.1 km/h
1068 24-12-2014 18:25:00 9.2 C 7.95 g/m*3 6.99 C 14.5 km/h
1069 24-12-2014 18:30:00 9.2 C 7.95 g/m*3 6.61 C 17.7 km/h
1070 24-12-2014 18:35:00 9.2 C 7.95 g/m*3 6.28 C 20.9 km/h
1071 24-12-2014 18:40:00 9.2 C 8.04 g/m*3 6.61 C 17.7 km/h
1072 24-12-2014 18:45:00 9.2 C 8.04 g/m*3 7.21 C 12.9 km/h
1073 24-12-2014 18:50:00 9.2 C 8.04 g/m*3 6.13 C 22.5 km/h
1074 24-12-2014 18:55:00 9.2 C 8.04 g/m*3 6.28 C 20.9 km/h
1075 24-12-2014 19:00:00 9.2 C 8.04 g/m*3 6.44 C 19.3 km/h
Sensor: Nr:Datum:Temp:Abs-Feuchte:Windchill:Wind:
Aussen-T/F 1076 24-12-2014 19:05:00 9.2 C 8.04 g/m*3 6.61 C 17.7 km/h
1077 24-12-2014 19:10:00 9.1 C 7.99 g/m*3 6.48 C 17.7 km/h
1078 24-12-2014 19:15:00 9.1 C 7.99 g/m*3 6.48 C 17.7 km/h
1079 24-12-2014 19:20:00 9.1 C 7.99 g/m*3 6.87 C 14.5 km/h
1080 24-12-2014 19:25:00 9.2 C 8.04 g/m*3 6.79 C 16.1 km/h
1081 24-12-2014 19:30:00 9.2 C 8.04 g/m*3 6.79 C 16.1 km/h
1082 24-12-2014 19:35:00 9.3 C 8.09 g/m*3 7.58 C 11.3 km/h
1083 24-12-2014 19:40:00 9.3 C 8.09 g/m*3 7.33 C 12.9 km/h
1084 24-12-2014 19:45:00 9.3 C 8.09 g/m*3 6.73 C 17.7 km/h
1085 24-12-2014 19:50:00 9.3 C 8.09 g/m*3 6.56 C 19.3 km/h
1086 24-12-2014 19:55:00 9.4 C 8.14 g/m*3 6.25 C 24.1 km/h
1087 24-12-2014 20:00:00 9.4 C 8.14 g/m*3 7.24 C 14.5 km/h
1088 24-12-2014 20:05:00 9.4 C 8.14 g/m*3 7.24 C 14.5 km/h
1089 24-12-2014 20:10:00 9.4 C 8.14 g/m*3 7.7 C 11.3 km/h
1090 24-12-2014 20:15:00 9.4 C 8.14 g/m*3 6.69 C 19.3 km/h
1091 24-12-2014 20:20:00 9.4 C 8.14 g/m*3 7.24 C 14.5 km/h
1092 24-12-2014 20:25:00 9.5 C 8.19 g/m*3 6.82 C 19.3 km/h
1093 24-12-2014 20:30:00 9.5 C 8.19 g/m*3 6.98 C 17.7 km/h
1094 24-12-2014 20:35:00 9.4 C 8.23 g/m*3 7.97 C 9.7 km/h
1095 24-12-2014 20:40:00 9.3 C 8.18 g/m*3 7.85 C 9.7 km/h
1096 24-12-2014 20:45:00 9.2 C 8.22 g/m*3 7.46 C 11.3 km/h
1097 24-12-2014 20:50:00 9.1 C 8.25 g/m*3 7.93 C 8.1 km/h
1098 24-12-2014 20:55:00 9.1 C 8.25 g/m*3 7.93 C 8.1 km/h
1099 24-12-2014 21:00:00 8.9 C 8.15 g/m*3 6.85 C 12.9 km/h
1100 24-12-2014 21:05:00 8.7 C 8.04 g/m*3 6.38 C 14.5 km/h
Sensor: Nr:Datum:Temp:Abs-Feuchte:Windchill:Wind:
Aussen-T/F 1101 24-12-2014 21:10:00 8.6 C 7.99 g/m*3 6.73 C 11.3 km/h
1102 24-12-2014 21:15:00 8.6 C 7.99 g/m*3 7.01 C 9.7 km/h
1103 24-12-2014 21:20:00 8.6 C 7.99 g/m*3 8.6 C 4.8 km/h
1104 24-12-2014 21:40:00 8.1 C 7.74 g/m*3 8.1 C 1.6 km/h
1105 24-12-2014 21:45:00 8.1 C 7.74 g/m*3 5.87 C 12.9 km/h
1106 24-12-2014 21:50:00 8 C 7.69 g/m*3 7.06 C 6.4 km/h
1107 24-12-2014 21:55:00 7.9 C 7.64 g/m*3 5.89 C 11.3 km/h
1108 24-12-2014 22:00:00 7.9 C 7.64 g/m*3 5.89 C 11.3 km/h
1109 24-12-2014 22:05:00 7.8 C 7.43 g/m*3 4.86 C 17.7 km/h
1110 24-12-2014 22:10:00 7.7 C 7.3 g/m*3 4.93 C 16.1 km/h
1111 24-12-2014 22:15:00 7.4 C 7.16 g/m*3 5.28 C 11.3 km/h
1112 24-12-2014 22:20:00 7.3 C 7.11 g/m*3 4.9 C 12.9 km/h
1113 24-12-2014 22:25:00 7.2 C 7.14 g/m*3 5.35 C 9.7 km/h
1114 24-12-2014 22:30:00 7.2 C 7.14 g/m*3 6.13 C 6.4 km/h
1115 24-12-2014 22:35:00 7.1 C 7.18 g/m*3 5.58 C 8.1 km/h
1116 24-12-2014 22:40:00 7 C 7.13 g/m*3 5.46 C 8.1 km/h
1117 24-12-2014 22:45:00 7 C 7.21 g/m*3 7 C 4.8 km/h
1118 24-12-2014 22:50:00 6.9 C 7.16 g/m*3 6.9 C 4.8 km/h
1119 24-12-2014 22:55:00 6.9 C 7.16 g/m*3 6.9 C 1.6 km/h
1120 24-12-2014 23:00:00 6.9 C 7.16 g/m*3 6.9 C 4.8 km/h
1121 24-12-2014 23:05:00 6.9 C 7.16 g/m*3 6.9 C 4.8 km/h
1122 24-12-2014 23:10:00 6.9 C 7.16 g/m*3 6.9 C 4.8 km/h
1123 24-12-2014 23:15:00 6.8 C 7.19 g/m*3 6.8 C 3.2 km/h
1124 24-12-2014 23:20:00 6.8 C 7.11 g/m*3 6.8 C 3.2 km/h
1125 24-12-2014 23:25:00 6.8 C 7.11 g/m*3 5.67 C 6.4 km/h
Sensor: Nr:Datum:Temp:Abs-Feuchte:Windchill:Wind:
Aussen-T/F 1126 24-12-2014 23:30:00 6.8 C 7.11 g/m*3 6.8 C 3.2 km/h
1127 24-12-2014 23:35:00 6.8 C 7.04 g/m*3 6.8 C 3.2 km/h
1128 24-12-2014 23:40:00 6.8 C 7.04 g/m*3 5.67 C 6.4 km/h
1129 24-12-2014 23:45:00 6.8 C 6.96 g/m*3 6.8 C 1.6 km/h
1130 24-12-2014 23:50:00 6.7 C 6.99 g/m*3 6.7 C 3.2 km/h
1131 24-12-2014 23:55:00 6.6 C 6.95 g/m*3 5.44 C 6.4 km/h
1132 25-12-2014 00:00:00 6.6 C 6.95 g/m*3 6.6 C 4.8 km/h
1133 25-12-2014 00:05:00 6.6 C 6.95 g/m*3 6.6 C 3.2 km/h
1134 25-12-2014 00:10:00 6.6 C 6.95 g/m*3 6.6 C 1.6 km/h
1135 25-12-2014 00:15:00 6.6 C 6.95 g/m*3 6.6 C 3.2 km/h
1136 25-12-2014 00:20:00 6.5 C 6.9 g/m*3 6.5 C 3.2 km/h
1137 25-12-2014 00:25:00 6.5 C 6.82 g/m*3 4.87 C 8.1 km/h
1138 25-12-2014 00:30:00 6.6 C 6.64 g/m*3 4.99 C 8.1 km/h
1139 25-12-2014 00:35:00 6.7 C 6.76 g/m*3 6.7 C 4.8 km/h
1140 25-12-2014 00:40:00 6.7 C 6.76 g/m*3 5.11 C 8.1 km/h
1141 25-12-2014 00:45:00 6.7 C 6.76 g/m*3 6.7 C 1.6 km/h
1142 25-12-2014 00:50:00 6.7 C 6.61 g/m*3 6.7 C 3.2 km/h
1143 25-12-2014 00:55:00 6.7 C 6.76 g/m*3 6.7 C 3.2 km/h
1144 25-12-2014 01:00:00 6.6 C 6.57 g/m*3 6.6 C 3.2 km/h
1145 25-12-2014 01:05:00 6.6 C 6.72 g/m*3 6.6 C 1.6 km/h
1146 25-12-2014 01:10:00 6.5 C 6.67 g/m*3 5.33 C 6.4 km/h
1147 25-12-2014 01:15:00 6.5 C 6.67 g/m*3 6.5 C 4.8 km/h
1148 25-12-2014 01:20:00 6.5 C 6.67 g/m*3 6.5 C 1.6 km/h
1149 25-12-2014 01:25:00 6.4 C 6.48 g/m*3 6.4 C 3.2 km/h
1150 25-12-2014 01:30:00 6.4 C 6.56 g/m*3 6.4 C 3.2 km/h
Sensor: Nr:Datum:Temp:Abs-Feuchte:Windchill:Wind:
Aussen-T/F 1151 25-12-2014 01:35:00 6.3 C 6.51 g/m*3 6.3 C 1.6 km/h
1152 25-12-2014 01:40:00 6.2 C 6.32 g/m*3 4.98 C 6.4 km/h
1153 25-12-2014 01:45:00 6.2 C 6.32 g/m*3 6.2 C 4.8 km/h
1154 25-12-2014 01:50:00 6.1 C 6.28 g/m*3 6.1 C 1.6 km/h
1155 25-12-2014 01:55:00 6 C 6.17 g/m*3 6 C 4.8 km/h
1156 25-12-2014 02:00:00 6 C 6.17 g/m*3 4.28 C 8.1 km/h
1157 25-12-2014 02:05:00 6 C 5.81 g/m*3 3.06 C 14.5 km/h
1158 25-12-2014 02:10:00 6.1 C 5.77 g/m*3 4.04 C 9.7 km/h
1159 25-12-2014 02:15:00 6.1 C 5.7 g/m*3 4.86 C 6.4 km/h
1160 25-12-2014 02:20:00 5.9 C 5.77 g/m*3 5.9 C 3.2 km/h
1161 25-12-2014 02:25:00 5.7 C 5.69 g/m*3 4.4 C 6.4 km/h
1162 25-12-2014 02:30:00 5.6 C 5.66 g/m*3 4.29 C 6.4 km/h
1163 25-12-2014 02:35:00 5.5 C 5.62 g/m*3 4.17 C 6.4 km/h
1164 25-12-2014 02:40:00 5.5 C 5.55 g/m*3 2.99 C 11.3 km/h
1165 25-12-2014 02:45:00 5.4 C 5.51 g/m*3 5.4 C 4.8 km/h
1166 25-12-2014 02:50:00 5.3 C 5.61 g/m*3 3.94 C 6.4 km/h
1167 25-12-2014 02:55:00 5.2 C 5.78 g/m*3 5.2 C 4.8 km/h
1168 25-12-2014 03:00:00 5.1 C 5.68 g/m*3 5.1 C 3.2 km/h
1169 25-12-2014 03:05:00 4.9 C 5.74 g/m*3 4.9 C 3.2 km/h
1170 25-12-2014 03:10:00 4.7 C 5.66 g/m*3 3.25 C 6.4 km/h
1171 25-12-2014 03:15:00 4.8 C 5.63 g/m*3 4.8 C 4.8 km/h
1172 25-12-2014 03:20:00 4.8 C 5.63 g/m*3 4.8 C 4.8 km/h
1173 25-12-2014 03:25:00 4.8 C 5.63 g/m*3 2.87 C 8.1 km/h
1174 25-12-2014 03:30:00 4.9 C 5.54 g/m*3 4.9 C 4.8 km/h
1175 25-12-2014 03:35:00 5.1 C 5.61 g/m*3 5.1 C 4.8 km/h
Sensor: Nr:Datum:Temp:Abs-Feuchte:Windchill:Wind:
Aussen-T/F 1176 25-12-2014 03:40:00 5.2 C 5.58 g/m*3 3.34 C 8.1 km/h
1177 25-12-2014 03:45:00 5.2 C 5.58 g/m*3 3.82 C 6.4 km/h
1178 25-12-2014 03:50:00 5.2 C 5.65 g/m*3 5.2 C 4.8 km/h
1179 25-12-2014 03:55:00 5.2 C 5.58 g/m*3 3.34 C 8.1 km/h
1180 25-12-2014 04:00:00 5.2 C 5.65 g/m*3 3.34 C 8.1 km/h
1181 25-12-2014 04:05:00 5.1 C 5.61 g/m*3 3.23 C 8.1 km/h
1182 25-12-2014 04:10:00 5.2 C 5.58 g/m*3 3.82 C 6.4 km/h
1183 25-12-2014 04:15:00 5.2 C 5.58 g/m*3 3.34 C 8.1 km/h
1184 25-12-2014 04:20:00 5.1 C 5.68 g/m*3 5.1 C 4.8 km/h
1185 25-12-2014 04:25:00 5.1 C 5.68 g/m*3 5.1 C 4.8 km/h
1186 25-12-2014 04:30:00 4.9 C 5.6 g/m*3 3.48 C 6.4 km/h
1187 25-12-2014 04:35:00 4.9 C 5.67 g/m*3 3.48 C 6.4 km/h
1188 25-12-2014 04:40:00 4.8 C 5.63 g/m*3 4.8 C 4.8 km/h
1189 25-12-2014 04:45:00 4.8 C 5.63 g/m*3 3.36 C 6.4 km/h
1190 25-12-2014 04:50:00 4.8 C 5.63 g/m*3 4.8 C 4.8 km/h
1191 25-12-2014 04:55:00 4.8 C 5.63 g/m*3 4.8 C 4.8 km/h
1192 25-12-2014 05:00:00 4.8 C 5.63 g/m*3 2.87 C 8.1 km/h
1193 25-12-2014 05:05:00 4.8 C 5.7 g/m*3 3.36 C 6.4 km/h
1194 25-12-2014 05:10:00 4.8 C 5.7 g/m*3 3.36 C 6.4 km/h
1195 25-12-2014 05:15:00 4.8 C 5.7 g/m*3 4.8 C 4.8 km/h
1196 25-12-2014 05:20:00 4.7 C 5.66 g/m*3 2.76 C 8.1 km/h
1197 25-12-2014 05:25:00 4.7 C 5.66 g/m*3 3.25 C 6.4 km/h
1198 25-12-2014 05:30:00 4.7 C 5.66 g/m*3 3.25 C 6.4 km/h
1199 25-12-2014 05:35:00 4.7 C 5.73 g/m*3 4.7 C 3.2 km/h
1200 25-12-2014 05:40:00 4.6 C 5.69 g/m*3 4.6 C 4.8 km/h
Sensor: Nr:Datum:Temp:Abs-Feuchte:Windchill:Wind:
Aussen-T/F 1201 25-12-2014 05:45:00 4.4 C 5.68 g/m*3 4.4 C 4.8 km/h
1202 25-12-2014 05:50:00 4.4 C 5.62 g/m*3 4.4 C 4.8 km/h
1203 25-12-2014 05:55:00 4.4 C 5.68 g/m*3 4.4 C 4.8 km/h
1204 25-12-2014 06:00:00 4.3 C 5.58 g/m*3 2.78 C 6.4 km/h
1205 25-12-2014 06:05:00 4.3 C 5.64 g/m*3 4.3 C 4.8 km/h
1206 25-12-2014 06:10:00 4.4 C 5.62 g/m*3 4.4 C 4.8 km/h
1207 25-12-2014 06:15:00 4.3 C 5.58 g/m*3 4.3 C 3.2 km/h
1208 25-12-2014 06:20:00 4.2 C 5.61 g/m*3 4.2 C 3.2 km/h
1209 25-12-2014 06:25:00 4.1 C 5.57 g/m*3 4.1 C 3.2 km/h
1210 25-12-2014 06:30:00 4 C 5.59 g/m*3 2.44 C 6.4 km/h
1211 25-12-2014 06:35:00 3.9 C 5.56 g/m*3 3.9 C 3.2 km/h
1212 25-12-2014 06:40:00 3.8 C 5.58 g/m*3 3.8 C 3.2 km/h
1213 25-12-2014 06:45:00 3.6 C 5.51 g/m*3 3.6 C 3.2 km/h
1214 25-12-2014 06:50:00 3.5 C 5.53 g/m*3 3.5 C 4.8 km/h
1215 25-12-2014 06:55:00 3.4 C 5.5 g/m*3 1.23 C 8.1 km/h
1216 25-12-2014 07:00:00 3.4 C 5.5 g/m*3 1.75 C 6.4 km/h
1217 25-12-2014 07:05:00 3.4 C 5.5 g/m*3 3.4 C 4.8 km/h
1218 25-12-2014 07:10:00 3.5 C 5.53 g/m*3 3.5 C 4.8 km/h
1219 25-12-2014 07:15:00 3.7 C 5.55 g/m*3 1.58 C 8.1 km/h
1220 25-12-2014 07:20:00 3.6 C 5.51 g/m*3 3.6 C 3.2 km/h
1221 25-12-2014 07:25:00 3.6 C 5.51 g/m*3 1.98 C 6.4 km/h
1222 25-12-2014 07:30:00 3.7 C 5.55 g/m*3 2.09 C 6.4 km/h
1223 25-12-2014 07:35:00 3.8 C 5.52 g/m*3 1.7 C 8.1 km/h
1224 25-12-2014 07:40:00 3.8 C 5.52 g/m*3 1.7 C 8.1 km/h
1225 25-12-2014 07:45:00 3.8 C 5.52 g/m*3 2.21 C 6.4 km/h
Sensor: Nr:Datum:Temp:Abs-Feuchte:Windchill:Wind:
Aussen-T/F 1226 25-12-2014 07:50:00 3.8 C 5.52 g/m*3 0.94 C 11.3 km/h
1227 25-12-2014 07:55:00 3.9 C 5.49 g/m*3 1.06 C 11.3 km/h
1228 25-12-2014 08:00:00 4.1 C 5.5 g/m*3 2.05 C 8.1 km/h
1229 25-12-2014 08:05:00 4.2 C 5.54 g/m*3 2.17 C 8.1 km/h
1230 25-12-2014 08:10:00 4.1 C 5.5 g/m*3 2.05 C 8.1 km/h
1231 25-12-2014 08:15:00 4.1 C 5.57 g/m*3 2.55 C 6.4 km/h
1232 25-12-2014 08:20:00 4.2 C 5.54 g/m*3 0.36 C 17.7 km/h
1233 25-12-2014 08:25:00 4.2 C 5.54 g/m*3 1.12 C 12.9 km/h
1234 25-12-2014 08:30:00 4.3 C 5.51 g/m*3 0.72 C 16.1 km/h
1235 25-12-2014 08:35:00 4.4 C 5.55 g/m*3 1.67 C 11.3 km/h
1236 25-12-2014 08:40:00 4.4 C 5.55 g/m*3 1.09 C 14.5 km/h
1237 25-12-2014 08:45:00 4.4 C 5.55 g/m*3 0.61 C 17.7 km/h
1238 25-12-2014 08:50:00 4.3 C 5.51 g/m*3 1.89 C 9.7 km/h
1239 25-12-2014 08:55:00 4.3 C 5.51 g/m*3 1.89 C 9.7 km/h
1240 25-12-2014 09:00:00 4.2 C 5.54 g/m*3 1.43 C 11.3 km/h
1241 25-12-2014 09:05:00 4.1 C 5.5 g/m*3 2.05 C 8.1 km/h
1242 25-12-2014 09:10:00 4.1 C 5.5 g/m*3 1.65 C 9.7 km/h
1243 25-12-2014 09:15:00 4.1 C 5.5 g/m*3 4.1 C 4.8 km/h
1244 25-12-2014 10:10:00 4.6 C 6.62 g/m*3 2.25 C 9.7 km/h
1245 25-12-2014 10:15:00 4.7 C 5.73 g/m*3 1.73 C 12.9 km/h
1246 25-12-2014 10:20:00 4.9 C 5.74 g/m*3 2.61 C 9.7 km/h
1247 25-12-2014 10:25:00 5.1 C 5.75 g/m*3 2.51 C 11.3 km/h
1248 25-12-2014 10:30:00 5.2 C 5.78 g/m*3 2.63 C 11.3 km/h
1249 25-12-2014 10:35:00 5.2 C 5.78 g/m*3 3.82 C 6.4 km/h
1250 25-12-2014 10:40:00 5.3 C 5.82 g/m*3 2.46 C 12.9 km/h
Sensor: Nr:Datum:Temp:Abs-Feuchte:Windchill:Wind:
Aussen-T/F 1251 25-12-2014 10:45:00 5.3 C 5.75 g/m*3 3.46 C 8.1 km/h
1252 25-12-2014 10:50:00 5.4 C 5.79 g/m*3 2.58 C 12.9 km/h
1253 25-12-2014 10:55:00 5.5 C 5.83 g/m*3 3.32 C 9.7 km/h
1254 25-12-2014 11:00:00 5.5 C 5.83 g/m*3 3.7 C 8.1 km/h
1255 25-12-2014 11:05:00 5.6 C 5.87 g/m*3 2.83 C 12.9 km/h
1256 25-12-2014 11:10:00 5.6 C 5.87 g/m*3 3.11 C 11.3 km/h
1257 25-12-2014 11:15:00 5.6 C 5.8 g/m*3 2.83 C 12.9 km/h
1258 25-12-2014 11:20:00 5.6 C 5.8 g/m*3 2.11 C 17.7 km/h
1259 25-12-2014 11:25:00 5.6 C 5.8 g/m*3 3.11 C 11.3 km/h
1260 25-12-2014 11:30:00 5.6 C 5.8 g/m*3 3.44 C 9.7 km/h
1261 25-12-2014 11:35:00 5.7 C 5.91 g/m*3 3.23 C 11.3 km/h
1262 25-12-2014 11:40:00 5.8 C 5.87 g/m*3 3.68 C 9.7 km/h
1263 25-12-2014 11:45:00 5.8 C 5.95 g/m*3 4.52 C 6.4 km/h
1264 25-12-2014 11:50:00 5.8 C 5.95 g/m*3 3.36 C 11.3 km/h
1265 25-12-2014 11:55:00 5.9 C 5.91 g/m*3 4.17 C 8.1 km/h
1266 25-12-2014 12:00:00 6 C 5.95 g/m*3 2.82 C 16.1 km/h
1267 25-12-2014 12:05:00 6 C 5.95 g/m*3 3.6 C 11.3 km/h
1268 25-12-2014 12:10:00 6 C 5.95 g/m*3 3.6 C 11.3 km/h
1269 25-12-2014 12:15:00 6 C 5.95 g/m*3 3.31 C 12.9 km/h
1270 25-12-2014 12:20:00 6 C 5.95 g/m*3 3.6 C 11.3 km/h
1271 25-12-2014 12:25:00 5.9 C 5.98 g/m*3 3.8 C 9.7 km/h
1272 25-12-2014 12:30:00 6 C 5.95 g/m*3 4.28 C 8.1 km/h
1273 25-12-2014 12:35:00 6 C 6.02 g/m*3 3.92 C 9.7 km/h
1274 25-12-2014 12:40:00 6 C 6.02 g/m*3 4.75 C 6.4 km/h
1275 25-12-2014 12:45:00 6 C 6.02 g/m*3 6 C 4.8 km/h
Sensor: Nr:Datum:Temp:Abs-Feuchte:Windchill:Wind:
Aussen-T/F 1276 25-12-2014 12:50:00 5.9 C 6.06 g/m*3 3.48 C 11.3 km/h
1277 25-12-2014 12:55:00 5.9 C 6.06 g/m*3 4.63 C 6.4 km/h
1278 25-12-2014 13:00:00 5.9 C 6.13 g/m*3 3.48 C 11.3 km/h
1279 25-12-2014 13:05:00 5.9 C 6.13 g/m*3 3.19 C 12.9 km/h
1280 25-12-2014 13:10:00 5.9 C 6.13 g/m*3 3.8 C 9.7 km/h
1281 25-12-2014 13:15:00 6 C 6.17 g/m*3 6 C 4.8 km/h
1282 25-12-2014 13:20:00 6 C 6.17 g/m*3 4.28 C 8.1 km/h
1283 25-12-2014 13:25:00 6.1 C 6.21 g/m*3 3.43 C 12.9 km/h
1284 25-12-2014 13:30:00 6.2 C 6.18 g/m*3 4.15 C 9.7 km/h
1285 25-12-2014 13:35:00 6.3 C 6.22 g/m*3 5.1 C 6.4 km/h
1286 25-12-2014 13:40:00 6.3 C 6.22 g/m*3 4.64 C 8.1 km/h
1287 25-12-2014 13:45:00 6.3 C 6.29 g/m*3 6.3 C 4.8 km/h
1288 25-12-2014 13:50:00 6.3 C 6.29 g/m*3 6.3 C 4.8 km/h
1289 25-12-2014 13:55:00 6.3 C 6.22 g/m*3 5.1 C 6.4 km/h
1290 25-12-2014 14:00:00 6.4 C 6.26 g/m*3 4.08 C 11.3 km/h
1291 25-12-2014 14:05:00 6.4 C 6.26 g/m*3 4.75 C 8.1 km/h
1292 25-12-2014 14:10:00 6.5 C 6.22 g/m*3 4.2 C 11.3 km/h
1293 25-12-2014 14:15:00 6.6 C 6.27 g/m*3 6.6 C 4.8 km/h
1294 25-12-2014 14:20:00 6.7 C 6.23 g/m*3 4.17 C 12.9 km/h
1295 25-12-2014 14:25:00 6.8 C 6.27 g/m*3 3.82 C 16.1 km/h
1296 25-12-2014 14:30:00 6.8 C 6.27 g/m*3 4.29 C 12.9 km/h
1297 25-12-2014 14:35:00 6.8 C 6.27 g/m*3 4.04 C 14.5 km/h
1298 25-12-2014 14:40:00 6.8 C 6.19 g/m*3 3.61 C 17.7 km/h
1299 25-12-2014 14:45:00 6.9 C 6.16 g/m*3 4.41 C 12.9 km/h
1300 25-12-2014 14:50:00 6.9 C 6.16 g/m*3 4.41 C 12.9 km/h
Sensor: Nr:Datum:Temp:Abs-Feuchte:Windchill:Wind:
Aussen-T/F 1301 25-12-2014 14:55:00 7 C 6.2 g/m*3 4.29 C 14.5 km/h
1302 25-12-2014 15:00:00 7 C 6.12 g/m*3 4.53 C 12.9 km/h
1303 25-12-2014 15:05:00 7 C 6.12 g/m*3 4.53 C 12.9 km/h
1304 25-12-2014 15:10:00 6.9 C 6.16 g/m*3 5.34 C 8.1 km/h
1305 25-12-2014 15:15:00 6.9 C 6.16 g/m*3 4.16 C 14.5 km/h
1306 25-12-2014 15:20:00 6.9 C 6.16 g/m*3 4.16 C 14.5 km/h
1307 25-12-2014 15:25:00 6.9 C 6.08 g/m*3 3.94 C 16.1 km/h
1308 25-12-2014 15:30:00 6.8 C 6.12 g/m*3 3.82 C 16.1 km/h
1309 25-12-2014 15:35:00 6.8 C 6.12 g/m*3 4.04 C 14.5 km/h
1310 25-12-2014 15:40:00 6.8 C 6.12 g/m*3 5.22 C 8.1 km/h
1311 25-12-2014 15:45:00 6.8 C 6.12 g/m*3 4.56 C 11.3 km/h
1312 25-12-2014 15:50:00 6.8 C 6.19 g/m*3 4.56 C 11.3 km/h
1313 25-12-2014 15:55:00 6.7 C 6.23 g/m*3 4.17 C 12.9 km/h
1314 25-12-2014 16:00:00 6.5 C 6.15 g/m*3 3.23 C 17.7 km/h
1315 25-12-2014 16:05:00 6.4 C 6.18 g/m*3 3.8 C 12.9 km/h
1316 25-12-2014 16:10:00 6.3 C 6.22 g/m*3 5.1 C 6.4 km/h
1317 25-12-2014 16:15:00 6.2 C 6.18 g/m*3 3.84 C 11.3 km/h
1318 25-12-2014 16:20:00 6.2 C 6.1 g/m*3 3.56 C 12.9 km/h
1319 25-12-2014 16:25:00 6.3 C 6.14 g/m*3 4.64 C 8.1 km/h
1320 25-12-2014 16:30:00 6.3 C 6.14 g/m*3 4.27 C 9.7 km/h
1321 25-12-2014 16:35:00 6.4 C 6.11 g/m*3 4.75 C 8.1 km/h
1322 25-12-2014 16:40:00 6.4 C 6.11 g/m*3 5.21 C 6.4 km/h
1323 25-12-2014 16:45:00 6.3 C 6.14 g/m*3 6.3 C 3.2 km/h
1324 25-12-2014 16:50:00 6.3 C 6.14 g/m*3 4.27 C 9.7 km/h
1325 25-12-2014 16:55:00 6.2 C 6.25 g/m*3 2.86 C 17.7 km/h
Sensor: Nr:Datum:Temp:Abs-Feuchte:Windchill:Wind:
Aussen-T/F 1326 25-12-2014 17:00:00 5.6 C 6.01 g/m*3 3.11 C 11.3 km/h
1327 25-12-2014 17:05:00 5.6 C 6.01 g/m*3 3.81 C 8.1 km/h
1328 25-12-2014 17:10:00 5.6 C 6.29 g/m*3 5.6 C 3.2 km/h
1329 25-12-2014 17:15:00 5.6 C 6.29 g/m*3 4.29 C 6.4 km/h
1330 25-12-2014 18:10:00 4.3 C 5.97 g/m*3 2.29 C 8.1 km/h
1331 25-12-2014 18:15:00 4.3 C 5.97 g/m*3 2.78 C 6.4 km/h
1332 25-12-2014 18:20:00 4.3 C 5.97 g/m*3 4.3 C 4.8 km/h
1333 25-12-2014 18:25:00 4.3 C 5.97 g/m*3 2.78 C 6.4 km/h
1334 25-12-2014 18:30:00 4.3 C 5.97 g/m*3 4.3 C 4.8 km/h
1335 25-12-2014 18:35:00 4.3 C 5.97 g/m*3 2.78 C 6.4 km/h
1336 25-12-2014 18:40:00 4.3 C 5.97 g/m*3 2.29 C 8.1 km/h
1337 25-12-2014 19:20:00 4.2 C 5.99 g/m*3 2.17 C 8.1 km/h
1338 25-12-2014 19:25:00 4.3 C 6.03 g/m*3 2.29 C 8.1 km/h
1339 25-12-2014 19:30:00 4.3 C 6.03 g/m*3 2.29 C 8.1 km/h
1340 25-12-2014 19:35:00 4.3 C 6.03 g/m*3 1.55 C 11.3 km/h
1341 25-12-2014 19:40:00 4.3 C 6.03 g/m*3 2.78 C 6.4 km/h
1342 25-12-2014 19:45:00 4.3 C 5.97 g/m*3 2.78 C 6.4 km/h
1343 25-12-2014 19:50:00 4.3 C 5.97 g/m*3 2.78 C 6.4 km/h
1344 25-12-2014 19:55:00 4.4 C 6.01 g/m*3 2.4 C 8.1 km/h
1345 25-12-2014 20:00:00 4.4 C 6.01 g/m*3 2.4 C 8.1 km/h
1346 25-12-2014 20:05:00 4.4 C 6.01 g/m*3 2.4 C 8.1 km/h
1347 25-12-2014 20:10:00 4.4 C 6.01 g/m*3 2.01 C 9.7 km/h
1348 25-12-2014 20:15:00 4.4 C 6.01 g/m*3 4.4 C 4.8 km/h
1349 25-12-2014 20:20:00 4.4 C 6.01 g/m*3 4.4 C 4.8 km/h
1350 25-12-2014 22:55:00 2.6 C 5.79 g/m*3 2.6 C 0 km/h
Sensor: Nr:Datum:Temp:Abs-Feuchte:Windchill:Wind:
Aussen-T/F 1351 25-12-2014 23:00:00 2.6 C 5.79 g/m*3 2.6 C 0 km/h
1352 25-12-2014 23:05:00 2.6 C 5.79 g/m*3 2.6 C 3.2 km/h
1353 25-12-2014 23:45:00 1.9 C 5.3 g/m*3 1.9 C 1.6 km/h
1354 25-12-2014 23:50:00 1.8 C 5.26 g/m*3 1.8 C 0 km/h
1355 25-12-2014 23:55:00 1.8 C 5.26 g/m*3 1.8 C 1.6 km/h
1356 26-12-2014 00:00:00 1.9 C 5.35 g/m*3 1.9 C 1.6 km/h
1357 26-12-2014 00:05:00 2.1 C 5.43 g/m*3 2.1 C 1.6 km/h
1358 26-12-2014 00:10:00 2.1 C 5.43 g/m*3 2.1 C 0 km/h
1359 26-12-2014 00:15:00 2.1 C 5.43 g/m*3 2.1 C 0 km/h
1360 26-12-2014 00:20:00 2.1 C 5.43 g/m*3 2.1 C 1.6 km/h
1361 26-12-2014 00:25:00 2.1 C 5.43 g/m*3 2.1 C 0 km/h
1362 26-12-2014 00:30:00 2.1 C 5.43 g/m*3 2.1 C 0 km/h
1363 26-12-2014 00:35:00 2.1 C 5.43 g/m*3 2.1 C 1.6 km/h
1364 26-12-2014 00:40:00 2.1 C 5.43 g/m*3 2.1 C 0 km/h
1365 26-12-2014 00:45:00 2.2 C 5.46 g/m*3 2.2 C 0 km/h
1366 26-12-2014 00:50:00 2.2 C 5.46 g/m*3 2.2 C 0 km/h
1367 26-12-2014 00:55:00 2.2 C 5.46 g/m*3 2.2 C 0 km/h
1368 26-12-2014 01:00:00 2.2 C 5.46 g/m*3 2.2 C 0 km/h
1369 26-12-2014 01:05:00 2.2 C 5.46 g/m*3 2.2 C 0 km/h
1370 26-12-2014 01:10:00 2.2 C 5.46 g/m*3 2.2 C 0 km/h
1371 26-12-2014 01:15:00 2.2 C 5.46 g/m*3 2.2 C 0 km/h
1372 26-12-2014 01:20:00 2.3 C 5.5 g/m*3 2.3 C 0 km/h
1373 26-12-2014 01:25:00 2.3 C 5.5 g/m*3 0.47 C 6.4 km/h
1374 26-12-2014 01:30:00 2.3 C 5.5 g/m*3 2.3 C 3.2 km/h
1375 26-12-2014 01:35:00 2.2 C 5.46 g/m*3 2.2 C 4.8 km/h
Sensor: Nr:Datum:Temp:Abs-Feuchte:Windchill:Wind:
Aussen-T/F 1376 26-12-2014 01:40:00 2.2 C 5.46 g/m*3 2.2 C 4.8 km/h
1377 26-12-2014 01:45:00 2.2 C 5.46 g/m*3 2.2 C 1.6 km/h
1378 26-12-2014 05:40:00 3.2 C 6.03 g/m*3 3.2 C 1.6 km/h
1379 26-12-2014 05:45:00 3.2 C 6.03 g/m*3 3.2 C 3.2 km/h
1380 26-12-2014 05:50:00 3.2 C 6.03 g/m*3 3.2 C 4.8 km/h
1381 26-12-2014 10:30:00 3.2 C 6.03 g/m*3 3.2 C 4.8 km/h
1382 26-12-2014 10:35:00 3.2 C 6.03 g/m*3 3.2 C 4.8 km/h
1383 26-12-2014 14:05:00 3.5 C 5.84 g/m*3 3.5 C 0 km/h
1384 26-12-2014 14:10:00 3.6 C 5.88 g/m*3 3.6 C 0 km/h
1385 26-12-2014 14:15:00 3.6 C 5.88 g/m*3 3.6 C 0 km/h
1386 26-12-2014 14:20:00 3.6 C 5.88 g/m*3 3.6 C 0 km/h
1387 26-12-2014 14:40:00 3.7 C 5.92 g/m*3 3.7 C 0 km/h
1388 26-12-2014 14:45:00 3.7 C 5.98 g/m*3 3.7 C 0 km/h
1389 26-12-2014 14:50:00 3.8 C 6.02 g/m*3 3.8 C 0 km/h
1390 26-12-2014 14:55:00 3.8 C 6.02 g/m*3 3.8 C 0 km/h
1391 26-12-2014 15:00:00 3.8 C 6.02 g/m*3 3.8 C 0 km/h
1392 26-12-2014 15:05:00 3.8 C 6.02 g/m*3 3.8 C 1.6 km/h
1393 26-12-2014 15:10:00 3.8 C 6.02 g/m*3 3.8 C 1.6 km/h
1394 26-12-2014 15:15:00 3.7 C 5.98 g/m*3 3.7 C 1.6 km/h
1395 26-12-2014 15:20:00 3.7 C 5.98 g/m*3 3.7 C 0 km/h
1396 26-12-2014 15:25:00 3.7 C 5.98 g/m*3 3.7 C 0 km/h
1397 26-12-2014 15:30:00 3.7 C 5.98 g/m*3 3.7 C 0 km/h
1398 26-12-2014 15:35:00 3.7 C 5.98 g/m*3 3.7 C 0 km/h
1399 26-12-2014 15:40:00 3.7 C 5.98 g/m*3 3.7 C 0 km/h
1400 26-12-2014 15:45:00 3.7 C 5.98 g/m*3 3.7 C 0 km/h
Sensor: Nr:Datum:Temp:Abs-Feuchte:Windchill:Wind:
Aussen-T/F 1401 26-12-2014 15:50:00 3.7 C 5.98 g/m*3 3.7 C 0 km/h
1402 26-12-2014 15:55:00 3.6 C 5.94 g/m*3 3.6 C 0 km/h
1403 26-12-2014 16:00:00 3.5 C 5.9 g/m*3 3.5 C 0 km/h
1404 26-12-2014 16:05:00 3.4 C 5.86 g/m*3 3.4 C 0 km/h
1405 26-12-2014 16:10:00 3.3 C 5.82 g/m*3 3.3 C 0 km/h
1406 26-12-2014 16:15:00 3.2 C 5.79 g/m*3 3.2 C 0 km/h
1407 26-12-2014 16:20:00 3.1 C 5.75 g/m*3 3.1 C 0 km/h
1408 26-12-2014 16:25:00 3.1 C 5.75 g/m*3 3.1 C 0 km/h
1409 26-12-2014 16:30:00 3 C 5.71 g/m*3 3 C 0 km/h
1410 26-12-2014 16:35:00 2.9 C 5.67 g/m*3 2.9 C 1.6 km/h
1411 26-12-2014 16:40:00 2.9 C 5.67 g/m*3 2.9 C 1.6 km/h
1412 26-12-2014 16:45:00 2.9 C 5.67 g/m*3 2.9 C 0 km/h
1413 26-12-2014 16:50:00 2.8 C 5.63 g/m*3 2.8 C 0 km/h
1414 26-12-2014 16:55:00 2.8 C 5.69 g/m*3 2.8 C 0 km/h
1415 26-12-2014 17:00:00 2.9 C 5.73 g/m*3 2.9 C 0 km/h
1416 26-12-2014 17:05:00 2.9 C 5.73 g/m*3 2.9 C 0 km/h
1417 26-12-2014 17:10:00 2.9 C 5.73 g/m*3 2.9 C 0 km/h
1418 26-12-2014 17:15:00 2.9 C 5.73 g/m*3 2.9 C 0 km/h
1419 26-12-2014 17:20:00 2.9 C 5.73 g/m*3 2.9 C 1.6 km/h
1420 26-12-2014 17:25:00 3.1 C 5.81 g/m*3 3.1 C 1.6 km/h
1421 26-12-2014 17:30:00 3.1 C 5.81 g/m*3 3.1 C 0 km/h
1422 26-12-2014 17:35:00 2.9 C 5.73 g/m*3 2.9 C 0 km/h
1423 26-12-2014 17:40:00 2.7 C 5.65 g/m*3 2.7 C 0 km/h
1424 26-12-2014 17:45:00 2.4 C 5.48 g/m*3 2.4 C 0 km/h
1425 26-12-2014 17:50:00 2.3 C 5.44 g/m*3 2.3 C 0 km/h
Sensor: Nr:Datum:Temp:Abs-Feuchte:Windchill:Wind:
Aussen-T/F 1426 26-12-2014 17:55:00 2.1 C 5.37 g/m*3 2.1 C 0 km/h
1427 26-12-2014 18:00:00 2 C 5.33 g/m*3 2 C 0 km/h
1428 26-12-2014 18:05:00 1.9 C 5.35 g/m*3 1.9 C 0 km/h
1429 26-12-2014 18:10:00 1.8 C 5.32 g/m*3 1.8 C 0 km/h
1430 26-12-2014 18:15:00 1.7 C 5.23 g/m*3 1.7 C 0 km/h
1431 26-12-2014 18:20:00 1.7 C 5.28 g/m*3 1.7 C 0 km/h
1432 26-12-2014 18:25:00 1.6 C 5.25 g/m*3 1.6 C 0 km/h
1433 26-12-2014 18:30:00 1.6 C 5.25 g/m*3 1.6 C 0 km/h
1434 26-12-2014 18:35:00 1.6 C 5.25 g/m*3 1.6 C 0 km/h
1435 26-12-2014 18:40:00 1.6 C 5.25 g/m*3 1.6 C 0 km/h
1436 26-12-2014 18:45:00 1.5 C 5.21 g/m*3 1.5 C 0 km/h
1437 26-12-2014 18:50:00 1.5 C 5.21 g/m*3 1.5 C 0 km/h
1438 26-12-2014 18:55:00 1.6 C 5.25 g/m*3 1.6 C 0 km/h
1439 26-12-2014 19:00:00 1.6 C 5.25 g/m*3 1.6 C 0 km/h
1440 26-12-2014 19:05:00 1.5 C 5.21 g/m*3 1.5 C 0 km/h
1441 26-12-2014 19:10:00 1.4 C 5.17 g/m*3 1.4 C 0 km/h
1442 26-12-2014 19:15:00 1.3 C 5.14 g/m*3 1.3 C 0 km/h
1443 26-12-2014 19:20:00 1.3 C 5.14 g/m*3 1.3 C 0 km/h
1444 26-12-2014 19:25:00 1.3 C 5.14 g/m*3 1.3 C 0 km/h
1445 26-12-2014 19:30:00 1.3 C 5.14 g/m*3 1.3 C 1.6 km/h
1446 26-12-2014 19:35:00 1.3 C 5.14 g/m*3 1.3 C 0 km/h
1447 26-12-2014 19:40:00 1.4 C 5.17 g/m*3 1.4 C 0 km/h
1448 26-12-2014 19:45:00 1.4 C 5.17 g/m*3 1.4 C 1.6 km/h
1449 26-12-2014 19:50:00 1.3 C 5.14 g/m*3 1.3 C 0 km/h
1450 26-12-2014 19:55:00 1.3 C 5.14 g/m*3 1.3 C 0 km/h
Sensor: Nr:Datum:Temp:Abs-Feuchte:Windchill:Wind:
Aussen-T/F 1451 26-12-2014 20:00:00 1.3 C 5.14 g/m*3 1.3 C 0 km/h
1452 26-12-2014 20:05:00 1.3 C 5.14 g/m*3 1.3 C 0 km/h
1453 26-12-2014 20:10:00 1.3 C 5.14 g/m*3 1.3 C 0 km/h
1454 26-12-2014 20:15:00 1.4 C 5.17 g/m*3 1.4 C 1.6 km/h
1455 26-12-2014 20:20:00 1.6 C 5.3 g/m*3 1.6 C 0 km/h
1456 26-12-2014 20:25:00 1.6 C 5.3 g/m*3 1.6 C 0 km/h
1457 26-12-2014 20:30:00 1.6 C 5.3 g/m*3 1.6 C 1.6 km/h
1458 26-12-2014 20:35:00 1.6 C 5.3 g/m*3 1.6 C 1.6 km/h
1459 26-12-2014 20:40:00 1.6 C 5.3 g/m*3 1.6 C 3.2 km/h
1460 26-12-2014 20:45:00 1.6 C 5.3 g/m*3 1.6 C 1.6 km/h
1461 26-12-2014 20:50:00 1.5 C 5.26 g/m*3 1.5 C 1.6 km/h
1462 26-12-2014 20:55:00 1.5 C 5.26 g/m*3 1.5 C 1.6 km/h
1463 26-12-2014 21:00:00 1.6 C 5.3 g/m*3 1.6 C 1.6 km/h
1464 26-12-2014 21:05:00 1.6 C 5.3 g/m*3 1.6 C 1.6 km/h
1465 26-12-2014 21:10:00 1.7 C 5.34 g/m*3 1.7 C 1.6 km/h
1466 26-12-2014 21:15:00 1.7 C 5.34 g/m*3 1.7 C 3.2 km/h
1467 26-12-2014 21:20:00 1.7 C 5.34 g/m*3 1.7 C 1.6 km/h
1468 26-12-2014 21:25:00 1.8 C 5.37 g/m*3 1.8 C 3.2 km/h
1469 26-12-2014 21:30:00 1.8 C 5.37 g/m*3 1.8 C 1.6 km/h
1470 26-12-2014 21:35:00 2 C 5.45 g/m*3 2 C 3.2 km/h
1471 26-12-2014 21:40:00 2.1 C 5.48 g/m*3 2.1 C 1.6 km/h
1472 26-12-2014 21:45:00 2.2 C 5.52 g/m*3 2.2 C 3.2 km/h
1473 26-12-2014 21:50:00 2.2 C 5.52 g/m*3 2.2 C 0 km/h
1474 26-12-2014 21:55:00 2.2 C 5.52 g/m*3 2.2 C 0 km/h
1475 26-12-2014 22:00:00 2.2 C 5.52 g/m*3 2.2 C 0 km/h
Sensor: Nr:Datum:Temp:Abs-Feuchte:Windchill:Wind:
Aussen-T/F 1476 26-12-2014 22:05:00 2.2 C 5.52 g/m*3 2.2 C 1.6 km/h
1477 26-12-2014 22:10:00 2.2 C 5.52 g/m*3 2.2 C 0 km/h
1478 26-12-2014 22:15:00 2.1 C 5.48 g/m*3 2.1 C 3.2 km/h
1479 26-12-2014 22:20:00 2.1 C 5.48 g/m*3 2.1 C 1.6 km/h
1480 26-12-2014 22:25:00 2.1 C 5.48 g/m*3 2.1 C 0 km/h
1481 26-12-2014 22:30:00 2.1 C 5.48 g/m*3 2.1 C 0 km/h
1482 26-12-2014 22:35:00 2.1 C 5.48 g/m*3 2.1 C 0 km/h
1483 26-12-2014 22:40:00 2 C 5.45 g/m*3 2 C 0 km/h
1484 26-12-2014 22:45:00 2 C 5.45 g/m*3 2 C 0 km/h
1485 26-12-2014 22:50:00 1.9 C 5.41 g/m*3 1.9 C 0 km/h
1486 26-12-2014 22:55:00 1.9 C 5.41 g/m*3 1.9 C 0 km/h
1487 26-12-2014 23:00:00 1.9 C 5.41 g/m*3 1.9 C 0 km/h
1488 26-12-2014 23:05:00 1.9 C 5.41 g/m*3 1.9 C 0 km/h
1489 26-12-2014 23:10:00 1.8 C 5.37 g/m*3 1.8 C 0 km/h
1490 26-12-2014 23:15:00 1.8 C 5.37 g/m*3 1.8 C 0 km/h
1491 26-12-2014 23:20:00 1.8 C 5.37 g/m*3 1.8 C 0 km/h
1492 26-12-2014 23:25:00 1.8 C 5.37 g/m*3 1.8 C 0 km/h
1493 26-12-2014 23:30:00 1.8 C 5.37 g/m*3 1.8 C 0 km/h
1494 26-12-2014 23:35:00 1.8 C 5.37 g/m*3 1.8 C 0 km/h
1495 26-12-2014 23:40:00 1.7 C 5.34 g/m*3 1.7 C 0 km/h
1496 26-12-2014 23:45:00 1.7 C 5.34 g/m*3 1.7 C 0 km/h
1497 26-12-2014 23:50:00 1.8 C 5.37 g/m*3 1.8 C 3.2 km/h
1498 26-12-2014 23:55:00 1.8 C 5.37 g/m*3 1.8 C 0 km/h
1499 27-12-2014 00:00:00 1.8 C 5.37 g/m*3 1.8 C 3.2 km/h
1500 27-12-2014 00:05:00 1.8 C 5.37 g/m*3 1.8 C 0 km/h
Sensor: Nr:Datum:Temp:Abs-Feuchte:Windchill:Wind:
Aussen-T/F 1501 27-12-2014 00:10:00 1.8 C 5.37 g/m*3 1.8 C 0 km/h
1502 27-12-2014 00:15:00 1.8 C 5.37 g/m*3 1.8 C 0 km/h
1503 27-12-2014 00:20:00 1.8 C 5.37 g/m*3 1.8 C 1.6 km/h
1504 27-12-2014 00:25:00 1.8 C 5.37 g/m*3 1.8 C 0 km/h
1505 27-12-2014 00:30:00 1.8 C 5.32 g/m*3 1.8 C 0 km/h
1506 27-12-2014 00:35:00 1.8 C 5.32 g/m*3 1.8 C 0 km/h
1507 27-12-2014 00:40:00 1.8 C 5.32 g/m*3 1.8 C 0 km/h
1508 27-12-2014 00:45:00 1.8 C 5.32 g/m*3 1.8 C 1.6 km/h
1509 27-12-2014 00:50:00 1.8 C 5.37 g/m*3 1.8 C 0 km/h
1510 27-12-2014 00:55:00 1.8 C 5.32 g/m*3 1.8 C 1.6 km/h
1511 27-12-2014 01:00:00 1.7 C 5.28 g/m*3 1.7 C 0 km/h
1512 27-12-2014 01:05:00 1.7 C 5.28 g/m*3 1.7 C 0 km/h
1513 27-12-2014 01:10:00 1.7 C 5.28 g/m*3 1.7 C 3.2 km/h
1514 27-12-2014 01:15:00 1.7 C 5.28 g/m*3 1.7 C 1.6 km/h
1515 27-12-2014 01:20:00 1.7 C 5.28 g/m*3 1.7 C 0 km/h
1516 27-12-2014 01:25:00 1.7 C 5.28 g/m*3 1.7 C 3.2 km/h
1517 27-12-2014 01:30:00 1.7 C 5.28 g/m*3 1.7 C 3.2 km/h
1518 27-12-2014 01:35:00 1.7 C 5.34 g/m*3 1.7 C 3.2 km/h
1519 27-12-2014 01:40:00 1.7 C 5.34 g/m*3 1.7 C 1.6 km/h
1520 27-12-2014 01:45:00 1.7 C 5.34 g/m*3 1.7 C 0 km/h
1521 27-12-2014 01:50:00 1.7 C 5.28 g/m*3 1.7 C 1.6 km/h
1522 27-12-2014 01:55:00 1.8 C 5.37 g/m*3 1.8 C 3.2 km/h
1523 27-12-2014 02:00:00 1.8 C 5.37 g/m*3 1.8 C 3.2 km/h
1524 27-12-2014 02:05:00 1.8 C 5.32 g/m*3 1.8 C 0 km/h
1525 27-12-2014 02:10:00 1.8 C 5.37 g/m*3 1.8 C 1.6 km/h
Sensor: Nr:Datum:Temp:Abs-Feuchte:Windchill:Wind:
Aussen-T/F 1526 27-12-2014 02:15:00 1.8 C 5.37 g/m*3 1.8 C 0 km/h
1527 27-12-2014 02:20:00 1.8 C 5.37 g/m*3 1.8 C 0 km/h
1528 27-12-2014 02:25:00 1.8 C 5.37 g/m*3 1.8 C 3.2 km/h
1529 27-12-2014 02:30:00 1.9 C 5.41 g/m*3 1.9 C 1.6 km/h
1530 27-12-2014 02:35:00 1.9 C 5.41 g/m*3 1.9 C 1.6 km/h
1531 27-12-2014 02:40:00 1.9 C 5.41 g/m*3 1.9 C 4.8 km/h
1532 27-12-2014 02:45:00 1.9 C 5.35 g/m*3 1.9 C 4.8 km/h
1533 27-12-2014 02:50:00 1.9 C 5.35 g/m*3 1.9 C 1.6 km/h
1534 27-12-2014 02:55:00 1.9 C 5.35 g/m*3 1.9 C 0 km/h
1535 27-12-2014 03:00:00 1.9 C 5.35 g/m*3 1.9 C 1.6 km/h
1536 27-12-2014 03:05:00 1.9 C 5.35 g/m*3 1.9 C 0 km/h
1537 27-12-2014 03:10:00 2 C 5.39 g/m*3 2 C 0 km/h
1538 27-12-2014 03:15:00 1.9 C 5.35 g/m*3 1.9 C 3.2 km/h
1539 27-12-2014 03:20:00 1.9 C 5.35 g/m*3 1.9 C 3.2 km/h
1540 27-12-2014 03:25:00 1.9 C 5.35 g/m*3 1.9 C 1.6 km/h
1541 27-12-2014 03:30:00 2 C 5.39 g/m*3 2 C 1.6 km/h
1542 27-12-2014 03:35:00 2 C 5.39 g/m*3 2 C 0 km/h
1543 27-12-2014 03:40:00 2.1 C 5.43 g/m*3 2.1 C 0 km/h
1544 27-12-2014 03:45:00 2.1 C 5.43 g/m*3 2.1 C 0 km/h
1545 27-12-2014 03:50:00 2.1 C 5.43 g/m*3 2.1 C 1.6 km/h
1546 27-12-2014 03:55:00 2.1 C 5.43 g/m*3 2.1 C 1.6 km/h
1547 27-12-2014 04:00:00 2.2 C 5.46 g/m*3 2.2 C 3.2 km/h
1548 27-12-2014 04:05:00 2.2 C 5.46 g/m*3 2.2 C 1.6 km/h
1549 27-12-2014 04:10:00 2.2 C 5.46 g/m*3 2.2 C 0 km/h
1550 27-12-2014 04:15:00 2.2 C 5.46 g/m*3 2.2 C 4.8 km/h
Sensor: Nr:Datum:Temp:Abs-Feuchte:Windchill:Wind:
Aussen-T/F 1551 27-12-2014 04:20:00 2.3 C 5.5 g/m*3 2.3 C 4.8 km/h
1552 27-12-2014 04:25:00 2.3 C 5.5 g/m*3 2.3 C 3.2 km/h
1553 27-12-2014 04:30:00 2.3 C 5.5 g/m*3 2.3 C 1.6 km/h
1554 27-12-2014 05:45:00 1.8 C 5.21 g/m*3 1.8 C 3.2 km/h
1555 27-12-2014 05:50:00 1.8 C 5.21 g/m*3 -0.1 C 6.4 km/h
1556 27-12-2014 05:55:00 1.8 C 5.21 g/m*3 -2.11 C 14.5 km/h
1557 27-12-2014 06:00:00 1.8 C 5.21 g/m*3 1.8 C 4.8 km/h
1558 27-12-2014 06:05:00 1.8 C 5.21 g/m*3 1.8 C 4.8 km/h
1559 27-12-2014 06:10:00 1.8 C 5.21 g/m*3 1.8 C 4.8 km/h
1560 27-12-2014 06:15:00 1.8 C 5.21 g/m*3 1.8 C 4.8 km/h
1561 27-12-2014 06:20:00 1.8 C 5.21 g/m*3 1.8 C 3.2 km/h
1562 27-12-2014 06:25:00 1.8 C 5.21 g/m*3 -1.09 C 9.7 km/h
1563 27-12-2014 06:30:00 1.8 C 5.21 g/m*3 -0.1 C 6.4 km/h
1564 27-12-2014 06:50:00 1.7 C 5.17 g/m*3 -0.22 C 6.4 km/h
1565 27-12-2014 06:55:00 1.6 C 5.14 g/m*3 -0.89 C 8.1 km/h
1566 27-12-2014 07:00:00 1.6 C 5.14 g/m*3 -0.89 C 8.1 km/h
1567 27-12-2014 07:05:00 1.6 C 5.14 g/m*3 -1.33 C 9.7 km/h
1568 27-12-2014 07:10:00 1.6 C 5.14 g/m*3 -0.89 C 8.1 km/h
1569 27-12-2014 07:30:00 1.4 C 5.07 g/m*3 -0.56 C 6.4 km/h
1570 27-12-2014 07:35:00 1.3 C 5.03 g/m*3 -1.69 C 9.7 km/h
1571 27-12-2014 07:40:00 1.3 C 5.03 g/m*3 -1.69 C 9.7 km/h
1572 27-12-2014 07:45:00 1.3 C 5.03 g/m*3 -2.07 C 11.3 km/h
1573 27-12-2014 07:50:00 1.3 C 5.03 g/m*3 -0.68 C 6.4 km/h
1574 27-12-2014 07:55:00 1.3 C 5.03 g/m*3 -2.41 C 12.9 km/h
1575 27-12-2014 08:00:00 1.3 C 5.03 g/m*3 -2.41 C 12.9 km/h
Sensor: Nr:Datum:Temp:Abs-Feuchte:Windchill:Wind:
Aussen-T/F 1576 27-12-2014 08:05:00 1.3 C 5.03 g/m*3 -2.07 C 11.3 km/h
1577 27-12-2014 08:10:00 1.3 C 5.03 g/m*3 -2.41 C 12.9 km/h
1578 27-12-2014 09:05:00 1.3 C 4.98 g/m*3 -1.69 C 9.7 km/h
1579 27-12-2014 09:10:00 1.3 C 5.03 g/m*3 -1.24 C 8.1 km/h
1580 27-12-2014 09:15:00 1.2 C 5 g/m*3 -2.19 C 11.3 km/h
1581 27-12-2014 09:20:00 1.2 C 5 g/m*3 -1.36 C 8.1 km/h
1582 27-12-2014 09:25:00 1.1 C 4.96 g/m*3 -0.91 C 6.4 km/h
1583 27-12-2014 09:30:00 1.2 C 5 g/m*3 -0.8 C 6.4 km/h
1584 27-12-2014 09:35:00 1.2 C 5.05 g/m*3 -1.8 C 9.7 km/h
1585 27-12-2014 09:40:00 1.2 C 5 g/m*3 -1.36 C 8.1 km/h
1586 27-12-2014 09:45:00 1.2 C 5 g/m*3 -1.8 C 9.7 km/h
1587 27-12-2014 09:50:00 1.2 C 5 g/m*3 -1.36 C 8.1 km/h
1588 27-12-2014 09:55:00 1.3 C 5.03 g/m*3 1.3 C 4.8 km/h
1589 27-12-2014 10:00:00 1.3 C 5.03 g/m*3 1.3 C 4.8 km/h
1590 27-12-2014 10:05:00 1.3 C 5.03 g/m*3 -1.24 C 8.1 km/h
1591 27-12-2014 10:10:00 1.3 C 5.03 g/m*3 -1.24 C 8.1 km/h
1592 27-12-2014 10:15:00 1.3 C 5.03 g/m*3 -0.68 C 6.4 km/h
1593 27-12-2014 10:20:00 1.3 C 5.03 g/m*3 1.3 C 4.8 km/h
1594 27-12-2014 10:25:00 1.3 C 5.03 g/m*3 1.3 C 4.8 km/h
1595 27-12-2014 10:30:00 1.3 C 5.09 g/m*3 -1.24 C 8.1 km/h
1596 27-12-2014 10:35:00 1.3 C 5.09 g/m*3 -0.68 C 6.4 km/h
1597 27-12-2014 10:40:00 1.4 C 5.12 g/m*3 -0.56 C 6.4 km/h
1598 27-12-2014 10:45:00 1.4 C 5.12 g/m*3 -1.12 C 8.1 km/h
1599 27-12-2014 10:50:00 1.4 C 5.12 g/m*3 1.4 C 4.8 km/h
1600 27-12-2014 10:55:00 1.5 C 5.16 g/m*3 -1.45 C 9.7 km/h
Sensor: Nr:Datum:Temp:Abs-Feuchte:Windchill:Wind:
Aussen-T/F 1601 27-12-2014 11:00:00 1.5 C 5.16 g/m*3 -0.45 C 6.4 km/h
1602 27-12-2014 11:05:00 1.5 C 5.16 g/m*3 -1.01 C 8.1 km/h
1603 27-12-2014 11:10:00 1.6 C 5.19 g/m*3 -0.33 C 6.4 km/h
1604 27-12-2014 11:15:00 1.6 C 5.14 g/m*3 -0.33 C 6.4 km/h
1605 27-12-2014 11:20:00 1.6 C 5.14 g/m*3 -0.89 C 8.1 km/h
1606 27-12-2014 11:25:00 1.6 C 5.14 g/m*3 -1.33 C 9.7 km/h
1607 27-12-2014 12:05:00 1.3 C 5.09 g/m*3 1.3 C 4.8 km/h
1608 27-12-2014 12:10:00 1.3 C 5.09 g/m*3 -1.24 C 8.1 km/h
1609 27-12-2014 12:15:00 1.3 C 5.09 g/m*3 1.3 C 3.2 km/h
1610 27-12-2014 12:20:00 1.3 C 5.09 g/m*3 -1.69 C 9.7 km/h
1611 27-12-2014 12:25:00 1.3 C 5.09 g/m*3 -0.68 C 6.4 km/h
1612 27-12-2014 12:30:00 1.3 C 5.09 g/m*3 -1.24 C 8.1 km/h
1613 27-12-2014 12:35:00 1.3 C 5.09 g/m*3 1.3 C 4.8 km/h
1614 27-12-2014 12:40:00 1.3 C 5.09 g/m*3 1.3 C 4.8 km/h
1615 27-12-2014 12:45:00 1.3 C 5.09 g/m*3 -1.24 C 8.1 km/h
1616 27-12-2014 12:50:00 1.5 C 5.16 g/m*3 -1.01 C 8.1 km/h
1617 27-12-2014 12:55:00 1.6 C 5.19 g/m*3 1.6 C 4.8 km/h
1618 27-12-2014 13:00:00 1.6 C 5.19 g/m*3 1.6 C 4.8 km/h
1619 27-12-2014 13:40:00 1.9 C 5.24 g/m*3 -0.54 C 8.1 km/h
1620 27-12-2014 13:45:00 1.9 C 5.24 g/m*3 0.01 C 6.4 km/h
1621 27-12-2014 13:50:00 1.9 C 5.24 g/m*3 1.9 C 3.2 km/h
1622 27-12-2014 13:55:00 1.9 C 5.24 g/m*3 1.9 C 4.8 km/h
1623 27-12-2014 14:00:00 1.9 C 5.24 g/m*3 1.9 C 4.8 km/h
1624 27-12-2014 14:20:00 2.1 C 5.31 g/m*3 2.1 C 3.2 km/h
1625 27-12-2014 14:25:00 2.1 C 5.31 g/m*3 2.1 C 1.6 km/h
Sensor: Nr:Datum:Temp:Abs-Feuchte:Windchill:Wind:
Aussen-T/F 1626 27-12-2014 14:30:00 2.1 C 5.31 g/m*3 2.1 C 1.6 km/h
1627 27-12-2014 14:35:00 2.2 C 5.35 g/m*3 2.2 C 1.6 km/h
1628 27-12-2014 14:40:00 2.2 C 5.35 g/m*3 2.2 C 1.6 km/h
1629 27-12-2014 14:45:00 2.2 C 5.35 g/m*3 2.2 C 1.6 km/h
1630 27-12-2014 14:50:00 2.2 C 5.29 g/m*3 2.2 C 3.2 km/h
1631 27-12-2014 14:55:00 2.2 C 5.29 g/m*3 2.2 C 1.6 km/h
1632 27-12-2014 15:00:00 2.2 C 5.29 g/m*3 -0.18 C 8.1 km/h
1633 27-12-2014 15:05:00 2.2 C 5.29 g/m*3 2.2 C 1.6 km/h
1634 27-12-2014 15:10:00 2.3 C 5.33 g/m*3 2.3 C 4.8 km/h
1635 27-12-2014 15:15:00 2.3 C 5.33 g/m*3 2.3 C 3.2 km/h
1636 27-12-2014 15:20:00 2.3 C 5.33 g/m*3 -0.07 C 8.1 km/h
1637 27-12-2014 15:25:00 2.3 C 5.33 g/m*3 2.3 C 1.6 km/h
1638 27-12-2014 15:30:00 2.3 C 5.33 g/m*3 2.3 C 3.2 km/h
1639 27-12-2014 15:35:00 2.1 C 5.26 g/m*3 2.1 C 3.2 km/h
1640 27-12-2014 15:40:00 2.1 C 5.26 g/m*3 0.24 C 6.4 km/h
1641 27-12-2014 15:45:00 2.1 C 5.26 g/m*3 2.1 C 4.8 km/h
1642 27-12-2014 15:50:00 1.9 C 5.19 g/m*3 1.9 C 4.8 km/h
1643 27-12-2014 15:55:00 1.8 C 5.15 g/m*3 1.8 C 4.8 km/h
1644 27-12-2014 16:00:00 1.8 C 5.21 g/m*3 -0.1 C 6.4 km/h
1645 27-12-2014 16:05:00 1.8 C 5.21 g/m*3 1.8 C 4.8 km/h
1646 27-12-2014 16:10:00 1.7 C 5.17 g/m*3 -0.77 C 8.1 km/h
1647 27-12-2014 16:15:00 1.7 C 5.17 g/m*3 -1.59 C 11.3 km/h
1648 27-12-2014 16:20:00 1.7 C 5.17 g/m*3 -0.22 C 6.4 km/h
1649 27-12-2014 16:25:00 1.7 C 5.17 g/m*3 1.7 C 4.8 km/h
1650 27-12-2014 16:30:00 1.7 C 5.17 g/m*3 -0.22 C 6.4 km/h
Sensor: Nr:Datum:Temp:Abs-Feuchte:Windchill:Wind:
Aussen-T/F 1651 27-12-2014 16:35:00 1.7 C 5.17 g/m*3 1.7 C 3.2 km/h
1652 27-12-2014 18:55:00 0.8 C 4.81 g/m*3 0.8 C 3.2 km/h
1653 27-12-2014 19:00:00 0.8 C 4.76 g/m*3 -3.62 C 16.1 km/h
1654 27-12-2014 19:05:00 0.7 C 4.73 g/m*3 0.7 C 3.2 km/h
1655 27-12-2014 19:10:00 0.7 C 4.73 g/m*3 -3.15 C 12.9 km/h
1656 27-12-2014 19:15:00 0.7 C 4.73 g/m*3 0.7 C 4.8 km/h
1657 27-12-2014 19:20:00 0.6 C 4.65 g/m*3 -1.49 C 6.4 km/h
1658 27-12-2014 19:25:00 0.6 C 4.65 g/m*3 0.6 C 1.6 km/h
1659 27-12-2014 19:30:00 0.6 C 4.65 g/m*3 -2.06 C 8.1 km/h
1660 27-12-2014 19:35:00 0.6 C 4.65 g/m*3 -2.52 C 9.7 km/h
1661 27-12-2014 19:40:00 0.6 C 4.65 g/m*3 -1.49 C 6.4 km/h
1662 27-12-2014 19:45:00 0.6 C 4.65 g/m*3 -1.49 C 6.4 km/h
1663 27-12-2014 19:50:00 0.5 C 4.61 g/m*3 -3.39 C 12.9 km/h
1664 27-12-2014 19:55:00 0.5 C 4.61 g/m*3 -2.18 C 8.1 km/h
1665 27-12-2014 20:00:00 0.4 C 4.53 g/m*3 -3.16 C 11.3 km/h
1666 27-12-2014 20:05:00 0.4 C 4.53 g/m*3 -3.16 C 11.3 km/h
1667 27-12-2014 20:10:00 0.4 C 4.53 g/m*3 -1.72 C 6.4 km/h
1668 27-12-2014 20:15:00 0.4 C 4.53 g/m*3 -2.76 C 9.7 km/h
1669 27-12-2014 20:20:00 0.4 C 4.53 g/m*3 -2.76 C 9.7 km/h
1670 27-12-2014 20:25:00 0.4 C 4.48 g/m*3 -2.76 C 9.7 km/h
1671 27-12-2014 20:30:00 0.4 C 4.48 g/m*3 -2.3 C 8.1 km/h
1672 27-12-2014 20:35:00 0.3 C 4.45 g/m*3 -3.28 C 11.3 km/h
1673 27-12-2014 20:40:00 0.3 C 4.45 g/m*3 -2.42 C 8.1 km/h
1674 27-12-2014 20:45:00 0.3 C 4.45 g/m*3 -2.42 C 8.1 km/h
1675 27-12-2014 20:50:00 0.3 C 4.45 g/m*3 -1.84 C 6.4 km/h
Sensor: Nr:Datum:Temp:Abs-Feuchte:Windchill:Wind:
Aussen-T/F 1676 27-12-2014 20:55:00 0.3 C 4.45 g/m*3 -1.84 C 6.4 km/h
1677 27-12-2014 21:00:00 0.3 C 4.45 g/m*3 0.3 C 4.8 km/h
1678 27-12-2014 21:05:00 0.3 C 4.45 g/m*3 -1.84 C 6.4 km/h
1679 27-12-2014 21:10:00 0.3 C 4.45 g/m*3 -2.42 C 8.1 km/h
1680 27-12-2014 21:15:00 0.3 C 4.45 g/m*3 0.3 C 1.6 km/h
1681 27-12-2014 21:20:00 0.3 C 4.45 g/m*3 -2.42 C 8.1 km/h
1682 27-12-2014 21:25:00 0.3 C 4.45 g/m*3 0.3 C 4.8 km/h
1683 27-12-2014 21:30:00 0.3 C 4.4 g/m*3 -1.84 C 6.4 km/h
1684 27-12-2014 21:35:00 0.3 C 4.4 g/m*3 0.3 C 3.2 km/h
1685 27-12-2014 21:40:00 0.3 C 4.45 g/m*3 0.3 C 1.6 km/h
1686 27-12-2014 21:45:00 0.3 C 4.4 g/m*3 -2.42 C 8.1 km/h
1687 27-12-2014 21:50:00 0.3 C 4.4 g/m*3 0.3 C 4.8 km/h
1688 27-12-2014 21:55:00 0.3 C 4.4 g/m*3 -2.88 C 9.7 km/h
1689 27-12-2014 22:00:00 0.3 C 4.4 g/m*3 -3.28 C 11.3 km/h
1690 28-12-2014 05:40:00 -2 C 3.29 g/m*3 -5.62 C 9.7 km/h
1691 28-12-2014 05:45:00 -2 C 3.29 g/m*3 -5.62 C 9.7 km/h
1692 28-12-2014 05:50:00 -2 C 3.33 g/m*3 -5.62 C 9.7 km/h
1693 28-12-2014 05:55:00 -2 C 3.33 g/m*3 -6.43 C 12.9 km/h
1694 28-12-2014 06:00:00 -2.1 C 3.31 g/m*3 -6.17 C 11.3 km/h
1695 28-12-2014 06:05:00 -2.1 C 3.31 g/m*3 -6.9 C 14.5 km/h
1696 28-12-2014 06:10:00 -2.2 C 3.28 g/m*3 -6.68 C 12.9 km/h
1697 28-12-2014 06:15:00 -2.2 C 3.28 g/m*3 -5.86 C 9.7 km/h
1698 28-12-2014 06:20:00 -2.2 C 3.24 g/m*3 -7.34 C 16.1 km/h
1699 28-12-2014 06:25:00 -2.2 C 3.28 g/m*3 -6.29 C 11.3 km/h
1700 28-12-2014 06:30:00 -2.2 C 3.28 g/m*3 -6.29 C 11.3 km/h
Sensor: Nr:Datum:Temp:Abs-Feuchte:Windchill:Wind:
Aussen-T/F 1701 28-12-2014 06:35:00 -2.2 C 3.28 g/m*3 -6.29 C 11.3 km/h
1702 28-12-2014 06:40:00 -2.3 C 3.26 g/m*3 -6.8 C 12.9 km/h
1703 28-12-2014 06:45:00 -2.3 C 3.26 g/m*3 -7.15 C 14.5 km/h
1704 28-12-2014 06:50:00 -2.3 C 3.26 g/m*3 -6.41 C 11.3 km/h
1705 28-12-2014 06:55:00 -2.3 C 3.26 g/m*3 -5.98 C 9.7 km/h
1706 28-12-2014 07:00:00 -2.3 C 3.26 g/m*3 -5.98 C 9.7 km/h
1707 28-12-2014 07:05:00 -2.3 C 3.3 g/m*3 -6.8 C 12.9 km/h
1708 28-12-2014 07:10:00 -2.3 C 3.3 g/m*3 -5.98 C 9.7 km/h
1709 28-12-2014 07:15:00 -2.4 C 3.28 g/m*3 -6.53 C 11.3 km/h
1710 28-12-2014 07:20:00 -2.4 C 3.28 g/m*3 -4.95 C 6.4 km/h
1711 28-12-2014 07:25:00 -2.4 C 3.28 g/m*3 -5.59 C 8.1 km/h
1712 28-12-2014 07:30:00 -2.5 C 3.26 g/m*3 -5.71 C 8.1 km/h
1713 28-12-2014 07:35:00 -2.5 C 3.3 g/m*3 -7.04 C 12.9 km/h
1714 28-12-2014 07:40:00 -2.6 C 3.27 g/m*3 -7.17 C 12.9 km/h
1715 28-12-2014 07:45:00 -2.7 C 3.25 g/m*3 -6.9 C 11.3 km/h
1716 28-12-2014 07:50:00 -2.8 C 3.23 g/m*3 -7.76 C 14.5 km/h
1717 28-12-2014 07:55:00 -2.9 C 3.2 g/m*3 -6.18 C 8.1 km/h
1718 28-12-2014 08:00:00 -3 C 3.18 g/m*3 -5.65 C 6.4 km/h
1719 28-12-2014 08:05:00 -3 C 3.18 g/m*3 -3 C 4.8 km/h
1720 28-12-2014 08:10:00 -3.2 C 3.18 g/m*3 -5.88 C 6.4 km/h
1721 28-12-2014 08:15:00 -3.2 C 3.18 g/m*3 -3.2 C 3.2 km/h
1722 28-12-2014 08:20:00 -3.3 C 3.15 g/m*3 -7.17 C 9.7 km/h
1723 28-12-2014 08:25:00 -3.3 C 3.15 g/m*3 -5.99 C 6.4 km/h
1724 28-12-2014 08:30:00 -3.4 C 3.13 g/m*3 -6.77 C 8.1 km/h
1725 28-12-2014 08:35:00 -3.4 C 3.13 g/m*3 -3.4 C 4.8 km/h
Sensor: Nr:Datum:Temp:Abs-Feuchte:Windchill:Wind:
Aussen-T/F 1726 28-12-2014 08:40:00 -3.5 C 3.11 g/m*3 -3.5 C 1.6 km/h
1727 28-12-2014 08:45:00 -3.6 C 3.12 g/m*3 -3.6 C 1.6 km/h
1728 28-12-2014 08:50:00 -3.7 C 3.1 g/m*3 -3.7 C 1.6 km/h
1729 28-12-2014 08:55:00 -3.7 C 3.1 g/m*3 -8.1 C 11.3 km/h
1730 28-12-2014 09:00:00 -3.7 C 3.1 g/m*3 -3.7 C 3.2 km/h
1731 28-12-2014 09:05:00 -3.7 C 3.06 g/m*3 -3.7 C 3.2 km/h
1732 28-12-2014 09:10:00 -3.7 C 3.1 g/m*3 -3.7 C 4.8 km/h
1733 28-12-2014 09:15:00 -3.8 C 3.08 g/m*3 -3.8 C 4.8 km/h
1734 28-12-2014 09:20:00 -3.8 C 3.08 g/m*3 -3.8 C 3.2 km/h
1735 28-12-2014 09:25:00 -3.9 C 3.06 g/m*3 -6.69 C 6.4 km/h
1736 28-12-2014 09:30:00 -3.9 C 3.02 g/m*3 -3.9 C 4.8 km/h
1737 28-12-2014 09:35:00 -3.9 C 3.02 g/m*3 -3.9 C 4.8 km/h
1738 28-12-2014 09:40:00 -3.8 C 3.01 g/m*3 -6.57 C 6.4 km/h
1739 28-12-2014 09:45:00 -3.8 C 3.01 g/m*3 -6.57 C 6.4 km/h
1740 28-12-2014 09:50:00 -3.8 C 3.01 g/m*3 -6.57 C 6.4 km/h
1741 28-12-2014 09:55:00 -3.7 C 3.03 g/m*3 -7.12 C 8.1 km/h
1742 28-12-2014 10:00:00 -3.7 C 2.99 g/m*3 -7.12 C 8.1 km/h
1743 28-12-2014 10:05:00 -3.7 C 2.99 g/m*3 -3.7 C 3.2 km/h
1744 28-12-2014 10:10:00 -3.7 C 2.99 g/m*3 -3.7 C 1.6 km/h
1745 28-12-2014 10:15:00 -3.7 C 2.95 g/m*3 -7.12 C 8.1 km/h
1746 28-12-2014 10:20:00 -3.7 C 2.99 g/m*3 -3.7 C 1.6 km/h
1747 28-12-2014 10:25:00 -3.7 C 3.06 g/m*3 -3.7 C 0 km/h
1748 28-12-2014 10:30:00 -3.8 C 3.12 g/m*3 -3.8 C 3.2 km/h
1749 28-12-2014 10:35:00 -3.9 C 3.09 g/m*3 -3.9 C 3.2 km/h
1750 28-12-2014 10:40:00 -3.9 C 3.02 g/m*3 -7.35 C 8.1 km/h
Sensor: Nr:Datum:Temp:Abs-Feuchte:Windchill:Wind:
Aussen-T/F 1751 28-12-2014 10:45:00 -3.8 C 3.08 g/m*3 -3.8 C 4.8 km/h
1752 28-12-2014 10:50:00 -3.9 C 3.02 g/m*3 -3.9 C 3.2 km/h
1753 28-12-2014 10:55:00 -3.8 C 2.97 g/m*3 -3.8 C 3.2 km/h
1754 28-12-2014 11:00:00 -3.8 C 3.08 g/m*3 -3.8 C 4.8 km/h
1755 28-12-2014 11:05:00 -3.8 C 3.01 g/m*3 -6.57 C 6.4 km/h
1756 28-12-2014 11:10:00 -3.7 C 2.84 g/m*3 -7.12 C 8.1 km/h
1757 28-12-2014 11:15:00 -3.5 C 2.81 g/m*3 -6.22 C 6.4 km/h
1758 28-12-2014 11:20:00 -3.4 C 2.83 g/m*3 -7.74 C 11.3 km/h
1759 28-12-2014 11:25:00 -3.3 C 2.85 g/m*3 -8.02 C 12.9 km/h
1760 28-12-2014 11:30:00 -3.2 C 2.79 g/m*3 -7.5 C 11.3 km/h
1761 28-12-2014 11:35:00 -3.1 C 2.81 g/m*3 -7.78 C 12.9 km/h
1762 28-12-2014 11:40:00 -3.1 C 2.77 g/m*3 -6.93 C 9.7 km/h
1763 28-12-2014 11:45:00 -3 C 2.75 g/m*3 -6.3 C 8.1 km/h
1764 28-12-2014 11:50:00 -2.9 C 2.81 g/m*3 -6.18 C 8.1 km/h
1765 28-12-2014 11:55:00 -2.9 C 2.77 g/m*3 -7.89 C 14.5 km/h
1766 28-12-2014 12:00:00 -2.9 C 2.77 g/m*3 -6.18 C 8.1 km/h
1767 28-12-2014 12:05:00 -2.8 C 2.79 g/m*3 -6.57 C 9.7 km/h
1768 28-12-2014 12:10:00 -2.8 C 2.79 g/m*3 -7.41 C 12.9 km/h
1769 28-12-2014 12:15:00 -2.7 C 2.77 g/m*3 -6.45 C 9.7 km/h
1770 28-12-2014 12:20:00 -2.6 C 2.67 g/m*3 -6.77 C 11.3 km/h
1771 28-12-2014 12:25:00 -2.5 C 2.65 g/m*3 -6.65 C 11.3 km/h
1772 28-12-2014 12:30:00 -2.4 C 2.7 g/m*3 -5.59 C 8.1 km/h
1773 28-12-2014 12:35:00 -2.3 C 2.64 g/m*3 -6.41 C 11.3 km/h
1774 28-12-2014 12:40:00 -2.3 C 2.6 g/m*3 -5.98 C 9.7 km/h
1775 28-12-2014 12:45:00 -2.2 C 2.62 g/m*3 -6.29 C 11.3 km/h
Sensor: Nr:Datum:Temp:Abs-Feuchte:Windchill:Wind:
Aussen-T/F 1776 28-12-2014 12:50:00 -2.2 C 2.66 g/m*3 -4.72 C 6.4 km/h
1777 28-12-2014 12:55:00 -2.2 C 2.7 g/m*3 -5.86 C 9.7 km/h
1778 28-12-2014 13:00:00 -2.1 C 2.72 g/m*3 -5.24 C 8.1 km/h
1779 28-12-2014 13:05:00 -2.1 C 2.76 g/m*3 -5.74 C 9.7 km/h
1780 28-12-2014 13:10:00 -2 C 2.78 g/m*3 -6.43 C 12.9 km/h
1781 28-12-2014 13:15:00 -2 C 2.78 g/m*3 -5.62 C 9.7 km/h
1782 28-12-2014 13:20:00 -1.9 C 2.8 g/m*3 -5.5 C 9.7 km/h
1783 28-12-2014 13:25:00 -1.9 C 2.76 g/m*3 -5 C 8.1 km/h
1784 28-12-2014 13:30:00 -1.9 C 2.84 g/m*3 -4.38 C 6.4 km/h
1785 28-12-2014 13:35:00 -1.9 C 2.8 g/m*3 -5.5 C 9.7 km/h
1786 28-12-2014 13:40:00 -1.9 C 2.89 g/m*3 -5 C 8.1 km/h
1787 28-12-2014 13:45:00 -1.9 C 2.84 g/m*3 -5 C 8.1 km/h
1788 28-12-2014 13:50:00 -1.9 C 2.84 g/m*3 -4.38 C 6.4 km/h
1789 28-12-2014 13:55:00 -1.8 C 2.82 g/m*3 -5.38 C 9.7 km/h
1790 28-12-2014 14:00:00 -1.7 C 2.84 g/m*3 -4.15 C 6.4 km/h
1791 28-12-2014 14:05:00 -1.7 C 2.84 g/m*3 -1.7 C 4.8 km/h
1792 28-12-2014 14:10:00 -1.6 C 2.86 g/m*3 -1.6 C 4.8 km/h
1793 28-12-2014 14:15:00 -1.6 C 2.86 g/m*3 -4.03 C 6.4 km/h
1794 28-12-2014 14:20:00 -1.6 C 2.9 g/m*3 -4.03 C 6.4 km/h
1795 28-12-2014 14:25:00 -1.5 C 2.88 g/m*3 -4.53 C 8.1 km/h
1796 28-12-2014 14:30:00 -1.5 C 2.92 g/m*3 -3.91 C 6.4 km/h
1797 28-12-2014 14:35:00 -1.5 C 2.92 g/m*3 -1.5 C 1.6 km/h
1798 28-12-2014 14:40:00 -1.5 C 3.14 g/m*3 -1.5 C 4.8 km/h
1799 28-12-2014 14:45:00 -1.7 C 3.27 g/m*3 -1.7 C 1.6 km/h
1800 28-12-2014 14:50:00 -1.8 C 3.08 g/m*3 -1.8 C 4.8 km/h
Sensor: Nr:Datum:Temp:Abs-Feuchte:Windchill:Wind:
Aussen-T/F 1801 28-12-2014 14:55:00 -1.7 C 2.97 g/m*3 -5.69 C 11.3 km/h
1802 28-12-2014 15:00:00 -1.6 C 3.03 g/m*3 -4.65 C 8.1 km/h
1803 28-12-2014 15:05:00 -1.5 C 3.06 g/m*3 -4.53 C 8.1 km/h
1804 28-12-2014 15:10:00 -1.4 C 3.08 g/m*3 -4.42 C 8.1 km/h
1805 28-12-2014 15:15:00 -1.4 C 3.03 g/m*3 -5.33 C 11.3 km/h
1806 28-12-2014 15:20:00 -1.3 C 3.01 g/m*3 -4.78 C 9.7 km/h
1807 28-12-2014 15:25:00 -1.3 C 3.05 g/m*3 -5.58 C 12.9 km/h
1808 28-12-2014 15:30:00 -1.2 C 3.08 g/m*3 -3.57 C 6.4 km/h
1809 28-12-2014 15:35:00 -1.2 C 3.03 g/m*3 -5.09 C 11.3 km/h
1810 28-12-2014 15:40:00 -1.2 C 3.03 g/m*3 -5.09 C 11.3 km/h
1811 28-12-2014 15:45:00 -1.2 C 2.99 g/m*3 -5.46 C 12.9 km/h
1812 28-12-2014 15:50:00 -1.2 C 2.99 g/m*3 -5.46 C 12.9 km/h
1813 28-12-2014 15:55:00 -1.2 C 2.94 g/m*3 -5.09 C 11.3 km/h
1814 28-12-2014 16:00:00 -1.3 C 2.97 g/m*3 -3.68 C 6.4 km/h
1815 28-12-2014 16:05:00 -1.3 C 3.01 g/m*3 -1.3 C 4.8 km/h
1816 28-12-2014 16:10:00 -1.4 C 3.08 g/m*3 -1.4 C 3.2 km/h
1817 28-12-2014 16:15:00 -1.5 C 3.01 g/m*3 -4.53 C 8.1 km/h
1818 28-12-2014 16:20:00 -1.6 C 3.08 g/m*3 -1.6 C 4.8 km/h
1819 28-12-2014 16:25:00 -1.7 C 3.01 g/m*3 -4.15 C 6.4 km/h
1820 28-12-2014 16:30:00 -1.7 C 3.06 g/m*3 -1.7 C 3.2 km/h
1821 28-12-2014 16:35:00 -1.7 C 3.06 g/m*3 -4.15 C 6.4 km/h
1822 28-12-2014 16:40:00 -1.8 C 3.12 g/m*3 -1.8 C 3.2 km/h
1823 28-12-2014 16:45:00 -1.8 C 3.16 g/m*3 -1.8 C 1.6 km/h
1824 28-12-2014 16:50:00 -1.9 C 3.1 g/m*3 -1.9 C 3.2 km/h
1825 28-12-2014 16:55:00 -2 C 3.16 g/m*3 -2 C 3.2 km/h
Sensor: Nr:Datum:Temp:Abs-Feuchte:Windchill:Wind:
Aussen-T/F 1826 28-12-2014 17:00:00 -2.2 C 3.24 g/m*3 -2.2 C 3.2 km/h
1827 28-12-2014 17:05:00 -2.4 C 3.28 g/m*3 -2.4 C 1.6 km/h
1828 28-12-2014 17:10:00 -2.6 C 3.27 g/m*3 -2.6 C 3.2 km/h
1829 28-12-2014 17:15:00 -2.7 C 3.25 g/m*3 -2.7 C 3.2 km/h
1830 28-12-2014 17:20:00 -2.8 C 3.27 g/m*3 -2.8 C 1.6 km/h
1831 28-12-2014 17:25:00 -2.8 C 3.27 g/m*3 -2.8 C 0 km/h
1832 28-12-2014 17:30:00 -2.9 C 3.28 g/m*3 -2.9 C 0 km/h
1833 28-12-2014 17:35:00 -2.9 C 3.28 g/m*3 -2.9 C 0 km/h
1834 28-12-2014 17:40:00 -3.1 C 3.28 g/m*3 -3.1 C 0 km/h
1835 28-12-2014 17:45:00 -3.1 C 3.32 g/m*3 -3.1 C 0 km/h
1836 28-12-2014 17:50:00 -3.2 C 3.29 g/m*3 -3.2 C 0 km/h
1837 28-12-2014 17:55:00 -3.3 C 3.27 g/m*3 -3.3 C 0 km/h
1838 28-12-2014 18:00:00 -3.4 C 3.28 g/m*3 -3.4 C 4.8 km/h
1839 28-12-2014 18:05:00 -3.4 C 3.32 g/m*3 -6.11 C 6.4 km/h
1840 28-12-2014 18:10:00 -3.4 C 3.32 g/m*3 -6.11 C 6.4 km/h
1841 28-12-2014 18:15:00 -3.4 C 3.32 g/m*3 -6.11 C 6.4 km/h
1842 28-12-2014 18:20:00 -3.4 C 3.28 g/m*3 -3.4 C 4.8 km/h
1843 28-12-2014 18:25:00 -3.4 C 3.28 g/m*3 -6.11 C 6.4 km/h
1844 28-12-2014 18:30:00 -3.3 C 3.31 g/m*3 -3.3 C 4.8 km/h
1845 28-12-2014 18:35:00 -3.3 C 3.31 g/m*3 -5.99 C 6.4 km/h
1846 28-12-2014 18:40:00 -3.2 C 3.29 g/m*3 -7.05 C 9.7 km/h
1847 28-12-2014 18:45:00 -3.1 C 3.28 g/m*3 -3.1 C 3.2 km/h
1848 28-12-2014 18:50:00 -3.1 C 3.24 g/m*3 -3.1 C 4.8 km/h
1849 28-12-2014 18:55:00 -3 C 3.26 g/m*3 -3 C 1.6 km/h
1850 28-12-2014 19:00:00 -3.2 C 3.25 g/m*3 -3.2 C 3.2 km/h
Sensor: Nr:Datum:Temp:Abs-Feuchte:Windchill:Wind:
Aussen-T/F 1851 28-12-2014 19:05:00 -3.3 C 3.27 g/m*3 -3.3 C 4.8 km/h
1852 28-12-2014 19:10:00 -3.4 C 3.25 g/m*3 -3.4 C 3.2 km/h
1853 28-12-2014 19:15:00 -3.5 C 3.26 g/m*3 -3.5 C 4.8 km/h
1854 28-12-2014 19:20:00 -3.6 C 3.27 g/m*3 -3.6 C 1.6 km/h
1855 28-12-2014 19:25:00 -3.7 C 3.25 g/m*3 -3.7 C 1.6 km/h
1856 28-12-2014 19:30:00 -3.8 C 3.23 g/m*3 -3.8 C 1.6 km/h
1857 28-12-2014 19:35:00 -3.9 C 3.24 g/m*3 -3.9 C 4.8 km/h
1858 28-12-2014 19:40:00 -3.9 C 3.24 g/m*3 -3.9 C 1.6 km/h
1859 28-12-2014 19:45:00 -3.9 C 3.24 g/m*3 -3.9 C 3.2 km/h
1860 28-12-2014 19:50:00 -3.9 C 3.28 g/m*3 -3.9 C 4.8 km/h
1861 28-12-2014 19:55:00 -3.9 C 3.28 g/m*3 -6.69 C 6.4 km/h
1862 28-12-2014 20:00:00 -4.1 C 3.23 g/m*3 -4.1 C 3.2 km/h
1863 28-12-2014 20:05:00 -4.2 C 3.21 g/m*3 -4.2 C 3.2 km/h
1864 28-12-2014 20:10:00 -4.2 C 3.21 g/m*3 -4.2 C 4.8 km/h
1865 28-12-2014 20:15:00 -4.2 C 3.25 g/m*3 -4.2 C 4.8 km/h
1866 28-12-2014 20:20:00 -4.3 C 3.22 g/m*3 -4.3 C 4.8 km/h
1867 28-12-2014 20:25:00 -4.2 C 3.25 g/m*3 -4.2 C 1.6 km/h
1868 28-12-2014 20:30:00 -4.2 C 3.25 g/m*3 -4.2 C 4.8 km/h
1869 28-12-2014 20:35:00 -4.3 C 3.22 g/m*3 -4.3 C 4.8 km/h
1870 28-12-2014 20:40:00 -4.3 C 3.22 g/m*3 -4.3 C 4.8 km/h
1871 28-12-2014 20:45:00 -4.3 C 3.26 g/m*3 -4.3 C 4.8 km/h
1872 28-12-2014 20:50:00 -4.3 C 3.26 g/m*3 -7.15 C 6.4 km/h
1873 28-12-2014 20:55:00 -4.3 C 3.26 g/m*3 -4.3 C 4.8 km/h
1874 28-12-2014 21:00:00 -4.3 C 3.26 g/m*3 -4.3 C 3.2 km/h
1875 28-12-2014 21:05:00 -4.3 C 3.26 g/m*3 -4.3 C 4.8 km/h
Sensor: Nr:Datum:Temp:Abs-Feuchte:Windchill:Wind:
Aussen-T/F 1876 28-12-2014 21:10:00 -4.4 C 3.24 g/m*3 -4.4 C 4.8 km/h
1877 28-12-2014 21:15:00 -4.4 C 3.24 g/m*3 -4.4 C 4.8 km/h
1878 28-12-2014 21:20:00 -4.5 C 3.21 g/m*3 -4.5 C 4.8 km/h
1879 28-12-2014 21:25:00 -4.5 C 3.21 g/m*3 -4.5 C 4.8 km/h
1880 28-12-2014 21:30:00 -4.5 C 3.21 g/m*3 -4.5 C 4.8 km/h
1881 28-12-2014 21:35:00 -4.5 C 3.21 g/m*3 -4.5 C 1.6 km/h
1882 28-12-2014 21:40:00 -4.6 C 3.19 g/m*3 -4.6 C 3.2 km/h
1883 28-12-2014 21:45:00 -4.6 C 3.19 g/m*3 -4.6 C 3.2 km/h
1884 28-12-2014 21:50:00 -4.7 C 3.17 g/m*3 -4.7 C 4.8 km/h
1885 28-12-2014 21:55:00 -4.8 C 3.14 g/m*3 -4.8 C 3.2 km/h
1886 28-12-2014 22:00:00 -4.8 C 3.14 g/m*3 -4.8 C 3.2 km/h
1887 28-12-2014 22:05:00 -4.8 C 3.14 g/m*3 -4.8 C 3.2 km/h
1888 28-12-2014 22:10:00 -4.8 C 3.14 g/m*3 -4.8 C 1.6 km/h
1889 28-12-2014 22:15:00 -4.9 C 3.12 g/m*3 -4.9 C 3.2 km/h
1890 28-12-2014 22:20:00 -4.9 C 3.12 g/m*3 -4.9 C 0 km/h
1891 28-12-2014 22:25:00 -5.1 C 3.08 g/m*3 -5.1 C 1.6 km/h
1892 28-12-2014 22:30:00 -5.2 C 3.05 g/m*3 -5.2 C 3.2 km/h
1893 28-12-2014 22:35:00 -5.2 C 3.05 g/m*3 -5.2 C 0 km/h
1894 28-12-2014 22:40:00 -5.3 C 3.03 g/m*3 -5.3 C 0 km/h
1895 28-12-2014 22:45:00 -5.3 C 3.03 g/m*3 -5.3 C 0 km/h
1896 28-12-2014 22:50:00 -5.3 C 3.07 g/m*3 -5.3 C 1.6 km/h
1897 28-12-2014 22:55:00 -5.2 C 3.09 g/m*3 -5.2 C 1.6 km/h
1898 28-12-2014 23:00:00 -5.1 C 3.11 g/m*3 -5.1 C 1.6 km/h
1899 28-12-2014 23:05:00 -4.8 C 3.21 g/m*3 -4.8 C 1.6 km/h
1900 28-12-2014 23:10:00 -4.7 C 3.24 g/m*3 -4.7 C 3.2 km/h
Sensor: Nr:Datum:Temp:Abs-Feuchte:Windchill:Wind:
Aussen-T/F 1901 28-12-2014 23:15:00 -4.6 C 3.22 g/m*3 -4.6 C 1.6 km/h
1902 28-12-2014 23:20:00 -4.6 C 3.22 g/m*3 -4.6 C 1.6 km/h
1903 28-12-2014 23:25:00 -4.5 C 3.25 g/m*3 -4.5 C 1.6 km/h
1904 28-12-2014 23:30:00 -4.4 C 3.27 g/m*3 -4.4 C 1.6 km/h
1905 28-12-2014 23:35:00 -4.4 C 3.27 g/m*3 -4.4 C 3.2 km/h
1906 28-12-2014 23:40:00 -4.4 C 3.27 g/m*3 -4.4 C 1.6 km/h
1907 28-12-2014 23:45:00 -4.3 C 3.29 g/m*3 -4.3 C 4.8 km/h
1908 28-12-2014 23:50:00 -4.3 C 3.26 g/m*3 -4.3 C 0 km/h
1909 28-12-2014 23:55:00 -4.3 C 3.26 g/m*3 -4.3 C 3.2 km/h
1910 29-12-2014 00:00:00 -4.2 C 3.28 g/m*3 -4.2 C 3.2 km/h
1911 29-12-2014 00:05:00 -4.2 C 3.28 g/m*3 -7.03 C 6.4 km/h
1912 29-12-2014 00:10:00 -4.1 C 3.31 g/m*3 -6.92 C 6.4 km/h
1913 29-12-2014 00:15:00 -4.1 C 3.27 g/m*3 -4.1 C 4.8 km/h
1914 29-12-2014 00:20:00 -4 C 3.33 g/m*3 -4 C 3.2 km/h
1915 29-12-2014 00:25:00 -3.9 C 3.32 g/m*3 -3.9 C 1.6 km/h
1916 29-12-2014 00:30:00 -3.9 C 3.32 g/m*3 -3.9 C 4.8 km/h
1917 29-12-2014 00:35:00 -3.8 C 3.34 g/m*3 -3.8 C 1.6 km/h
1918 29-12-2014 00:40:00 -3.8 C 3.34 g/m*3 -3.8 C 3.2 km/h
1919 29-12-2014 00:45:00 -3.7 C 3.36 g/m*3 -3.7 C 1.6 km/h
1920 29-12-2014 00:50:00 -3.6 C 3.35 g/m*3 -3.6 C 1.6 km/h
1921 29-12-2014 00:55:00 -3.6 C 3.35 g/m*3 -6.34 C 6.4 km/h
1922 29-12-2014 01:00:00 -3.6 C 3.35 g/m*3 -3.6 C 4.8 km/h
1923 29-12-2014 01:05:00 -3.5 C 3.37 g/m*3 -6.88 C 8.1 km/h
1924 29-12-2014 01:10:00 -3.6 C 3.35 g/m*3 -3.6 C 4.8 km/h
1925 29-12-2014 01:15:00 -3.6 C 3.35 g/m*3 -7.53 C 9.7 km/h
Sensor: Nr:Datum:Temp:Abs-Feuchte:Windchill:Wind:
Aussen-T/F 1926 29-12-2014 01:20:00 -3.5 C 3.34 g/m*3 -7.41 C 9.7 km/h
1927 29-12-2014 01:25:00 -3.4 C 3.36 g/m*3 -7.29 C 9.7 km/h
1928 29-12-2014 01:30:00 -3.4 C 3.36 g/m*3 -3.4 C 3.2 km/h
1929 29-12-2014 01:35:00 -3.5 C 3.34 g/m*3 -3.5 C 1.6 km/h
1930 29-12-2014 01:40:00 -3.6 C 3.31 g/m*3 -3.6 C 0 km/h
1931 29-12-2014 01:45:00 -3.7 C 3.29 g/m*3 -3.7 C 0 km/h
1932 29-12-2014 01:50:00 -3.9 C 3.28 g/m*3 -7.35 C 8.1 km/h
1933 29-12-2014 01:55:00 -4 C 3.26 g/m*3 -7.47 C 8.1 km/h
1934 29-12-2014 02:00:00 -4.1 C 3.23 g/m*3 -8.12 C 9.7 km/h
1935 29-12-2014 02:05:00 -4.1 C 3.23 g/m*3 -4.1 C 4.8 km/h
1936 29-12-2014 02:10:00 -4.1 C 3.23 g/m*3 -4.1 C 4.8 km/h
1937 29-12-2014 02:15:00 -4.1 C 3.23 g/m*3 -4.1 C 4.8 km/h
1938 29-12-2014 02:20:00 -4.2 C 3.21 g/m*3 -7.03 C 6.4 km/h
1939 29-12-2014 02:25:00 -4.3 C 3.19 g/m*3 -4.3 C 4.8 km/h
1940 29-12-2014 02:30:00 -4.3 C 3.19 g/m*3 -4.3 C 0 km/h
1941 29-12-2014 02:35:00 -4.4 C 3.2 g/m*3 -4.4 C 4.8 km/h
1942 29-12-2014 02:40:00 -4.4 C 3.24 g/m*3 -4.4 C 3.2 km/h
1943 29-12-2014 02:45:00 -4.2 C 3.28 g/m*3 -7.71 C 8.1 km/h
1944 29-12-2014 02:50:00 -4.1 C 3.27 g/m*3 -4.1 C 4.8 km/h
1945 29-12-2014 02:55:00 -3.9 C 3.32 g/m*3 -6.69 C 6.4 km/h
1946 29-12-2014 03:00:00 -3.8 C 3.34 g/m*3 -7.24 C 8.1 km/h
1947 29-12-2014 03:05:00 -3.7 C 3.33 g/m*3 -7.12 C 8.1 km/h
1948 29-12-2014 03:10:00 -3.6 C 3.35 g/m*3 -7.98 C 11.3 km/h
1949 29-12-2014 03:15:00 -3.6 C 3.35 g/m*3 -7.53 C 9.7 km/h
1950 29-12-2014 03:20:00 -3.4 C 3.36 g/m*3 -8.14 C 12.9 km/h
Sensor: Nr:Datum:Temp:Abs-Feuchte:Windchill:Wind:
Aussen-T/F 1951 29-12-2014 03:25:00 -3.3 C 3.38 g/m*3 -8.02 C 12.9 km/h
1952 29-12-2014 03:30:00 -3.2 C 3.41 g/m*3 -7.9 C 12.9 km/h
1953 29-12-2014 03:35:00 -3.2 C 3.41 g/m*3 -7.9 C 12.9 km/h
1954 29-12-2014 03:40:00 -3.2 C 3.37 g/m*3 -8.26 C 14.5 km/h
1955 29-12-2014 03:45:00 -3.2 C 3.37 g/m*3 -8.26 C 14.5 km/h
1956 29-12-2014 03:50:00 -3.2 C 3.37 g/m*3 -7.5 C 11.3 km/h
1957 29-12-2014 03:55:00 -3.1 C 3.39 g/m*3 -8.46 C 16.1 km/h
1958 29-12-2014 04:00:00 -3.1 C 3.39 g/m*3 -6.41 C 8.1 km/h
1959 29-12-2014 04:05:00 -3.1 C 3.35 g/m*3 -8.13 C 14.5 km/h
1960 29-12-2014 04:10:00 -2.9 C 3.4 g/m*3 -7.14 C 11.3 km/h
1961 29-12-2014 04:15:00 -2.8 C 3.43 g/m*3 -7.41 C 12.9 km/h
1962 29-12-2014 04:20:00 -2.8 C 3.43 g/m*3 -7.76 C 14.5 km/h
1963 29-12-2014 04:25:00 -2.7 C 3.45 g/m*3 -7.29 C 12.9 km/h
1964 29-12-2014 04:30:00 -2.7 C 3.41 g/m*3 -7.29 C 12.9 km/h
1965 29-12-2014 04:35:00 -2.7 C 3.45 g/m*3 -7.96 C 16.1 km/h
1966 29-12-2014 04:40:00 -2.7 C 3.53 g/m*3 -7.64 C 14.5 km/h
1967 29-12-2014 04:45:00 -2.8 C 3.55 g/m*3 -7.41 C 12.9 km/h
1968 29-12-2014 04:50:00 -2.9 C 3.6 g/m*3 -8.21 C 16.1 km/h
1969 29-12-2014 04:55:00 -3 C 3.61 g/m*3 -7.65 C 12.9 km/h
1970 29-12-2014 05:00:00 -3.1 C 3.63 g/m*3 -7.38 C 11.3 km/h
1971 29-12-2014 05:05:00 -3.1 C 3.63 g/m*3 -8.13 C 14.5 km/h
1972 29-12-2014 05:10:00 -3.1 C 3.63 g/m*3 -8.13 C 14.5 km/h
1973 29-12-2014 05:15:00 -3.1 C 3.63 g/m*3 -7.78 C 12.9 km/h
1974 29-12-2014 05:20:00 -3.1 C 3.63 g/m*3 -6.41 C 8.1 km/h
1975 29-12-2014 05:25:00 -3 C 3.65 g/m*3 -6.81 C 9.7 km/h
Sensor: Nr:Datum:Temp:Abs-Feuchte:Windchill:Wind:
Aussen-T/F 1976 29-12-2014 05:30:00 -2.8 C 3.71 g/m*3 -7.76 C 14.5 km/h
1977 29-12-2014 05:35:00 -2.8 C 3.71 g/m*3 -7.02 C 11.3 km/h
1978 29-12-2014 05:40:00 -2.8 C 3.71 g/m*3 -7.41 C 12.9 km/h
1979 29-12-2014 05:45:00 -2.8 C 3.71 g/m*3 -7.41 C 12.9 km/h
1980 29-12-2014 05:50:00 -2.9 C 3.72 g/m*3 -6.69 C 9.7 km/h
1981 29-12-2014 05:55:00 -2.8 C 3.75 g/m*3 -7.76 C 14.5 km/h
1982 29-12-2014 06:00:00 -2.8 C 3.75 g/m*3 -6.06 C 8.1 km/h
1983 29-12-2014 06:05:00 -2.8 C 3.75 g/m*3 -7.02 C 11.3 km/h
1984 29-12-2014 06:10:00 -2.8 C 3.75 g/m*3 -7.02 C 11.3 km/h
1985 29-12-2014 06:15:00 -2.7 C 3.77 g/m*3 -6.9 C 11.3 km/h
1986 29-12-2014 06:20:00 -2.8 C 3.75 g/m*3 -6.57 C 9.7 km/h
1987 29-12-2014 06:25:00 -2.8 C 3.75 g/m*3 -6.57 C 9.7 km/h
1988 29-12-2014 06:30:00 -2.7 C 3.77 g/m*3 -6.9 C 11.3 km/h
1989 29-12-2014 06:35:00 -2.6 C 3.8 g/m*3 -5.83 C 8.1 km/h
1990 29-12-2014 06:40:00 -2.5 C 3.83 g/m*3 -5.71 C 8.1 km/h
1991 29-12-2014 06:45:00 -2.4 C 3.85 g/m*3 -6.1 C 9.7 km/h
1992 29-12-2014 06:50:00 -2.3 C 3.88 g/m*3 -7.15 C 14.5 km/h
1993 29-12-2014 06:55:00 -2.3 C 3.88 g/m*3 -5.47 C 8.1 km/h
1994 29-12-2014 07:00:00 -2.2 C 3.91 g/m*3 -4.72 C 6.4 km/h
1995 29-12-2014 07:05:00 -2.2 C 3.91 g/m*3 -5.86 C 9.7 km/h
1996 29-12-2014 07:10:00 -2.1 C 3.93 g/m*3 -2.1 C 4.8 km/h
1997 29-12-2014 07:15:00 -2 C 3.96 g/m*3 -5.12 C 8.1 km/h
1998 29-12-2014 07:20:00 -1.9 C 4.03 g/m*3 -5.5 C 9.7 km/h
1999 29-12-2014 07:25:00 -1.9 C 4.03 g/m*3 -4.38 C 6.4 km/h
2000 29-12-2014 07:30:00 -1.8 C 4.06 g/m*3 -1.8 C 4.8 km/h
Sensor: Nr:Datum:Temp:Abs-Feuchte:Windchill:Wind:
Aussen-T/F 2001 29-12-2014 07:35:00 -1.8 C 4.06 g/m*3 -1.8 C 3.2 km/h
2002 29-12-2014 07:40:00 -1.8 C 4.06 g/m*3 -1.8 C 0 km/h
2003 29-12-2014 07:45:00 -1.8 C 4.06 g/m*3 -1.8 C 0 km/h
2004 29-12-2014 07:50:00 -1.8 C 4.06 g/m*3 -1.8 C 0 km/h
2005 29-12-2014 07:55:00 -1.8 C 4.06 g/m*3 -1.8 C 0 km/h
2006 29-12-2014 08:00:00 -1.7 C 4.09 g/m*3 -1.7 C 3.2 km/h
2007 29-12-2014 08:05:00 -1.7 C 4.09 g/m*3 -1.7 C 4.8 km/h
2008 29-12-2014 08:10:00 -1.6 C 4.16 g/m*3 -1.6 C 3.2 km/h
2009 29-12-2014 08:15:00 -1.6 C 4.16 g/m*3 -1.6 C 1.6 km/h
2010 29-12-2014 08:20:00 -1.6 C 4.16 g/m*3 -1.6 C 1.6 km/h
2011 29-12-2014 08:25:00 -1.5 C 4.19 g/m*3 -1.5 C 3.2 km/h
2012 29-12-2014 08:30:00 -1.5 C 4.19 g/m*3 -1.5 C 3.2 km/h
2013 29-12-2014 08:35:00 -1.4 C 4.18 g/m*3 -1.4 C 1.6 km/h
2014 29-12-2014 08:40:00 -1.4 C 4.18 g/m*3 -1.4 C 1.6 km/h
2015 29-12-2014 08:45:00 -1.4 C 4.22 g/m*3 -1.4 C 1.6 km/h
2016 29-12-2014 08:50:00 -1.3 C 4.25 g/m*3 -1.3 C 1.6 km/h
2017 29-12-2014 08:55:00 -1.3 C 4.25 g/m*3 -1.3 C 0 km/h
2018 29-12-2014 09:00:00 -1.3 C 4.25 g/m*3 -1.3 C 0 km/h
2019 29-12-2014 09:05:00 -1.3 C 4.25 g/m*3 -1.3 C 3.2 km/h
2020 29-12-2014 09:10:00 -1.3 C 4.21 g/m*3 -1.3 C 3.2 km/h
2021 29-12-2014 09:15:00 -1.4 C 4.18 g/m*3 -3.8 C 6.4 km/h
2022 29-12-2014 09:20:00 -1.4 C 4.18 g/m*3 -1.4 C 3.2 km/h
2023 29-12-2014 09:25:00 -1.3 C 4.21 g/m*3 -1.3 C 1.6 km/h
2024 29-12-2014 09:30:00 -1.3 C 4.21 g/m*3 -1.3 C 4.8 km/h
2025 29-12-2014 09:35:00 -1.3 C 4.25 g/m*3 -1.3 C 4.8 km/h
Sensor: Nr:Datum:Temp:Abs-Feuchte:Windchill:Wind:
Aussen-T/F 2026 29-12-2014 09:40:00 -1.3 C 4.25 g/m*3 -1.3 C 1.6 km/h
2027 29-12-2014 09:45:00 -1.3 C 4.25 g/m*3 -1.3 C 3.2 km/h
2028 29-12-2014 09:50:00 -1.2 C 4.28 g/m*3 -1.2 C 1.6 km/h
2029 29-12-2014 09:55:00 -1.2 C 4.28 g/m*3 -1.2 C 0 km/h
2030 29-12-2014 10:00:00 -1.1 C 4.31 g/m*3 -1.1 C 3.2 km/h
2031 29-12-2014 10:05:00 -0.9 C 4.37 g/m*3 -0.9 C 3.2 km/h
2032 29-12-2014 10:10:00 -0.9 C 4.37 g/m*3 -0.9 C 1.6 km/h
2033 29-12-2014 10:15:00 -0.8 C 4.4 g/m*3 -0.8 C 3.2 km/h
2034 29-12-2014 10:20:00 -0.8 C 4.4 g/m*3 -0.8 C 4.8 km/h
2035 29-12-2014 10:25:00 -0.7 C 4.43 g/m*3 -0.7 C 0 km/h
2036 29-12-2014 10:30:00 -0.6 C 4.46 g/m*3 -2.88 C 6.4 km/h
2037 29-12-2014 10:35:00 -0.5 C 4.49 g/m*3 -2.76 C 6.4 km/h
2038 29-12-2014 10:40:00 -0.5 C 4.45 g/m*3 -0.5 C 3.2 km/h
2039 29-12-2014 10:45:00 -0.4 C 4.48 g/m*3 -0.4 C 4.8 km/h
2040 29-12-2014 10:50:00 -0.4 C 4.48 g/m*3 -0.4 C 4.8 km/h
2041 29-12-2014 10:55:00 -0.3 C 4.51 g/m*3 -0.3 C 3.2 km/h
2042 29-12-2014 11:00:00 -0.3 C 4.51 g/m*3 -0.3 C 4.8 km/h
2043 29-12-2014 11:05:00 -0.3 C 4.51 g/m*3 -2.53 C 6.4 km/h
2044 29-12-2014 11:10:00 -0.3 C 4.51 g/m*3 -0.3 C 3.2 km/h
2045 29-12-2014 11:15:00 -0.2 C 4.54 g/m*3 -0.2 C 3.2 km/h
2046 29-12-2014 11:20:00 -0.1 C 4.62 g/m*3 -0.1 C 3.2 km/h
2047 29-12-2014 11:25:00 0.1 C 4.68 g/m*3 0.1 C 4.8 km/h
2048 29-12-2014 11:30:00 0.4 C 4.78 g/m*3 -1.72 C 6.4 km/h
2049 29-12-2014 11:35:00 0.6 C 4.85 g/m*3 0.6 C 3.2 km/h
2050 29-12-2014 11:40:00 0.7 C 4.88 g/m*3 0.7 C 3.2 km/h
Sensor: Nr:Datum:Temp:Abs-Feuchte:Windchill:Wind:
Aussen-T/F 2051 29-12-2014 11:45:00 0.8 C 4.91 g/m*3 0.8 C 3.2 km/h
2052 29-12-2014 11:50:00 0.9 C 4.95 g/m*3 -1.14 C 6.4 km/h
2053 29-12-2014 11:55:00 1.2 C 5.05 g/m*3 1.2 C 4.8 km/h
2054 29-12-2014 12:00:00 1.2 C 5.05 g/m*3 -1.8 C 9.7 km/h
2055 29-12-2014 12:05:00 1.7 C 5.23 g/m*3 -0.22 C 6.4 km/h
2056 29-12-2014 12:10:00 1.8 C 5.26 g/m*3 -0.1 C 6.4 km/h
2057 29-12-2014 12:15:00 1.9 C 5.3 g/m*3 -0.54 C 8.1 km/h
2058 29-12-2014 12:20:00 1.9 C 5.3 g/m*3 1.9 C 3.2 km/h
2059 29-12-2014 13:15:00 2.7 C 5.42 g/m*3 0.4 C 8.1 km/h
2060 29-12-2014 13:20:00 2.7 C 5.42 g/m*3 0.4 C 8.1 km/h
2061 29-12-2014 13:25:00 2.7 C 5.42 g/m*3 -0.38 C 11.3 km/h
2062 29-12-2014 13:30:00 2.7 C 5.42 g/m*3 -0.02 C 9.7 km/h
2063 29-12-2014 13:35:00 2.8 C 5.46 g/m*3 0.52 C 8.1 km/h
2064 29-12-2014 13:40:00 2.8 C 5.46 g/m*3 0.52 C 8.1 km/h
2065 29-12-2014 13:45:00 2.8 C 5.46 g/m*3 0.52 C 8.1 km/h
2066 29-12-2014 13:50:00 2.8 C 5.46 g/m*3 0.1 C 9.7 km/h
2067 29-12-2014 13:55:00 2.8 C 5.46 g/m*3 -0.59 C 12.9 km/h
2068 29-12-2014 14:00:00 2.8 C 5.46 g/m*3 1.05 C 6.4 km/h
2069 29-12-2014 14:40:00 2.9 C 5.43 g/m*3 2.9 C 3.2 km/h
2070 29-12-2014 14:45:00 3 C 5.47 g/m*3 3 C 3.2 km/h
2071 29-12-2014 14:50:00 3 C 5.41 g/m*3 3 C 4.8 km/h
2072 29-12-2014 14:55:00 2.9 C 5.37 g/m*3 0.22 C 9.7 km/h
2073 29-12-2014 15:00:00 2.9 C 5.37 g/m*3 2.9 C 4.8 km/h
2074 29-12-2014 15:05:00 2.9 C 5.37 g/m*3 2.9 C 3.2 km/h
2075 29-12-2014 15:25:00 2.9 C 5.26 g/m*3 0.22 C 9.7 km/h
Sensor: Nr:Datum:Temp:Abs-Feuchte:Windchill:Wind:
Aussen-T/F 2076 29-12-2014 15:30:00 2.9 C 5.26 g/m*3 0.22 C 9.7 km/h
2077 29-12-2014 15:35:00 2.9 C 5.26 g/m*3 2.9 C 4.8 km/h
2078 29-12-2014 15:40:00 2.8 C 5.22 g/m*3 -0.59 C 12.9 km/h
2079 29-12-2014 15:45:00 2.8 C 5.22 g/m*3 -0.26 C 11.3 km/h
2080 29-12-2014 15:50:00 2.8 C 5.22 g/m*3 -0.59 C 12.9 km/h
2081 29-12-2014 15:55:00 2.8 C 5.22 g/m*3 -0.59 C 12.9 km/h
2082 29-12-2014 16:00:00 2.8 C 5.22 g/m*3 -0.26 C 11.3 km/h
2083 29-12-2014 16:05:00 2.7 C 5.13 g/m*3 -0.71 C 12.9 km/h
2084 29-12-2014 16:10:00 2.7 C 5.07 g/m*3 -1.27 C 16.1 km/h
2085 29-12-2014 16:15:00 2.7 C 5.01 g/m*3 -1 C 14.5 km/h
2086 29-12-2014 16:20:00 2.7 C 4.95 g/m*3 -1.74 C 19.3 km/h
2087 29-12-2014 16:25:00 2.7 C 4.95 g/m*3 -0.38 C 11.3 km/h
2088 29-12-2014 16:30:00 2.6 C 4.92 g/m*3 -1.39 C 16.1 km/h
2089 29-12-2014 16:35:00 2.6 C 4.86 g/m*3 -0.5 C 11.3 km/h
2090 29-12-2014 16:40:00 2.5 C 4.83 g/m*3 -0.26 C 9.7 km/h
2091 29-12-2014 16:45:00 2.5 C 4.83 g/m*3 -0.26 C 9.7 km/h
2092 29-12-2014 16:50:00 2.4 C 4.8 g/m*3 0.05 C 8.1 km/h
2093 29-12-2014 16:55:00 2.4 C 4.8 g/m*3 0.05 C 8.1 km/h
2094 29-12-2014 17:00:00 2.4 C 4.85 g/m*3 2.4 C 4.8 km/h
2095 29-12-2014 17:05:00 2.3 C 4.88 g/m*3 2.3 C 3.2 km/h
2096 29-12-2014 17:10:00 2.3 C 4.88 g/m*3 2.3 C 3.2 km/h
2097 29-12-2014 17:15:00 2.3 C 4.88 g/m*3 2.3 C 3.2 km/h
2098 29-12-2014 17:20:00 2.3 C 4.88 g/m*3 -0.07 C 8.1 km/h
2099 29-12-2014 17:25:00 2.3 C 4.88 g/m*3 2.3 C 4.8 km/h
2100 29-12-2014 17:30:00 2.2 C 4.84 g/m*3 -0.18 C 8.1 km/h
Sensor: Nr:Datum:Temp:Abs-Feuchte:Windchill:Wind:
Aussen-T/F 2101 29-12-2014 17:35:00 2.2 C 4.84 g/m*3 0.36 C 6.4 km/h
2102 29-12-2014 17:40:00 2.1 C 4.81 g/m*3 -0.3 C 8.1 km/h
2103 29-12-2014 17:45:00 2.1 C 4.81 g/m*3 -0.73 C 9.7 km/h
2104 29-12-2014 17:50:00 2.1 C 4.81 g/m*3 2.1 C 4.8 km/h
2105 29-12-2014 17:55:00 2 C 4.78 g/m*3 0.13 C 6.4 km/h
2106 29-12-2014 18:00:00 1.9 C 4.75 g/m*3 -1.35 C 11.3 km/h
2107 29-12-2014 18:05:00 1.9 C 4.75 g/m*3 -0.54 C 8.1 km/h
2108 29-12-2014 18:10:00 1.9 C 4.69 g/m*3 0.01 C 6.4 km/h
2109 29-12-2014 18:15:00 1.9 C 4.69 g/m*3 -0.54 C 8.1 km/h
2110 29-12-2014 18:20:00 1.9 C 4.69 g/m*3 0.01 C 6.4 km/h
2111 29-12-2014 18:25:00 1.9 C 4.69 g/m*3 1.9 C 4.8 km/h
2112 29-12-2014 18:30:00 1.9 C 4.69 g/m*3 1.9 C 1.6 km/h
2113 29-12-2014 18:35:00 1.8 C 4.66 g/m*3 -1.47 C 11.3 km/h
2114 29-12-2014 18:40:00 1.8 C 4.6 g/m*3 -0.1 C 6.4 km/h
2115 29-12-2014 18:45:00 1.8 C 4.55 g/m*3 -1.09 C 9.7 km/h
2116 29-12-2014 18:50:00 1.9 C 4.58 g/m*3 -1.35 C 11.3 km/h
2117 29-12-2014 18:55:00 1.9 C 4.58 g/m*3 -0.54 C 8.1 km/h
2118 29-12-2014 19:00:00 1.9 C 4.58 g/m*3 0.01 C 6.4 km/h
2119 29-12-2014 19:05:00 1.8 C 4.6 g/m*3 -1.09 C 9.7 km/h
2120 29-12-2014 19:10:00 1.8 C 4.55 g/m*3 -0.1 C 6.4 km/h
2121 29-12-2014 19:15:00 1.8 C 4.55 g/m*3 -0.1 C 6.4 km/h
2122 29-12-2014 19:20:00 1.8 C 4.55 g/m*3 1.8 C 3.2 km/h
2123 29-12-2014 19:25:00 1.8 C 4.55 g/m*3 1.8 C 4.8 km/h
2124 29-12-2014 19:30:00 1.8 C 4.55 g/m*3 -1.09 C 9.7 km/h
2125 29-12-2014 19:35:00 1.7 C 4.52 g/m*3 -0.77 C 8.1 km/h
Sensor: Nr:Datum:Temp:Abs-Feuchte:Windchill:Wind:
Aussen-T/F 2126 29-12-2014 19:40:00 1.7 C 4.52 g/m*3 1.7 C 3.2 km/h
2127 29-12-2014 19:45:00 1.7 C 4.46 g/m*3 1.7 C 4.8 km/h
2128 29-12-2014 19:50:00 1.7 C 4.52 g/m*3 -0.22 C 6.4 km/h
2129 29-12-2014 19:55:00 1.7 C 4.52 g/m*3 1.7 C 3.2 km/h
2130 29-12-2014 20:00:00 1.6 C 4.49 g/m*3 1.6 C 3.2 km/h
2131 29-12-2014 20:05:00 1.6 C 4.49 g/m*3 -1.33 C 9.7 km/h
2132 29-12-2014 20:10:00 1.6 C 4.49 g/m*3 -0.33 C 6.4 km/h
2133 29-12-2014 20:15:00 1.6 C 4.49 g/m*3 -0.33 C 6.4 km/h
2134 29-12-2014 20:20:00 1.5 C 4.4 g/m*3 -0.45 C 6.4 km/h
2135 29-12-2014 20:25:00 1.5 C 4.4 g/m*3 -1.45 C 9.7 km/h
2136 29-12-2014 20:30:00 1.5 C 4.46 g/m*3 1.5 C 1.6 km/h
2137 29-12-2014 20:35:00 1.5 C 4.46 g/m*3 1.5 C 3.2 km/h
2138 29-12-2014 20:40:00 1.4 C 4.43 g/m*3 1.4 C 4.8 km/h
2139 29-12-2014 20:45:00 1.4 C 4.43 g/m*3 1.4 C 4.8 km/h
2140 29-12-2014 20:50:00 1.5 C 4.4 g/m*3 1.5 C 3.2 km/h
2141 29-12-2014 20:55:00 1.5 C 4.46 g/m*3 1.5 C 3.2 km/h
2142 29-12-2014 21:00:00 1.5 C 4.4 g/m*3 -1.01 C 8.1 km/h
2143 29-12-2014 21:05:00 1.5 C 4.4 g/m*3 1.5 C 4.8 km/h
2144 29-12-2014 21:10:00 1.5 C 4.4 g/m*3 -0.45 C 6.4 km/h
2145 29-12-2014 21:15:00 1.5 C 4.4 g/m*3 -0.45 C 6.4 km/h
2146 29-12-2014 21:20:00 1.4 C 4.43 g/m*3 1.4 C 4.8 km/h
2147 29-12-2014 21:25:00 1.4 C 4.43 g/m*3 -0.56 C 6.4 km/h
2148 29-12-2014 21:30:00 1.4 C 4.43 g/m*3 1.4 C 4.8 km/h
2149 29-12-2014 21:35:00 1.4 C 4.43 g/m*3 1.4 C 3.2 km/h
2150 29-12-2014 21:40:00 1.4 C 4.43 g/m*3 1.4 C 3.2 km/h
Sensor: Nr:Datum:Temp:Abs-Feuchte:Windchill:Wind:
Aussen-T/F 2151 29-12-2014 21:45:00 1.3 C 4.34 g/m*3 -0.68 C 6.4 km/h
2152 29-12-2014 21:50:00 1.3 C 4.34 g/m*3 1.3 C 3.2 km/h
2153 29-12-2014 21:55:00 1.3 C 4.4 g/m*3 1.3 C 3.2 km/h
2154 29-12-2014 22:00:00 1.3 C 4.4 g/m*3 1.3 C 1.6 km/h
2155 29-12-2014 22:05:00 1.3 C 4.4 g/m*3 1.3 C 1.6 km/h
2156 29-12-2014 22:10:00 1.2 C 4.42 g/m*3 1.2 C 1.6 km/h
2157 29-12-2014 22:15:00 1.1 C 4.34 g/m*3 1.1 C 3.2 km/h
2158 29-12-2014 22:20:00 0.9 C 4.43 g/m*3 0.9 C 1.6 km/h
2159 29-12-2014 22:25:00 0.7 C 4.37 g/m*3 0.7 C 1.6 km/h
2160 29-12-2014 22:30:00 0.6 C 4.34 g/m*3 0.6 C 0 km/h
2161 29-12-2014 22:35:00 0.4 C 4.38 g/m*3 0.4 C 1.6 km/h
2162 29-12-2014 22:40:00 0.3 C 4.4 g/m*3 0.3 C 4.8 km/h
2163 29-12-2014 22:45:00 0.3 C 4.45 g/m*3 0.3 C 4.8 km/h
2164 29-12-2014 22:50:00 0.2 C 4.42 g/m*3 0.2 C 3.2 km/h
2165 29-12-2014 22:55:00 0.2 C 4.47 g/m*3 0.2 C 4.8 km/h
2166 29-12-2014 23:00:00 0.1 C 4.44 g/m*3 0.1 C 1.6 km/h
2167 29-12-2014 23:05:00 0.1 C 4.39 g/m*3 0.1 C 1.6 km/h
2168 29-12-2014 23:10:00 0 C 4.36 g/m*3 0 C 0 km/h
2169 29-12-2014 23:15:00 -0.1 C 4.38 g/m*3 -0.1 C 1.6 km/h
2170 29-12-2014 23:20:00 -0.1 C 4.33 g/m*3 -0.1 C 0 km/h
2171 29-12-2014 23:25:00 -0.1 C 4.33 g/m*3 -0.1 C 0 km/h
2172 29-12-2014 23:30:00 0 C 4.41 g/m*3 0 C 0 km/h
2173 29-12-2014 23:35:00 0.1 C 4.39 g/m*3 0.1 C 0 km/h
2174 29-12-2014 23:40:00 0.1 C 4.39 g/m*3 0.1 C 0 km/h
2175 29-12-2014 23:45:00 0.1 C 4.39 g/m*3 0.1 C 0 km/h
Sensor: Nr:Datum:Temp:Abs-Feuchte:Windchill:Wind:
Aussen-T/F 2176 29-12-2014 23:50:00 0.2 C 4.42 g/m*3 0.2 C 0 km/h
2177 29-12-2014 23:55:00 0.2 C 4.42 g/m*3 0.2 C 0 km/h
2178 30-12-2014 00:00:00 0.3 C 4.45 g/m*3 0.3 C 0 km/h
2179 30-12-2014 00:05:00 0.3 C 4.45 g/m*3 0.3 C 0 km/h
2180 30-12-2014 00:10:00 0.3 C 4.45 g/m*3 0.3 C 0 km/h
2181 30-12-2014 00:15:00 0.3 C 4.45 g/m*3 0.3 C 0 km/h
2182 30-12-2014 00:55:00 0.4 C 4.48 g/m*3 0.4 C 1.6 km/h
2183 30-12-2014 01:00:00 0.3 C 4.45 g/m*3 0.3 C 3.2 km/h
2184 30-12-2014 01:05:00 0.3 C 4.5 g/m*3 0.3 C 1.6 km/h
2185 30-12-2014 01:10:00 0.3 C 4.5 g/m*3 0.3 C 0 km/h
2186 30-12-2014 09:25:00 1.2 C 5.05 g/m*3 1.2 C 3.2 km/h
2187 30-12-2014 09:30:00 1.2 C 5.05 g/m*3 1.2 C 1.6 km/h
2188 30-12-2014 09:35:00 1.3 C 5.09 g/m*3 1.3 C 1.6 km/h
2189 30-12-2014 09:40:00 1.3 C 5.09 g/m*3 1.3 C 1.6 km/h
2190 30-12-2014 09:45:00 1.4 C 5.12 g/m*3 1.4 C 0 km/h
2191 30-12-2014 09:50:00 1.4 C 5.12 g/m*3 1.4 C 1.6 km/h
2192 30-12-2014 09:55:00 1.5 C 5.16 g/m*3 1.5 C 1.6 km/h
2193 30-12-2014 10:00:00 1.6 C 5.19 g/m*3 1.6 C 0 km/h
2194 30-12-2014 10:05:00 1.7 C 5.23 g/m*3 1.7 C 1.6 km/h
2195 30-12-2014 10:10:00 1.7 C 5.23 g/m*3 1.7 C 1.6 km/h
2196 30-12-2014 10:15:00 1.8 C 5.26 g/m*3 1.8 C 1.6 km/h
2197 30-12-2014 10:20:00 1.8 C 5.26 g/m*3 1.8 C 3.2 km/h
2198 30-12-2014 10:25:00 1.8 C 5.26 g/m*3 1.8 C 1.6 km/h
2199 30-12-2014 10:30:00 1.9 C 5.3 g/m*3 1.9 C 1.6 km/h
2200 30-12-2014 10:35:00 2 C 5.33 g/m*3 2 C 3.2 km/h
Sensor: Nr:Datum:Temp:Abs-Feuchte:Windchill:Wind:
Aussen-T/F 2201 30-12-2014 10:40:00 2.2 C 5.41 g/m*3 2.2 C 3.2 km/h
2202 30-12-2014 10:45:00 2.2 C 5.41 g/m*3 2.2 C 3.2 km/h
2203 30-12-2014 10:50:00 2.3 C 5.44 g/m*3 2.3 C 3.2 km/h
2204 30-12-2014 10:55:00 2.3 C 5.44 g/m*3 2.3 C 3.2 km/h
2205 30-12-2014 11:00:00 2.4 C 5.48 g/m*3 2.4 C 3.2 km/h
2206 30-12-2014 11:05:00 2.5 C 5.52 g/m*3 2.5 C 0 km/h
2207 30-12-2014 11:10:00 2.6 C 5.56 g/m*3 2.6 C 4.8 km/h
2208 30-12-2014 11:15:00 2.8 C 5.57 g/m*3 2.8 C 3.2 km/h
2209 30-12-2014 11:20:00 2.9 C 5.61 g/m*3 2.9 C 1.6 km/h
2210 30-12-2014 11:25:00 3 C 5.59 g/m*3 1.28 C 6.4 km/h
2211 30-12-2014 11:30:00 2.9 C 5.55 g/m*3 2.9 C 0 km/h
2212 30-12-2014 11:35:00 2.9 C 5.55 g/m*3 2.9 C 4.8 km/h
2213 30-12-2014 11:40:00 3 C 5.59 g/m*3 3 C 3.2 km/h
2214 30-12-2014 11:45:00 3.1 C 5.63 g/m*3 3.1 C 0 km/h
2215 30-12-2014 11:50:00 3.2 C 5.6 g/m*3 3.2 C 1.6 km/h
2216 30-12-2014 11:55:00 3.2 C 5.6 g/m*3 3.2 C 3.2 km/h
2217 30-12-2014 12:00:00 3.3 C 5.64 g/m*3 3.3 C 3.2 km/h
2218 30-12-2014 12:05:00 3.4 C 5.62 g/m*3 3.4 C 1.6 km/h
2219 30-12-2014 12:10:00 3.4 C 5.62 g/m*3 3.4 C 3.2 km/h
2220 30-12-2014 12:15:00 3.6 C 5.69 g/m*3 3.6 C 1.6 km/h
2221 30-12-2014 12:20:00 3.6 C 5.63 g/m*3 3.6 C 3.2 km/h
2222 30-12-2014 12:25:00 3.7 C 5.67 g/m*3 3.7 C 3.2 km/h
2223 30-12-2014 12:30:00 3.7 C 5.67 g/m*3 3.7 C 1.6 km/h
2224 30-12-2014 12:35:00 3.7 C 5.67 g/m*3 3.7 C 3.2 km/h
2225 30-12-2014 12:40:00 3.7 C 5.61 g/m*3 3.7 C 0 km/h
Sensor: Nr:Datum:Temp:Abs-Feuchte:Windchill:Wind:
Aussen-T/F 2226 30-12-2014 12:45:00 3.6 C 5.57 g/m*3 3.6 C 0 km/h
2227 30-12-2014 12:50:00 3.6 C 5.63 g/m*3 3.6 C 3.2 km/h
2228 30-12-2014 12:55:00 3.6 C 5.63 g/m*3 3.6 C 0 km/h
2229 30-12-2014 13:00:00 3.5 C 5.6 g/m*3 3.5 C 0 km/h
2230 30-12-2014 13:05:00 3.3 C 5.52 g/m*3 3.3 C 0 km/h
2231 30-12-2014 13:10:00 3.3 C 5.52 g/m*3 3.3 C 1.6 km/h
2232 30-12-2014 13:15:00 3.2 C 5.54 g/m*3 3.2 C 0 km/h
2233 30-12-2014 13:20:00 3.2 C 5.54 g/m*3 3.2 C 0 km/h
2234 30-12-2014 13:25:00 3.2 C 5.54 g/m*3 3.2 C 1.6 km/h
2235 30-12-2014 13:30:00 3.2 C 5.54 g/m*3 3.2 C 1.6 km/h
2236 30-12-2014 13:35:00 3.3 C 5.58 g/m*3 3.3 C 0 km/h
2237 30-12-2014 13:40:00 3.3 C 5.58 g/m*3 3.3 C 0 km/h
2238 30-12-2014 13:45:00 3.3 C 5.58 g/m*3 3.3 C 0 km/h
2239 30-12-2014 13:50:00 3.2 C 5.54 g/m*3 3.2 C 0 km/h
2240 30-12-2014 13:55:00 3.2 C 5.54 g/m*3 3.2 C 0 km/h
2241 30-12-2014 14:00:00 3.4 C 5.62 g/m*3 3.4 C 4.8 km/h
2242 30-12-2014 14:05:00 3.7 C 5.67 g/m*3 2.09 C 6.4 km/h
2243 30-12-2014 14:10:00 3.8 C 5.65 g/m*3 2.21 C 6.4 km/h
2244 30-12-2014 14:15:00 4.1 C 5.7 g/m*3 2.55 C 6.4 km/h
2245 30-12-2014 14:20:00 4.2 C 5.67 g/m*3 0.84 C 14.5 km/h
2246 30-12-2014 14:25:00 4.3 C 5.71 g/m*3 0.97 C 14.5 km/h
2247 30-12-2014 14:30:00 4.3 C 5.71 g/m*3 4.3 C 4.8 km/h
2248 30-12-2014 14:35:00 4.3 C 5.64 g/m*3 2.29 C 8.1 km/h
2249 30-12-2014 14:40:00 4.3 C 5.64 g/m*3 4.3 C 4.8 km/h
2250 30-12-2014 14:45:00 4.3 C 5.64 g/m*3 2.78 C 6.4 km/h
Sensor: Nr:Datum:Temp:Abs-Feuchte:Windchill:Wind:
Aussen-T/F 2251 30-12-2014 14:50:00 4.2 C 5.61 g/m*3 4.2 C 3.2 km/h
2252 30-12-2014 14:55:00 4.2 C 5.67 g/m*3 4.2 C 3.2 km/h
2253 30-12-2014 15:00:00 4.1 C 5.63 g/m*3 2.05 C 8.1 km/h
2254 30-12-2014 15:05:00 4 C 5.59 g/m*3 2.44 C 6.4 km/h
2255 30-12-2014 15:10:00 4.1 C 5.63 g/m*3 1.65 C 9.7 km/h
2256 30-12-2014 15:15:00 4.2 C 5.67 g/m*3 2.17 C 8.1 km/h
2257 30-12-2014 15:20:00 4.2 C 5.67 g/m*3 1.43 C 11.3 km/h
2258 30-12-2014 15:25:00 4.3 C 5.71 g/m*3 2.78 C 6.4 km/h
2259 30-12-2014 15:30:00 4.3 C 5.77 g/m*3 4.3 C 3.2 km/h
2260 30-12-2014 15:35:00 4.3 C 5.77 g/m*3 4.3 C 4.8 km/h
2261 30-12-2014 15:40:00 4.3 C 5.77 g/m*3 4.3 C 4.8 km/h
2262 30-12-2014 15:45:00 4.2 C 5.73 g/m*3 4.2 C 3.2 km/h
2263 30-12-2014 15:50:00 4.1 C 5.76 g/m*3 4.1 C 4.8 km/h
2264 30-12-2014 15:55:00 4.1 C 5.76 g/m*3 2.05 C 8.1 km/h
2265 30-12-2014 16:00:00 4.1 C 5.76 g/m*3 4.1 C 3.2 km/h
2266 30-12-2014 16:05:00 3.9 C 5.68 g/m*3 3.9 C 4.8 km/h
2267 30-12-2014 16:10:00 3.8 C 5.65 g/m*3 3.8 C 1.6 km/h
2268 30-12-2014 16:15:00 3.7 C 5.67 g/m*3 3.7 C 1.6 km/h
2269 30-12-2014 16:20:00 3.6 C 5.63 g/m*3 3.6 C 1.6 km/h
2270 30-12-2014 16:25:00 3.5 C 5.6 g/m*3 3.5 C 1.6 km/h
2271 30-12-2014 16:30:00 3.3 C 5.58 g/m*3 3.3 C 1.6 km/h
2272 30-12-2014 16:35:00 3.3 C 5.58 g/m*3 3.3 C 3.2 km/h
2273 30-12-2014 16:40:00 3.3 C 5.58 g/m*3 3.3 C 1.6 km/h
2274 30-12-2014 16:45:00 3.2 C 5.54 g/m*3 3.2 C 4.8 km/h
2275 30-12-2014 16:50:00 3.3 C 5.58 g/m*3 1.11 C 8.1 km/h
Sensor: Nr:Datum:Temp:Abs-Feuchte:Windchill:Wind:
Aussen-T/F 2276 30-12-2014 16:55:00 3.3 C 5.64 g/m*3 1.63 C 6.4 km/h
2277 30-12-2014 17:00:00 3.3 C 5.58 g/m*3 3.3 C 1.6 km/h
2278 30-12-2014 17:05:00 3.3 C 5.58 g/m*3 3.3 C 4.8 km/h
2279 30-12-2014 17:10:00 3.3 C 5.58 g/m*3 3.3 C 4.8 km/h
2280 30-12-2014 17:15:00 3.3 C 5.58 g/m*3 3.3 C 3.2 km/h
2281 30-12-2014 17:20:00 3.2 C 5.54 g/m*3 3.2 C 1.6 km/h
2282 30-12-2014 17:25:00 3.1 C 5.51 g/m*3 3.1 C 3.2 km/h
2283 30-12-2014 17:30:00 3 C 5.53 g/m*3 3 C 1.6 km/h
2284 30-12-2014 17:35:00 3.1 C 5.57 g/m*3 3.1 C 1.6 km/h
2285 30-12-2014 17:40:00 3.2 C 5.6 g/m*3 3.2 C 3.2 km/h
2286 30-12-2014 17:45:00 3.2 C 5.54 g/m*3 3.2 C 3.2 km/h
2287 30-12-2014 17:50:00 3.2 C 5.54 g/m*3 3.2 C 3.2 km/h
2288 30-12-2014 17:55:00 3.2 C 5.54 g/m*3 3.2 C 0 km/h
2289 30-12-2014 18:00:00 3 C 5.47 g/m*3 3 C 3.2 km/h
2290 30-12-2014 18:05:00 2.9 C 5.49 g/m*3 2.9 C 0 km/h
2291 30-12-2014 18:10:00 2.8 C 5.46 g/m*3 2.8 C 3.2 km/h
2292 30-12-2014 18:15:00 2.7 C 5.42 g/m*3 2.7 C 1.6 km/h
2293 30-12-2014 18:20:00 2.6 C 5.38 g/m*3 2.6 C 3.2 km/h
2294 30-12-2014 18:25:00 2.5 C 5.35 g/m*3 2.5 C 3.2 km/h
2295 30-12-2014 18:30:00 2.4 C 5.31 g/m*3 2.4 C 3.2 km/h
2296 30-12-2014 18:35:00 2.4 C 5.37 g/m*3 2.4 C 3.2 km/h
2297 30-12-2014 18:40:00 2.3 C 5.33 g/m*3 2.3 C 1.6 km/h
2298 30-12-2014 18:45:00 2.3 C 5.33 g/m*3 2.3 C 3.2 km/h
2299 30-12-2014 18:50:00 2.2 C 5.29 g/m*3 2.2 C 3.2 km/h
2300 30-12-2014 18:55:00 2.3 C 5.33 g/m*3 2.3 C 3.2 km/h
Sensor: Nr:Datum:Temp:Abs-Feuchte:Windchill:Wind:
Aussen-T/F 2301 30-12-2014 19:00:00 2.2 C 5.29 g/m*3 2.2 C 1.6 km/h
2302 30-12-2014 19:05:00 2.2 C 5.35 g/m*3 2.2 C 1.6 km/h
2303 30-12-2014 19:10:00 2.2 C 5.35 g/m*3 2.2 C 1.6 km/h
2304 30-12-2014 19:15:00 2.2 C 5.29 g/m*3 2.2 C 3.2 km/h
2305 30-12-2014 19:20:00 2.1 C 5.31 g/m*3 2.1 C 1.6 km/h
2306 30-12-2014 19:25:00 2.2 C 5.35 g/m*3 2.2 C 1.6 km/h
2307 30-12-2014 19:30:00 2.2 C 5.35 g/m*3 2.2 C 1.6 km/h
2308 30-12-2014 19:35:00 2.2 C 5.35 g/m*3 2.2 C 1.6 km/h
2309 30-12-2014 19:40:00 2.2 C 5.35 g/m*3 2.2 C 1.6 km/h
2310 30-12-2014 19:45:00 2.2 C 5.29 g/m*3 2.2 C 3.2 km/h
2311 30-12-2014 19:50:00 2.2 C 5.29 g/m*3 2.2 C 4.8 km/h
2312 30-12-2014 19:55:00 2.3 C 5.33 g/m*3 2.3 C 4.8 km/h
2313 30-12-2014 20:00:00 2.4 C 5.31 g/m*3 2.4 C 3.2 km/h
2314 30-12-2014 20:05:00 2.5 C 5.35 g/m*3 2.5 C 1.6 km/h
2315 30-12-2014 20:10:00 2.4 C 5.25 g/m*3 2.4 C 0 km/h
2316 30-12-2014 20:15:00 2.4 C 5.25 g/m*3 2.4 C 0 km/h
2317 30-12-2014 20:20:00 2.3 C 5.27 g/m*3 2.3 C 4.8 km/h
2318 30-12-2014 20:25:00 2.3 C 5.27 g/m*3 2.3 C 4.8 km/h
2319 30-12-2014 20:30:00 2.7 C 5.3 g/m*3 2.7 C 1.6 km/h
2320 30-12-2014 20:35:00 2.7 C 5.3 g/m*3 2.7 C 3.2 km/h
2321 30-12-2014 20:40:00 2.5 C 5.23 g/m*3 2.5 C 3.2 km/h
2322 30-12-2014 20:45:00 2.4 C 5.25 g/m*3 2.4 C 4.8 km/h
2323 30-12-2014 20:50:00 2.4 C 5.25 g/m*3 0.59 C 6.4 km/h
2324 30-12-2014 20:55:00 2.4 C 5.25 g/m*3 2.4 C 3.2 km/h
2325 30-12-2014 21:00:00 2.3 C 5.22 g/m*3 2.3 C 1.6 km/h
Sensor: Nr:Datum:Temp:Abs-Feuchte:Windchill:Wind:
Aussen-T/F 2326 30-12-2014 21:05:00 2.3 C 5.27 g/m*3 2.3 C 1.6 km/h
2327 30-12-2014 21:10:00 2.3 C 5.27 g/m*3 2.3 C 1.6 km/h
2328 30-12-2014 21:15:00 2.2 C 5.24 g/m*3 2.2 C 1.6 km/h
2329 30-12-2014 21:20:00 2.1 C 5.2 g/m*3 2.1 C 1.6 km/h
2330 30-12-2014 21:25:00 2.1 C 5.2 g/m*3 2.1 C 0 km/h
2331 30-12-2014 21:30:00 2.1 C 5.2 g/m*3 2.1 C 1.6 km/h
2332 30-12-2014 21:35:00 2 C 5.22 g/m*3 2 C 3.2 km/h
2333 30-12-2014 21:40:00 2 C 5.22 g/m*3 2 C 3.2 km/h
2334 30-12-2014 21:45:00 2.1 C 5.26 g/m*3 2.1 C 4.8 km/h
2335 30-12-2014 21:50:00 2.1 C 5.2 g/m*3 2.1 C 1.6 km/h
2336 30-12-2014 21:55:00 2.1 C 5.2 g/m*3 2.1 C 1.6 km/h
2337 30-12-2014 22:00:00 2 C 5.17 g/m*3 2 C 1.6 km/h
2338 30-12-2014 22:05:00 2 C 5.22 g/m*3 2 C 3.2 km/h
2339 30-12-2014 22:10:00 1.9 C 5.19 g/m*3 1.9 C 1.6 km/h
2340 30-12-2014 22:15:00 1.9 C 5.19 g/m*3 1.9 C 1.6 km/h
2341 30-12-2014 22:20:00 1.9 C 5.19 g/m*3 1.9 C 1.6 km/h
2342 30-12-2014 22:25:00 1.9 C 5.19 g/m*3 1.9 C 0 km/h
2343 30-12-2014 22:30:00 1.9 C 5.19 g/m*3 1.9 C 0 km/h
2344 30-12-2014 22:35:00 1.9 C 5.19 g/m*3 1.9 C 0 km/h
2345 30-12-2014 22:40:00 1.9 C 5.19 g/m*3 1.9 C 1.6 km/h
2346 30-12-2014 22:45:00 2 C 5.22 g/m*3 2 C 1.6 km/h
2347 30-12-2014 22:50:00 2 C 5.22 g/m*3 2 C 1.6 km/h
2348 30-12-2014 22:55:00 2 C 5.22 g/m*3 2 C 3.2 km/h
2349 30-12-2014 23:00:00 2 C 5.22 g/m*3 2 C 1.6 km/h
2350 30-12-2014 23:05:00 1.9 C 5.19 g/m*3 1.9 C 1.6 km/h
Sensor: Nr:Datum:Temp:Abs-Feuchte:Windchill:Wind:
Aussen-T/F 2351 30-12-2014 23:10:00 1.9 C 5.19 g/m*3 1.9 C 1.6 km/h
2352 30-12-2014 23:15:00 1.9 C 5.19 g/m*3 1.9 C 0 km/h
2353 30-12-2014 23:20:00 1.9 C 5.19 g/m*3 1.9 C 0 km/h
2354 30-12-2014 23:25:00 1.9 C 5.19 g/m*3 1.9 C 3.2 km/h
2355 30-12-2014 23:30:00 1.9 C 5.19 g/m*3 1.9 C 3.2 km/h
2356 30-12-2014 23:35:00 1.9 C 5.19 g/m*3 1.9 C 0 km/h
2357 30-12-2014 23:40:00 1.9 C 5.19 g/m*3 1.9 C 1.6 km/h
2358 30-12-2014 23:45:00 1.9 C 5.19 g/m*3 1.9 C 0 km/h
2359 30-12-2014 23:50:00 1.9 C 5.19 g/m*3 1.9 C 1.6 km/h
2360 30-12-2014 23:55:00 1.9 C 5.19 g/m*3 1.9 C 1.6 km/h
2361 31-12-2014 00:00:00 1.9 C 5.24 g/m*3 1.9 C 1.6 km/h
2362 31-12-2014 00:05:00 1.9 C 5.19 g/m*3 1.9 C 1.6 km/h
2363 31-12-2014 00:10:00 1.9 C 5.19 g/m*3 1.9 C 0 km/h
2364 31-12-2014 00:15:00 1.9 C 5.19 g/m*3 1.9 C 0 km/h
2365 31-12-2014 00:20:00 1.9 C 5.19 g/m*3 1.9 C 0 km/h
2366 31-12-2014 00:25:00 1.9 C 5.19 g/m*3 1.9 C 1.6 km/h
2367 31-12-2014 00:30:00 1.9 C 5.24 g/m*3 1.9 C 0 km/h
2368 31-12-2014 00:35:00 1.8 C 5.15 g/m*3 1.8 C 0 km/h
2369 31-12-2014 00:40:00 1.9 C 5.24 g/m*3 1.9 C 0 km/h
2370 31-12-2014 00:45:00 1.8 C 5.21 g/m*3 1.8 C 0 km/h
2371 31-12-2014 00:50:00 1.9 C 5.24 g/m*3 1.9 C 1.6 km/h
2372 31-12-2014 00:55:00 1.8 C 5.21 g/m*3 1.8 C 1.6 km/h
2373 31-12-2014 01:00:00 1.8 C 5.21 g/m*3 1.8 C 0 km/h
2374 31-12-2014 01:05:00 1.8 C 5.21 g/m*3 1.8 C 1.6 km/h
2375 31-12-2014 01:10:00 1.8 C 5.21 g/m*3 1.8 C 0 km/h
Sensor: Nr:Datum:Temp:Abs-Feuchte:Windchill:Wind:
Aussen-T/F 2376 31-12-2014 01:15:00 1.9 C 5.24 g/m*3 1.9 C 4.8 km/h
2377 31-12-2014 01:20:00 1.9 C 5.24 g/m*3 1.9 C 1.6 km/h
2378 31-12-2014 01:25:00 1.9 C 5.24 g/m*3 1.9 C 0 km/h
2379 31-12-2014 01:30:00 2 C 5.22 g/m*3 2 C 1.6 km/h
2380 31-12-2014 01:35:00 2.1 C 5.26 g/m*3 2.1 C 1.6 km/h
2381 31-12-2014 01:40:00 2.1 C 5.26 g/m*3 2.1 C 1.6 km/h
2382 31-12-2014 01:45:00 2.1 C 5.26 g/m*3 2.1 C 1.6 km/h
2383 31-12-2014 01:50:00 2.1 C 5.26 g/m*3 2.1 C 0 km/h
2384 31-12-2014 01:55:00 2.1 C 5.26 g/m*3 2.1 C 0 km/h
2385 31-12-2014 02:00:00 2.1 C 5.26 g/m*3 2.1 C 1.6 km/h
2386 31-12-2014 02:05:00 2.1 C 5.26 g/m*3 2.1 C 0 km/h
2387 31-12-2014 02:10:00 2.1 C 5.26 g/m*3 2.1 C 1.6 km/h
2388 31-12-2014 02:15:00 2.1 C 5.26 g/m*3 2.1 C 1.6 km/h
2389 31-12-2014 02:20:00 2.1 C 5.26 g/m*3 2.1 C 0 km/h
2390 31-12-2014 02:25:00 2.1 C 5.26 g/m*3 2.1 C 0 km/h
2391 31-12-2014 02:30:00 2.1 C 5.26 g/m*3 2.1 C 1.6 km/h
2392 31-12-2014 02:35:00 2.1 C 5.26 g/m*3 2.1 C 0 km/h
2393 31-12-2014 02:40:00 2.1 C 5.26 g/m*3 2.1 C 0 km/h
2394 31-12-2014 02:45:00 2.1 C 5.26 g/m*3 2.1 C 0 km/h
2395 31-12-2014 02:50:00 2.1 C 5.26 g/m*3 2.1 C 1.6 km/h
2396 31-12-2014 02:55:00 2.1 C 5.26 g/m*3 2.1 C 1.6 km/h
2397 31-12-2014 03:00:00 2.1 C 5.26 g/m*3 2.1 C 1.6 km/h
2398 31-12-2014 03:05:00 2.1 C 5.26 g/m*3 2.1 C 1.6 km/h
2399 31-12-2014 03:10:00 2.1 C 5.26 g/m*3 2.1 C 1.6 km/h
2400 31-12-2014 03:15:00 2.1 C 5.31 g/m*3 2.1 C 1.6 km/h
Sensor: Nr:Datum:Temp:Abs-Feuchte:Windchill:Wind:
Aussen-T/F 2401 31-12-2014 03:20:00 2.1 C 5.26 g/m*3 2.1 C 3.2 km/h
2402 31-12-2014 03:25:00 2.1 C 5.26 g/m*3 2.1 C 0 km/h
2403 31-12-2014 03:30:00 2.1 C 5.26 g/m*3 2.1 C 1.6 km/h
2404 31-12-2014 03:35:00 2.1 C 5.31 g/m*3 2.1 C 0 km/h
2405 31-12-2014 03:40:00 2.1 C 5.31 g/m*3 2.1 C 0 km/h
2406 31-12-2014 03:45:00 2.1 C 5.31 g/m*3 2.1 C 1.6 km/h
2407 31-12-2014 03:50:00 2.1 C 5.31 g/m*3 2.1 C 0 km/h
2408 31-12-2014 03:55:00 2.1 C 5.31 g/m*3 2.1 C 0 km/h
2409 31-12-2014 04:00:00 2.1 C 5.31 g/m*3 2.1 C 0 km/h
2410 31-12-2014 04:05:00 2.1 C 5.31 g/m*3 2.1 C 0 km/h
2411 31-12-2014 04:10:00 2.1 C 5.31 g/m*3 2.1 C 0 km/h
2412 31-12-2014 04:15:00 2.1 C 5.31 g/m*3 2.1 C 0 km/h
2413 31-12-2014 04:20:00 2.1 C 5.31 g/m*3 2.1 C 0 km/h
2414 31-12-2014 04:25:00 2.1 C 5.31 g/m*3 2.1 C 0 km/h
2415 31-12-2014 04:30:00 2.1 C 5.31 g/m*3 2.1 C 0 km/h
2416 31-12-2014 04:35:00 2.2 C 5.35 g/m*3 2.2 C 1.6 km/h
2417 31-12-2014 04:40:00 2.2 C 5.35 g/m*3 2.2 C 0 km/h
2418 31-12-2014 04:45:00 2.2 C 5.35 g/m*3 2.2 C 0 km/h
2419 31-12-2014 04:50:00 2.2 C 5.35 g/m*3 2.2 C 0 km/h
2420 31-12-2014 04:55:00 2.1 C 5.26 g/m*3 2.1 C 1.6 km/h
2421 31-12-2014 05:00:00 2.2 C 5.35 g/m*3 2.2 C 1.6 km/h
2422 31-12-2014 05:05:00 2.2 C 5.35 g/m*3 2.2 C 1.6 km/h
2423 31-12-2014 05:10:00 2.2 C 5.35 g/m*3 2.2 C 1.6 km/h
2424 31-12-2014 05:15:00 2.2 C 5.29 g/m*3 2.2 C 3.2 km/h
2425 31-12-2014 05:20:00 2.3 C 5.33 g/m*3 2.3 C 3.2 km/h
Sensor: Nr:Datum:Temp:Abs-Feuchte:Windchill:Wind:
Aussen-T/F 2426 31-12-2014 05:25:00 2.3 C 5.33 g/m*3 2.3 C 4.8 km/h
2427 31-12-2014 05:30:00 2.3 C 5.33 g/m*3 2.3 C 1.6 km/h
2428 31-12-2014 05:35:00 2.3 C 5.33 g/m*3 2.3 C 1.6 km/h
2429 31-12-2014 05:40:00 2.3 C 5.33 g/m*3 2.3 C 1.6 km/h
2430 31-12-2014 05:45:00 2.3 C 5.33 g/m*3 2.3 C 1.6 km/h
2431 31-12-2014 05:50:00 2.3 C 5.33 g/m*3 2.3 C 0 km/h
2432 31-12-2014 05:55:00 2.3 C 5.33 g/m*3 2.3 C 0 km/h
2433 31-12-2014 06:00:00 2.3 C 5.33 g/m*3 2.3 C 3.2 km/h
2434 31-12-2014 06:05:00 2.3 C 5.33 g/m*3 2.3 C 0 km/h
2435 31-12-2014 06:10:00 2.3 C 5.33 g/m*3 2.3 C 0 km/h
2436 31-12-2014 06:15:00 2.3 C 5.33 g/m*3 2.3 C 0 km/h
2437 31-12-2014 06:20:00 2.3 C 5.33 g/m*3 2.3 C 3.2 km/h
2438 31-12-2014 06:25:00 2.3 C 5.33 g/m*3 2.3 C 1.6 km/h
2439 31-12-2014 06:30:00 2.2 C 5.29 g/m*3 2.2 C 1.6 km/h
2440 31-12-2014 06:35:00 2.2 C 5.29 g/m*3 2.2 C 0 km/h
2441 31-12-2014 06:40:00 2.2 C 5.29 g/m*3 2.2 C 1.6 km/h
2442 31-12-2014 06:45:00 2.3 C 5.33 g/m*3 2.3 C 3.2 km/h
2443 31-12-2014 06:50:00 2.3 C 5.33 g/m*3 2.3 C 3.2 km/h
2444 31-12-2014 06:55:00 2.3 C 5.33 g/m*3 2.3 C 1.6 km/h
2445 31-12-2014 07:00:00 2.3 C 5.33 g/m*3 2.3 C 3.2 km/h
2446 31-12-2014 07:05:00 2.4 C 5.37 g/m*3 2.4 C 4.8 km/h
2447 31-12-2014 07:10:00 2.4 C 5.37 g/m*3 2.4 C 3.2 km/h
2448 31-12-2014 07:15:00 2.4 C 5.37 g/m*3 2.4 C 4.8 km/h
2449 31-12-2014 07:20:00 2.5 C 5.4 g/m*3 2.5 C 1.6 km/h
2450 31-12-2014 07:25:00 2.5 C 5.35 g/m*3 2.5 C 4.8 km/h
Sensor: Nr:Datum:Temp:Abs-Feuchte:Windchill:Wind:
Aussen-T/F 2451 31-12-2014 07:30:00 2.6 C 5.44 g/m*3 2.6 C 3.2 km/h
2452 31-12-2014 07:35:00 2.6 C 5.38 g/m*3 2.6 C 3.2 km/h
2453 31-12-2014 07:40:00 2.6 C 5.38 g/m*3 2.6 C 3.2 km/h
2454 31-12-2014 07:45:00 2.6 C 5.38 g/m*3 2.6 C 0 km/h
2455 31-12-2014 07:50:00 2.5 C 5.35 g/m*3 2.5 C 3.2 km/h
2456 31-12-2014 07:55:00 2.4 C 5.37 g/m*3 2.4 C 1.6 km/h
2457 31-12-2014 08:00:00 2.5 C 5.35 g/m*3 2.5 C 3.2 km/h
2458 31-12-2014 08:05:00 2.4 C 5.37 g/m*3 2.4 C 3.2 km/h
2459 31-12-2014 08:10:00 2.4 C 5.37 g/m*3 2.4 C 3.2 km/h
2460 31-12-2014 08:15:00 2.5 C 5.4 g/m*3 2.5 C 4.8 km/h
2461 31-12-2014 08:20:00 2.6 C 5.44 g/m*3 0.82 C 6.4 km/h
2462 31-12-2014 08:25:00 2.6 C 5.44 g/m*3 0.82 C 6.4 km/h
2463 31-12-2014 08:30:00 2.6 C 5.44 g/m*3 2.6 C 1.6 km/h
2464 31-12-2014 08:35:00 2.6 C 5.44 g/m*3 2.6 C 3.2 km/h
2465 31-12-2014 08:40:00 2.6 C 5.38 g/m*3 0.29 C 8.1 km/h
2466 31-12-2014 08:45:00 2.7 C 5.42 g/m*3 0.4 C 8.1 km/h
2467 31-12-2014 08:50:00 2.7 C 5.42 g/m*3 2.7 C 4.8 km/h
2468 31-12-2014 08:55:00 2.6 C 5.38 g/m*3 2.6 C 3.2 km/h
2469 31-12-2014 09:00:00 2.7 C 5.42 g/m*3 0.4 C 8.1 km/h
2470 31-12-2014 09:05:00 2.7 C 5.42 g/m*3 0.4 C 8.1 km/h
2471 31-12-2014 09:10:00 2.7 C 5.42 g/m*3 0.94 C 6.4 km/h
2472 31-12-2014 09:15:00 2.7 C 5.42 g/m*3 0.4 C 8.1 km/h
2473 31-12-2014 09:20:00 2.7 C 5.42 g/m*3 -0.38 C 11.3 km/h
2474 31-12-2014 09:25:00 2.8 C 5.4 g/m*3 0.52 C 8.1 km/h
2475 31-12-2014 09:30:00 2.8 C 5.4 g/m*3 0.52 C 8.1 km/h
Sensor: Nr:Datum:Temp:Abs-Feuchte:Windchill:Wind:
Aussen-T/F 2476 31-12-2014 09:35:00 2.8 C 5.4 g/m*3 0.52 C 8.1 km/h
2477 31-12-2014 09:40:00 2.8 C 5.4 g/m*3 0.1 C 9.7 km/h
2478 31-12-2014 09:45:00 2.8 C 5.4 g/m*3 1.05 C 6.4 km/h
2479 31-12-2014 09:50:00 2.8 C 5.4 g/m*3 0.1 C 9.7 km/h
2480 31-12-2014 09:55:00 2.9 C 5.43 g/m*3 0.64 C 8.1 km/h
2481 31-12-2014 10:00:00 2.9 C 5.43 g/m*3 1.17 C 6.4 km/h
2482 31-12-2014 10:05:00 2.9 C 5.43 g/m*3 1.17 C 6.4 km/h
2483 31-12-2014 10:10:00 2.9 C 5.43 g/m*3 1.17 C 6.4 km/h
2484 31-12-2014 10:15:00 3 C 5.47 g/m*3 0.34 C 9.7 km/h
2485 31-12-2014 10:20:00 3 C 5.47 g/m*3 0.76 C 8.1 km/h
2486 31-12-2014 10:25:00 3.1 C 5.51 g/m*3 0.46 C 9.7 km/h
2487 31-12-2014 10:30:00 3.1 C 5.51 g/m*3 0.1 C 11.3 km/h
2488 31-12-2014 10:35:00 3.1 C 5.45 g/m*3 0.87 C 8.1 km/h
2489 31-12-2014 10:40:00 3.2 C 5.48 g/m*3 0.22 C 11.3 km/h
2490 31-12-2014 10:45:00 3.2 C 5.48 g/m*3 0.22 C 11.3 km/h
2491 31-12-2014 10:50:00 3.2 C 5.48 g/m*3 0.99 C 8.1 km/h
2492 31-12-2014 10:55:00 3.3 C 5.52 g/m*3 0.34 C 11.3 km/h
2493 31-12-2014 11:00:00 3.2 C 5.48 g/m*3 0.99 C 8.1 km/h
2494 31-12-2014 11:05:00 3.2 C 5.48 g/m*3 0.58 C 9.7 km/h
2495 31-12-2014 11:10:00 3.2 C 5.48 g/m*3 0.58 C 9.7 km/h
2496 31-12-2014 11:15:00 3.3 C 5.52 g/m*3 1.11 C 8.1 km/h
2497 31-12-2014 11:20:00 3.3 C 5.52 g/m*3 1.11 C 8.1 km/h
2498 31-12-2014 11:25:00 3.3 C 5.52 g/m*3 1.63 C 6.4 km/h
2499 31-12-2014 11:30:00 3.4 C 5.56 g/m*3 1.23 C 8.1 km/h
2500 31-12-2014 11:35:00 3.4 C 5.56 g/m*3 1.75 C 6.4 km/h
Sensor: Nr:Datum:Temp:Abs-Feuchte:Windchill:Wind:
Aussen-T/F 2501 31-12-2014 11:40:00 3.5 C 5.6 g/m*3 1.34 C 8.1 km/h
2502 31-12-2014 11:45:00 3.6 C 5.63 g/m*3 1.46 C 8.1 km/h
2503 31-12-2014 11:50:00 3.6 C 5.63 g/m*3 3.6 C 4.8 km/h
2504 31-12-2014 11:55:00 3.6 C 5.63 g/m*3 3.6 C 4.8 km/h
2505 31-12-2014 12:00:00 3.6 C 5.63 g/m*3 3.6 C 4.8 km/h
2506 31-12-2014 17:10:00 3.3 C 6.07 g/m*3 3.3 C 1.6 km/h
2507 31-12-2014 17:15:00 3.2 C 6.03 g/m*3 3.2 C 3.2 km/h
2508 31-12-2014 17:20:00 3.2 C 6.03 g/m*3 3.2 C 1.6 km/h
2509 31-12-2014 17:25:00 3.2 C 6.03 g/m*3 3.2 C 3.2 km/h
2510 31-12-2014 17:30:00 3.2 C 6.03 g/m*3 0.58 C 9.7 km/h
2511 31-12-2014 17:35:00 3.2 C 6.03 g/m*3 3.2 C 3.2 km/h
2512 31-12-2014 17:40:00 3.2 C 6.03 g/m*3 3.2 C 3.2 km/h
2513 01-01-2015 00:15:00 2.6 C 5.79 g/m*3 2.6 C 0 km/h
2514 01-01-2015 00:20:00 2.6 C 5.79 g/m*3 2.6 C 0 km/h
2515 01-01-2015 00:25:00 2.6 C 5.79 g/m*3 2.6 C 0 km/h
2516 01-01-2015 00:30:00 2.6 C 5.79 g/m*3 2.6 C 1.6 km/h
2517 01-01-2015 00:35:00 2.7 C 5.59 g/m*3 2.7 C 0 km/h
2518 01-01-2015 00:40:00 2.7 C 5.59 g/m*3 2.7 C 0 km/h
2519 01-01-2015 00:45:00 2.7 C 5.59 g/m*3 2.7 C 1.6 km/h
2520 01-01-2015 00:50:00 2.7 C 5.59 g/m*3 2.7 C 0 km/h
2521 01-01-2015 00:55:00 2.7 C 5.59 g/m*3 2.7 C 0 km/h
2522 01-01-2015 01:00:00 2.7 C 5.59 g/m*3 2.7 C 1.6 km/h
2523 01-01-2015 01:05:00 2.8 C 5.63 g/m*3 2.8 C 1.6 km/h
2524 01-01-2015 01:10:00 2.8 C 5.63 g/m*3 2.8 C 0 km/h
2525 01-01-2015 01:15:00 2.8 C 5.63 g/m*3 2.8 C 0 km/h
Sensor: Nr:Datum:Temp:Abs-Feuchte:Windchill:Wind:
Aussen-T/F 2526 01-01-2015 01:20:00 2.8 C 5.63 g/m*3 2.8 C 1.6 km/h
2527 01-01-2015 01:25:00 2.9 C 5.67 g/m*3 2.9 C 0 km/h
2528 01-01-2015 01:30:00 2.9 C 5.67 g/m*3 2.9 C 1.6 km/h
2529 01-01-2015 01:35:00 2.9 C 5.67 g/m*3 2.9 C 0 km/h
2530 01-01-2015 01:40:00 2.9 C 5.67 g/m*3 2.9 C 0 km/h
2531 01-01-2015 01:45:00 2.9 C 5.67 g/m*3 2.9 C 1.6 km/h
2532 01-01-2015 01:50:00 2.9 C 5.67 g/m*3 2.9 C 0 km/h
2533 01-01-2015 01:55:00 2.9 C 5.67 g/m*3 2.9 C 0 km/h
2534 01-01-2015 02:00:00 2.8 C 5.63 g/m*3 2.8 C 0 km/h
2535 01-01-2015 02:05:00 2.8 C 5.63 g/m*3 2.8 C 0 km/h
2536 01-01-2015 02:10:00 2.8 C 5.63 g/m*3 2.8 C 0 km/h
2537 01-01-2015 02:15:00 2.8 C 5.63 g/m*3 2.8 C 0 km/h
2538 01-01-2015 02:20:00 2.8 C 5.63 g/m*3 2.8 C 0 km/h
2539 01-01-2015 02:25:00 2.8 C 5.63 g/m*3 2.8 C 0 km/h
2540 01-01-2015 02:30:00 2.8 C 5.63 g/m*3 2.8 C 0 km/h
2541 01-01-2015 02:35:00 2.8 C 5.63 g/m*3 2.8 C 0 km/h
2542 01-01-2015 02:40:00 2.7 C 5.59 g/m*3 2.7 C 0 km/h
2543 01-01-2015 02:45:00 2.7 C 5.59 g/m*3 2.7 C 0 km/h
2544 01-01-2015 02:50:00 2.7 C 5.59 g/m*3 2.7 C 0 km/h
2545 01-01-2015 02:55:00 2.6 C 5.56 g/m*3 2.6 C 0 km/h
2546 01-01-2015 03:00:00 2.5 C 5.52 g/m*3 2.5 C 0 km/h
2547 01-01-2015 03:05:00 2.4 C 5.42 g/m*3 2.4 C 0 km/h
2548 01-01-2015 03:10:00 2.2 C 5.35 g/m*3 2.2 C 3.2 km/h
2549 01-01-2015 03:15:00 1.9 C 5.24 g/m*3 1.9 C 3.2 km/h
2550 01-01-2015 03:20:00 1.8 C 5.21 g/m*3 1.8 C 3.2 km/h
Sensor: Nr:Datum:Temp:Abs-Feuchte:Windchill:Wind:
Aussen-T/F 2551 01-01-2015 03:25:00 1.8 C 5.26 g/m*3 1.8 C 3.2 km/h
2552 01-01-2015 03:30:00 1.7 C 5.23 g/m*3 1.7 C 0 km/h
2553 01-01-2015 03:35:00 1.6 C 5.19 g/m*3 1.6 C 1.6 km/h
2554 01-01-2015 03:40:00 1.6 C 5.19 g/m*3 1.6 C 1.6 km/h
2555 01-01-2015 03:45:00 1.4 C 5.12 g/m*3 1.4 C 3.2 km/h
2556 01-01-2015 03:50:00 1.4 C 5.12 g/m*3 1.4 C 3.2 km/h
2557 01-01-2015 03:55:00 1.3 C 5.09 g/m*3 1.3 C 0 km/h
2558 01-01-2015 04:00:00 1.3 C 5.09 g/m*3 1.3 C 1.6 km/h
2559 01-01-2015 04:05:00 1.3 C 5.09 g/m*3 1.3 C 0 km/h
2560 01-01-2015 04:10:00 1.2 C 5.05 g/m*3 1.2 C 3.2 km/h
2561 01-01-2015 04:15:00 1.1 C 5.02 g/m*3 1.1 C 1.6 km/h
2562 01-01-2015 04:20:00 1 C 4.98 g/m*3 1 C 1.6 km/h
2563 01-01-2015 04:25:00 0.9 C 4.95 g/m*3 0.9 C 4.8 km/h
2564 01-01-2015 04:30:00 0.9 C 4.95 g/m*3 0.9 C 4.8 km/h
2565 01-01-2015 04:35:00 0.9 C 4.95 g/m*3 0.9 C 1.6 km/h
2566 01-01-2015 04:40:00 0.9 C 5 g/m*3 0.9 C 3.2 km/h
2567 01-01-2015 04:45:00 0.9 C 5 g/m*3 0.9 C 1.6 km/h
2568 01-01-2015 04:50:00 0.9 C 5 g/m*3 0.9 C 3.2 km/h
2569 01-01-2015 04:55:00 1 C 5.03 g/m*3 1 C 1.6 km/h
2570 01-01-2015 05:00:00 1.1 C 5.07 g/m*3 1.1 C 1.6 km/h
2571 01-01-2015 05:05:00 1.2 C 5.1 g/m*3 1.2 C 3.2 km/h
2572 01-01-2015 05:10:00 1.3 C 5.14 g/m*3 1.3 C 0 km/h
2573 01-01-2015 05:15:00 1.4 C 5.17 g/m*3 1.4 C 1.6 km/h
2574 01-01-2015 05:20:00 1.5 C 5.21 g/m*3 1.5 C 0 km/h
2575 01-01-2015 05:25:00 1.5 C 5.21 g/m*3 1.5 C 0 km/h
Sensor: Nr:Datum:Temp:Abs-Feuchte:Windchill:Wind:
Aussen-T/F 2576 01-01-2015 05:30:00 1.5 C 5.21 g/m*3 1.5 C 1.6 km/h
2577 01-01-2015 05:35:00 1.6 C 5.25 g/m*3 1.6 C 0 km/h
2578 01-01-2015 05:40:00 1.7 C 5.28 g/m*3 1.7 C 3.2 km/h
2579 01-01-2015 05:45:00 1.7 C 5.28 g/m*3 1.7 C 0 km/h
2580 01-01-2015 05:50:00 1.8 C 5.32 g/m*3 1.8 C 4.8 km/h
2581 01-01-2015 05:55:00 1.8 C 5.32 g/m*3 1.8 C 3.2 km/h
2582 01-01-2015 06:00:00 1.8 C 5.32 g/m*3 -0.1 C 6.4 km/h
2583 01-01-2015 06:05:00 1.8 C 5.32 g/m*3 -0.1 C 6.4 km/h
2584 01-01-2015 06:10:00 1.8 C 5.32 g/m*3 1.8 C 4.8 km/h
2585 01-01-2015 06:15:00 1.8 C 5.32 g/m*3 1.8 C 3.2 km/h
2586 01-01-2015 06:20:00 1.8 C 5.32 g/m*3 1.8 C 4.8 km/h
2587 01-01-2015 06:25:00 1.8 C 5.32 g/m*3 1.8 C 3.2 km/h
2588 01-01-2015 06:30:00 1.8 C 5.32 g/m*3 1.8 C 4.8 km/h
2589 01-01-2015 06:35:00 1.8 C 5.32 g/m*3 -0.65 C 8.1 km/h
2590 01-01-2015 06:40:00 1.8 C 5.32 g/m*3 1.8 C 4.8 km/h
2591 01-01-2015 06:45:00 1.8 C 5.32 g/m*3 -0.1 C 6.4 km/h
2592 01-01-2015 06:50:00 1.8 C 5.32 g/m*3 -0.65 C 8.1 km/h
2593 01-01-2015 06:55:00 1.8 C 5.32 g/m*3 1.8 C 4.8 km/h
2594 01-01-2015 07:00:00 1.8 C 5.32 g/m*3 -0.1 C 6.4 km/h
2595 01-01-2015 07:05:00 1.8 C 5.32 g/m*3 1.8 C 1.6 km/h
2596 01-01-2015 07:10:00 1.8 C 5.32 g/m*3 1.8 C 3.2 km/h
2597 01-01-2015 07:15:00 1.8 C 5.32 g/m*3 1.8 C 3.2 km/h
2598 01-01-2015 07:20:00 1.7 C 5.28 g/m*3 1.7 C 0 km/h
2599 01-01-2015 07:25:00 1.7 C 5.28 g/m*3 1.7 C 3.2 km/h
2600 01-01-2015 07:30:00 1.7 C 5.28 g/m*3 1.7 C 4.8 km/h
Sensor: Nr:Datum:Temp:Abs-Feuchte:Windchill:Wind:
Aussen-T/F 2601 01-01-2015 07:35:00 1.7 C 5.28 g/m*3 1.7 C 1.6 km/h
2602 01-01-2015 07:40:00 1.7 C 5.28 g/m*3 1.7 C 4.8 km/h
2603 01-01-2015 07:45:00 1.6 C 5.25 g/m*3 1.6 C 3.2 km/h
2604 01-01-2015 07:50:00 1.6 C 5.25 g/m*3 1.6 C 0 km/h
2605 01-01-2015 07:55:00 1.6 C 5.25 g/m*3 1.6 C 3.2 km/h
2606 01-01-2015 08:00:00 1.6 C 5.25 g/m*3 1.6 C 3.2 km/h
2607 01-01-2015 08:05:00 1.6 C 5.25 g/m*3 1.6 C 1.6 km/h
2608 01-01-2015 08:10:00 1.6 C 5.25 g/m*3 1.6 C 3.2 km/h
2609 01-01-2015 08:15:00 1.6 C 5.25 g/m*3 1.6 C 1.6 km/h
2610 01-01-2015 08:20:00 1.6 C 5.25 g/m*3 1.6 C 0 km/h
2611 01-01-2015 08:25:00 1.5 C 5.21 g/m*3 1.5 C 1.6 km/h
2612 01-01-2015 08:30:00 1.5 C 5.21 g/m*3 1.5 C 0 km/h
2613 01-01-2015 08:35:00 1.5 C 5.21 g/m*3 1.5 C 0 km/h
2614 01-01-2015 16:40:00 1.8 C 5.48 g/m*3 1.8 C 1.6 km/h
2615 01-01-2015 16:45:00 1.8 C 5.48 g/m*3 1.8 C 3.2 km/h
2616 01-01-2015 18:30:00 1.9 C 5.24 g/m*3 1.9 C 3.2 km/h
2617 01-01-2015 18:35:00 1.8 C 5.15 g/m*3 1.8 C 1.6 km/h
2618 01-01-2015 18:40:00 1.7 C 5.17 g/m*3 1.7 C 3.2 km/h
2619 01-01-2015 18:45:00 1.6 C 5.14 g/m*3 1.6 C 0 km/h
2620 01-01-2015 18:50:00 1.6 C 5.14 g/m*3 1.6 C 0 km/h
2621 01-01-2015 18:55:00 1.5 C 5.1 g/m*3 1.5 C 0 km/h
2622 01-01-2015 19:00:00 1.3 C 5.03 g/m*3 1.3 C 0 km/h
2623 01-01-2015 19:05:00 1.2 C 5 g/m*3 1.2 C 1.6 km/h
2624 01-01-2015 19:10:00 1.2 C 5 g/m*3 1.2 C 3.2 km/h
2625 01-01-2015 19:15:00 1.2 C 5.05 g/m*3 1.2 C 3.2 km/h
Sensor: Nr:Datum:Temp:Abs-Feuchte:Windchill:Wind:
Aussen-T/F 2626 01-01-2015 19:20:00 1.1 C 4.96 g/m*3 1.1 C 1.6 km/h
2627 01-01-2015 19:25:00 1.1 C 4.96 g/m*3 1.1 C 3.2 km/h
2628 01-01-2015 19:30:00 1.1 C 4.96 g/m*3 1.1 C 1.6 km/h
2629 02-01-2015 03:25:00 2.2 C 4.96 g/m*3 -0.99 C 11.3 km/h
2630 02-01-2015 03:30:00 2.2 C 4.96 g/m*3 2.2 C 1.6 km/h
2631 02-01-2015 03:35:00 2.2 C 4.96 g/m*3 -0.61 C 9.7 km/h
2632 02-01-2015 05:05:00 3.2 C 4.94 g/m*3 -0.1 C 12.9 km/h
2633 02-01-2015 05:10:00 3.2 C 4.94 g/m*3 0.22 C 11.3 km/h
2634 02-01-2015 05:15:00 3.2 C 4.94 g/m*3 -1.32 C 20.9 km/h
2635 02-01-2015 05:20:00 3.2 C 4.94 g/m*3 0.22 C 11.3 km/h
2636 02-01-2015 05:25:00 3.2 C 4.94 g/m*3 0.22 C 11.3 km/h
2637 02-01-2015 05:30:00 3.2 C 4.94 g/m*3 -0.39 C 14.5 km/h
2638 02-01-2015 06:25:00 3.6 C 4.95 g/m*3 -0.15 C 16.1 km/h
2639 02-01-2015 06:30:00 3.4 C 4.95 g/m*3 -0.14 C 14.5 km/h
2640 02-01-2015 06:35:00 3.3 C 4.97 g/m*3 -1.57 C 24.1 km/h
2641 02-01-2015 06:40:00 3.3 C 4.97 g/m*3 -0.76 C 17.7 km/h
2642 02-01-2015 06:45:00 3.3 C 5.04 g/m*3 -1.19 C 20.9 km/h
2643 02-01-2015 06:50:00 3.2 C 5 g/m*3 -1.11 C 19.3 km/h
2644 02-01-2015 06:55:00 3.2 C 5 g/m*3 -1.87 C 25.7 km/h
2645 02-01-2015 07:00:00 3.3 C 5.04 g/m*3 -1.74 C 25.7 km/h
2646 02-01-2015 07:05:00 3.2 C 5 g/m*3 -1.51 C 22.5 km/h
2647 02-01-2015 07:10:00 3.2 C 5 g/m*3 -0.89 C 17.7 km/h
2648 02-01-2015 07:15:00 3.2 C 5.06 g/m*3 0.22 C 11.3 km/h
2649 02-01-2015 07:20:00 3.1 C 5.03 g/m*3 -1.64 C 22.5 km/h
2650 02-01-2015 07:25:00 3.1 C 5.09 g/m*3 -1.45 C 20.9 km/h
Sensor: Nr:Datum:Temp:Abs-Feuchte:Windchill:Wind:
Aussen-T/F 2651 02-01-2015 07:30:00 3.1 C 5.09 g/m*3 -2.18 C 27.4 km/h
2652 02-01-2015 07:35:00 3 C 5.05 g/m*3 -0.9 C 16.1 km/h
2653 02-01-2015 07:40:00 3 C 5.05 g/m*3 -0.34 C 12.9 km/h
2654 02-01-2015 07:45:00 2.9 C 5.08 g/m*3 -0.76 C 14.5 km/h
2655 02-01-2015 07:50:00 2.9 C 5.08 g/m*3 -0.46 C 12.9 km/h
2656 02-01-2015 07:55:00 2.9 C 5.08 g/m*3 -0.76 C 14.5 km/h
2657 02-01-2015 08:00:00 2.8 C 5.1 g/m*3 -2.02 C 22.5 km/h
2658 02-01-2015 08:05:00 2.8 C 5.1 g/m*3 0.52 C 8.1 km/h
2659 02-01-2015 08:10:00 2.8 C 5.1 g/m*3 -0.26 C 11.3 km/h
2660 02-01-2015 08:15:00 2.8 C 5.1 g/m*3 -1.61 C 19.3 km/h
2661 02-01-2015 08:20:00 2.7 C 5.13 g/m*3 -2.34 C 24.1 km/h
2662 02-01-2015 08:25:00 2.8 C 5.16 g/m*3 -1.61 C 19.3 km/h
2663 02-01-2015 08:30:00 2.8 C 5.16 g/m*3 -0.88 C 14.5 km/h
2664 02-01-2015 08:35:00 2.8 C 5.16 g/m*3 -1.39 C 17.7 km/h
2665 02-01-2015 08:40:00 2.7 C 5.13 g/m*3 -1.95 C 20.9 km/h
2666 02-01-2015 08:45:00 2.8 C 5.16 g/m*3 -2.57 C 27.4 km/h
2667 02-01-2015 08:50:00 2.8 C 5.22 g/m*3 -1.39 C 17.7 km/h
2668 02-01-2015 08:55:00 2.7 C 5.19 g/m*3 -1.74 C 19.3 km/h
2669 02-01-2015 09:00:00 2.7 C 5.19 g/m*3 -1.51 C 17.7 km/h
2670 02-01-2015 09:05:00 2.7 C 5.24 g/m*3 -1.27 C 16.1 km/h
2671 02-01-2015 09:10:00 2.7 C 5.24 g/m*3 -2.15 C 22.5 km/h
2672 02-01-2015 09:15:00 2.7 C 5.24 g/m*3 -2.15 C 22.5 km/h
2673 02-01-2015 09:20:00 2.7 C 5.24 g/m*3 -1.95 C 20.9 km/h
2674 02-01-2015 09:25:00 2.7 C 5.24 g/m*3 -2.34 C 24.1 km/h
2675 02-01-2015 09:30:00 2.7 C 5.3 g/m*3 -2.34 C 24.1 km/h
Sensor: Nr:Datum:Temp:Abs-Feuchte:Windchill:Wind:
Aussen-T/F 2676 02-01-2015 09:35:00 2.7 C 5.3 g/m*3 -1.27 C 16.1 km/h
2677 02-01-2015 09:40:00 2.7 C 5.24 g/m*3 -2.34 C 24.1 km/h
2678 02-01-2015 09:45:00 2.8 C 5.28 g/m*3 -2.39 C 25.7 km/h
2679 02-01-2015 09:50:00 2.8 C 5.28 g/m*3 -1.39 C 17.7 km/h
2680 02-01-2015 09:55:00 2.8 C 5.28 g/m*3 -1.83 C 20.9 km/h
2681 02-01-2015 10:00:00 2.9 C 5.32 g/m*3 -1.02 C 16.1 km/h
2682 02-01-2015 10:05:00 2.9 C 5.32 g/m*3 -2.26 C 25.7 km/h
2683 02-01-2015 10:10:00 3 C 5.35 g/m*3 -1.77 C 22.5 km/h
2684 02-01-2015 10:15:00 3.1 C 5.39 g/m*3 -1.83 C 24.1 km/h
2685 02-01-2015 10:20:00 3.1 C 5.39 g/m*3 -1.45 C 20.9 km/h
2686 02-01-2015 10:25:00 3.2 C 5.42 g/m*3 -1.7 C 24.1 km/h
2687 02-01-2015 10:30:00 3.2 C 5.42 g/m*3 -0.89 C 17.7 km/h
2688 02-01-2015 10:35:00 3.3 C 5.4 g/m*3 -0.76 C 17.7 km/h
2689 02-01-2015 10:40:00 3.3 C 5.4 g/m*3 -1.19 C 20.9 km/h
2690 02-01-2015 10:45:00 3.3 C 5.4 g/m*3 -0.99 C 19.3 km/h
2691 02-01-2015 10:50:00 3.3 C 5.4 g/m*3 -0.76 C 17.7 km/h
2692 02-01-2015 10:55:00 3.4 C 5.44 g/m*3 -1.44 C 24.1 km/h
2693 02-01-2015 11:00:00 3.4 C 5.44 g/m*3 -0.64 C 17.7 km/h
2694 02-01-2015 11:05:00 3.5 C 5.47 g/m*3 -0.28 C 16.1 km/h
2695 02-01-2015 11:10:00 3.5 C 5.47 g/m*3 -1.49 C 25.7 km/h
2696 02-01-2015 11:15:00 3.5 C 5.47 g/m*3 0.58 C 11.3 km/h
2697 02-01-2015 11:20:00 3.6 C 5.51 g/m*3 -1.01 C 22.5 km/h
2698 02-01-2015 11:25:00 3.6 C 5.51 g/m*3 -1.19 C 24.1 km/h
2699 02-01-2015 11:30:00 3.7 C 5.55 g/m*3 -0.88 C 22.5 km/h
2700 02-01-2015 11:35:00 3.7 C 5.55 g/m*3 -1.23 C 25.7 km/h
Sensor: Nr:Datum:Temp:Abs-Feuchte:Windchill:Wind:
Aussen-T/F 2701 02-01-2015 11:40:00 3.7 C 5.55 g/m*3 -0.69 C 20.9 km/h
2702 02-01-2015 11:45:00 3.8 C 5.58 g/m*3 -0.75 C 22.5 km/h
2703 02-01-2015 11:50:00 3.8 C 5.58 g/m*3 -0.56 C 20.9 km/h
2704 02-01-2015 11:55:00 3.9 C 5.62 g/m*3 -0.97 C 25.7 km/h
2705 02-01-2015 12:00:00 3.9 C 5.62 g/m*3 -0.23 C 19.3 km/h
2706 02-01-2015 12:05:00 4.1 C 5.7 g/m*3 0.47 C 16.1 km/h
2707 02-01-2015 12:10:00 4.1 C 5.7 g/m*3 0.47 C 16.1 km/h
2708 02-01-2015 12:15:00 4.1 C 5.7 g/m*3 0.02 C 19.3 km/h
2709 02-01-2015 12:20:00 4.2 C 5.73 g/m*3 0.15 C 19.3 km/h
2710 02-01-2015 12:25:00 4.2 C 5.73 g/m*3 0.36 C 17.7 km/h
2711 02-01-2015 12:30:00 4.2 C 5.73 g/m*3 0.36 C 17.7 km/h
2712 02-01-2015 12:35:00 4.3 C 5.77 g/m*3 0.49 C 17.7 km/h
2713 02-01-2015 12:40:00 4.3 C 5.77 g/m*3 -0.11 C 22.5 km/h
2714 02-01-2015 12:45:00 4.4 C 5.81 g/m*3 0.61 C 17.7 km/h
2715 02-01-2015 12:50:00 4.5 C 5.85 g/m*3 0.74 C 17.7 km/h
2716 02-01-2015 12:55:00 4.6 C 5.89 g/m*3 0.86 C 17.7 km/h
2717 02-01-2015 13:00:00 4.6 C 5.89 g/m*3 0.45 C 20.9 km/h
2718 02-01-2015 13:05:00 4.5 C 5.85 g/m*3 0.33 C 20.9 km/h
2719 02-01-2015 13:10:00 4.5 C 5.85 g/m*3 0.96 C 16.1 km/h
2720 02-01-2015 13:15:00 4.6 C 5.89 g/m*3 0.86 C 17.7 km/h
2721 02-01-2015 13:20:00 4.6 C 5.96 g/m*3 0.86 C 17.7 km/h
2722 02-01-2015 13:25:00 4.7 C 5.93 g/m*3 0.22 C 24.1 km/h
2723 02-01-2015 13:30:00 4.7 C 5.93 g/m*3 0.78 C 19.3 km/h
2724 02-01-2015 13:35:00 4.6 C 5.89 g/m*3 0.65 C 19.3 km/h
2725 02-01-2015 13:40:00 4.6 C 5.96 g/m*3 1.34 C 14.5 km/h
Sensor: Nr:Datum:Temp:Abs-Feuchte:Windchill:Wind:
Aussen-T/F 2726 02-01-2015 13:45:00 4.6 C 5.96 g/m*3 0.45 C 20.9 km/h
2727 02-01-2015 13:50:00 4.6 C 5.96 g/m*3 0.65 C 19.3 km/h
2728 02-01-2015 13:55:00 4.6 C 5.96 g/m*3 1.09 C 16.1 km/h
2729 02-01-2015 14:00:00 4.5 C 5.92 g/m*3 1.21 C 14.5 km/h
2730 02-01-2015 14:05:00 4.5 C 5.92 g/m*3 1.79 C 11.3 km/h
2731 02-01-2015 14:10:00 4.5 C 5.92 g/m*3 0.96 C 16.1 km/h
2732 02-01-2015 14:15:00 4.5 C 5.92 g/m*3 0.14 C 22.5 km/h
2733 02-01-2015 14:20:00 4.5 C 5.98 g/m*3 1.79 C 11.3 km/h
2734 02-01-2015 14:25:00 4.5 C 5.98 g/m*3 0.52 C 19.3 km/h
2735 02-01-2015 14:30:00 4.6 C 6.02 g/m*3 1.09 C 16.1 km/h
2736 02-01-2015 14:35:00 4.6 C 6.02 g/m*3 0.1 C 24.1 km/h
2737 02-01-2015 14:40:00 4.6 C 6.02 g/m*3 0.45 C 20.9 km/h
2738 02-01-2015 14:45:00 4.6 C 6.02 g/m*3 1.09 C 16.1 km/h
2739 02-01-2015 14:50:00 4.6 C 6.02 g/m*3 1.34 C 14.5 km/h
2740 02-01-2015 14:55:00 4.5 C 5.98 g/m*3 1.21 C 14.5 km/h
2741 02-01-2015 15:00:00 4.5 C 6.05 g/m*3 0.96 C 16.1 km/h
2742 02-01-2015 15:05:00 4.4 C 6.07 g/m*3 1.09 C 14.5 km/h
2743 02-01-2015 15:10:00 4.4 C 6.07 g/m*3 0.84 C 16.1 km/h
2744 02-01-2015 15:15:00 4.4 C 6.07 g/m*3 1.36 C 12.9 km/h
2745 02-01-2015 15:20:00 4.4 C 6.07 g/m*3 2.01 C 9.7 km/h
2746 02-01-2015 15:25:00 4.4 C 6.14 g/m*3 0.84 C 16.1 km/h
2747 02-01-2015 15:30:00 4.4 C 6.14 g/m*3 1.09 C 14.5 km/h
2748 02-01-2015 15:35:00 4.4 C 6.07 g/m*3 1.67 C 11.3 km/h
2749 02-01-2015 15:40:00 4.4 C 6.14 g/m*3 0.61 C 17.7 km/h
2750 02-01-2015 15:45:00 4.4 C 6.14 g/m*3 1.09 C 14.5 km/h
Sensor: Nr:Datum:Temp:Abs-Feuchte:Windchill:Wind:
Aussen-T/F 2751 02-01-2015 15:50:00 4.4 C 6.14 g/m*3 2.01 C 9.7 km/h
2752 02-01-2015 15:55:00 4.4 C 6.14 g/m*3 1.67 C 11.3 km/h
2753 02-01-2015 16:00:00 4.3 C 6.1 g/m*3 0.97 C 14.5 km/h
2754 02-01-2015 16:05:00 4.3 C 6.1 g/m*3 1.24 C 12.9 km/h
2755 02-01-2015 16:10:00 4.3 C 6.1 g/m*3 1.89 C 9.7 km/h
2756 02-01-2015 16:15:00 4.3 C 6.1 g/m*3 2.29 C 8.1 km/h
2757 02-01-2015 16:20:00 4.3 C 6.1 g/m*3 0.97 C 14.5 km/h
2758 02-01-2015 16:25:00 4.3 C 6.1 g/m*3 0.72 C 16.1 km/h
2759 02-01-2015 16:30:00 4.4 C 6.14 g/m*3 0.2 C 20.9 km/h
2760 02-01-2015 16:35:00 4.5 C 6.18 g/m*3 1.21 C 14.5 km/h
2761 02-01-2015 16:40:00 4.5 C 6.11 g/m*3 0.74 C 17.7 km/h
2762 02-01-2015 16:45:00 4.4 C 6.07 g/m*3 1.36 C 12.9 km/h
2763 02-01-2015 16:50:00 4.4 C 6.07 g/m*3 1.36 C 12.9 km/h
2764 02-01-2015 16:55:00 4.3 C 6.03 g/m*3 1.24 C 12.9 km/h
2765 02-01-2015 17:00:00 4.3 C 6.1 g/m*3 0.07 C 20.9 km/h
2766 02-01-2015 17:05:00 4.3 C 6.1 g/m*3 0.97 C 14.5 km/h
2767 02-01-2015 17:10:00 4.3 C 6.1 g/m*3 2.29 C 8.1 km/h
2768 02-01-2015 17:15:00 4.3 C 6.1 g/m*3 2.29 C 8.1 km/h
2769 02-01-2015 23:30:00 2.4 C 5.2 g/m*3 2.4 C 3.2 km/h
2770 02-01-2015 23:35:00 2.5 C 5.23 g/m*3 0.71 C 6.4 km/h
2771 02-01-2015 23:40:00 2.6 C 5.27 g/m*3 0.82 C 6.4 km/h
2772 02-01-2015 23:45:00 2.6 C 5.27 g/m*3 2.6 C 4.8 km/h
2773 02-01-2015 23:50:00 2.4 C 5.14 g/m*3 0.59 C 6.4 km/h
2774 02-01-2015 23:55:00 2.4 C 5.14 g/m*3 2.4 C 1.6 km/h
2775 03-01-2015 00:00:00 2.2 C 5.13 g/m*3 2.2 C 1.6 km/h
Sensor: Nr:Datum:Temp:Abs-Feuchte:Windchill:Wind:
Aussen-T/F 2776 03-01-2015 00:05:00 2 C 5.06 g/m*3 2 C 1.6 km/h
2777 03-01-2015 00:10:00 1.8 C 5.04 g/m*3 1.8 C 4.8 km/h
2778 03-01-2015 00:15:00 1.8 C 5.04 g/m*3 1.8 C 3.2 km/h
2779 03-01-2015 00:20:00 1.8 C 5.1 g/m*3 1.8 C 3.2 km/h
2780 03-01-2015 00:25:00 1.9 C 5.13 g/m*3 0.01 C 6.4 km/h
2781 03-01-2015 00:30:00 2.1 C 5.2 g/m*3 0.24 C 6.4 km/h
2782 03-01-2015 00:35:00 2.2 C 5.18 g/m*3 0.36 C 6.4 km/h
2783 03-01-2015 00:40:00 2.3 C 5.16 g/m*3 2.3 C 4.8 km/h
2784 03-01-2015 00:45:00 2.5 C 5.23 g/m*3 -0.62 C 11.3 km/h
2785 03-01-2015 00:50:00 2.6 C 5.21 g/m*3 0.82 C 6.4 km/h
2786 03-01-2015 00:55:00 2.5 C 5.17 g/m*3 2.5 C 4.8 km/h
2787 03-01-2015 01:00:00 2.4 C 5.14 g/m*3 2.4 C 3.2 km/h
2788 03-01-2015 01:05:00 2.4 C 5.14 g/m*3 0.59 C 6.4 km/h
2789 03-01-2015 01:10:00 2.3 C 5.1 g/m*3 2.3 C 4.8 km/h
2790 03-01-2015 01:15:00 2.4 C 5.2 g/m*3 0.59 C 6.4 km/h
2791 03-01-2015 01:20:00 2.5 C 5.17 g/m*3 -0.62 C 11.3 km/h
2792 03-01-2015 01:25:00 2.5 C 5.17 g/m*3 0.17 C 8.1 km/h
2793 03-01-2015 01:30:00 2.4 C 5.14 g/m*3 0.59 C 6.4 km/h
2794 03-01-2015 01:35:00 2.4 C 5.14 g/m*3 -0.37 C 9.7 km/h
2795 03-01-2015 01:40:00 2.5 C 5.17 g/m*3 -0.62 C 11.3 km/h
2796 03-01-2015 01:45:00 2.5 C 5.17 g/m*3 0.71 C 6.4 km/h
2797 03-01-2015 01:50:00 2.5 C 5.17 g/m*3 0.17 C 8.1 km/h
2798 03-01-2015 01:55:00 2.6 C 5.21 g/m*3 -0.14 C 9.7 km/h
2799 03-01-2015 02:00:00 2.6 C 5.21 g/m*3 0.29 C 8.1 km/h
2800 03-01-2015 02:05:00 2.7 C 5.24 g/m*3 -0.71 C 12.9 km/h
Sensor: Nr:Datum:Temp:Abs-Feuchte:Windchill:Wind:
Aussen-T/F 2801 03-01-2015 02:10:00 2.7 C 5.24 g/m*3 0.4 C 8.1 km/h
2802 03-01-2015 02:15:00 2.7 C 5.24 g/m*3 -0.02 C 9.7 km/h
2803 03-01-2015 02:20:00 2.7 C 5.24 g/m*3 -0.02 C 9.7 km/h
2804 03-01-2015 02:25:00 2.7 C 5.24 g/m*3 0.4 C 8.1 km/h
2805 03-01-2015 02:30:00 2.7 C 5.24 g/m*3 -0.02 C 9.7 km/h
2806 03-01-2015 02:35:00 2.8 C 5.28 g/m*3 -0.26 C 11.3 km/h
2807 03-01-2015 02:40:00 2.8 C 5.28 g/m*3 0.1 C 9.7 km/h
2808 03-01-2015 02:45:00 2.8 C 5.22 g/m*3 0.1 C 9.7 km/h
2809 03-01-2015 02:50:00 2.8 C 5.22 g/m*3 -0.26 C 11.3 km/h
2810 03-01-2015 02:55:00 2.8 C 5.22 g/m*3 0.1 C 9.7 km/h
2811 03-01-2015 03:00:00 2.8 C 5.22 g/m*3 0.1 C 9.7 km/h
2812 03-01-2015 04:30:00 2.5 C 5.29 g/m*3 -0.62 C 11.3 km/h
2813 03-01-2015 04:35:00 2.5 C 5.29 g/m*3 -0.26 C 9.7 km/h
2814 03-01-2015 04:40:00 2.5 C 5.29 g/m*3 -0.95 C 12.9 km/h
2815 03-01-2015 04:45:00 2.4 C 5.25 g/m*3 -0.74 C 11.3 km/h
2816 03-01-2015 04:50:00 2.4 C 5.25 g/m*3 -1.07 C 12.9 km/h
2817 03-01-2015 04:55:00 2.4 C 5.25 g/m*3 -1.37 C 14.5 km/h
2818 03-01-2015 05:00:00 2.4 C 5.31 g/m*3 -1.07 C 12.9 km/h
2819 03-01-2015 05:05:00 2.4 C 5.31 g/m*3 -0.74 C 11.3 km/h
2820 03-01-2015 05:10:00 2.5 C 5.35 g/m*3 -0.26 C 9.7 km/h
2821 03-01-2015 05:15:00 2.5 C 5.35 g/m*3 -0.95 C 12.9 km/h
2822 03-01-2015 05:20:00 2.5 C 5.35 g/m*3 -0.62 C 11.3 km/h
2823 03-01-2015 05:25:00 2.6 C 5.38 g/m*3 -0.14 C 9.7 km/h
2824 03-01-2015 05:30:00 2.6 C 5.38 g/m*3 0.29 C 8.1 km/h
2825 03-01-2015 05:35:00 2.6 C 5.38 g/m*3 0.29 C 8.1 km/h
Sensor: Nr:Datum:Temp:Abs-Feuchte:Windchill:Wind:
Aussen-T/F 2826 03-01-2015 06:00:00 2.6 C 5.79 g/m*3 2.6 C 1.6 km/h
2827 03-01-2015 06:05:00 2.6 C 5.38 g/m*3 2.6 C 0 km/h
2828 03-01-2015 06:10:00 2.6 C 5.38 g/m*3 2.6 C 4.8 km/h
2829 03-01-2015 06:15:00 2.6 C 5.38 g/m*3 2.6 C 0 km/h
2830 03-01-2015 06:20:00 2.5 C 5.35 g/m*3 2.5 C 0 km/h
2831 03-01-2015 06:25:00 2.5 C 5.4 g/m*3 2.5 C 0 km/h
2832 03-01-2015 06:30:00 2.5 C 5.4 g/m*3 2.5 C 1.6 km/h
2833 03-01-2015 07:45:00 3 C 5.59 g/m*3 3 C 0 km/h
2834 03-01-2015 07:50:00 3.1 C 5.63 g/m*3 3.1 C 0 km/h
2835 03-01-2015 07:55:00 3.1 C 5.63 g/m*3 3.1 C 0 km/h
2836 03-01-2015 11:25:00 4.2 C 5.86 g/m*3 0.84 C 14.5 km/h
2837 03-01-2015 11:30:00 4.2 C 5.86 g/m*3 1.77 C 9.7 km/h
2838 03-01-2015 11:35:00 4.2 C 5.86 g/m*3 4.2 C 4.8 km/h
2839 03-01-2015 11:40:00 4.2 C 5.86 g/m*3 1.43 C 11.3 km/h
2840 03-01-2015 11:45:00 4.2 C 5.86 g/m*3 1.77 C 9.7 km/h
2841 03-01-2015 12:45:00 3.6 C 5.76 g/m*3 3.6 C 0 km/h
2842 03-01-2015 12:50:00 3.6 C 5.76 g/m*3 3.6 C 1.6 km/h
2843 03-01-2015 14:05:00 2.1 C 5.31 g/m*3 2.1 C 0 km/h
2844 03-01-2015 14:10:00 2 C 5.28 g/m*3 2 C 0 km/h
2845 03-01-2015 14:15:00 1.9 C 5.24 g/m*3 1.9 C 0 km/h
2846 03-01-2015 14:20:00 1.8 C 5.21 g/m*3 1.8 C 0 km/h
2847 03-01-2015 14:25:00 1.8 C 5.21 g/m*3 1.8 C 0 km/h
2848 03-01-2015 14:30:00 1.7 C 5.17 g/m*3 1.7 C 0 km/h
2849 03-01-2015 14:35:00 1.6 C 5.14 g/m*3 1.6 C 0 km/h
2850 03-01-2015 14:40:00 1.6 C 5.14 g/m*3 1.6 C 0 km/h
Sensor: Nr:Datum:Temp:Abs-Feuchte:Windchill:Wind:
Aussen-T/F 2851 03-01-2015 14:45:00 1.5 C 5.16 g/m*3 1.5 C 0 km/h
2852 03-01-2015 14:50:00 1.6 C 5.19 g/m*3 1.6 C 0 km/h
2853 03-01-2015 14:55:00 1.6 C 5.19 g/m*3 1.6 C 0 km/h
2854 03-01-2015 15:00:00 1.6 C 5.19 g/m*3 1.6 C 0 km/h
2855 03-01-2015 15:05:00 1.7 C 5.23 g/m*3 1.7 C 0 km/h
2856 03-01-2015 15:10:00 1.7 C 5.23 g/m*3 1.7 C 0 km/h
2857 03-01-2015 15:15:00 1.7 C 5.23 g/m*3 1.7 C 0 km/h
2858 03-01-2015 15:20:00 1.7 C 5.23 g/m*3 1.7 C 0 km/h
2859 03-01-2015 17:40:00 1.8 C 5.26 g/m*3 1.8 C 0 km/h
2860 03-01-2015 17:45:00 1.6 C 5.19 g/m*3 1.6 C 0 km/h
2861 03-01-2015 17:50:00 1.6 C 5.25 g/m*3 1.6 C 0 km/h
2862 03-01-2015 17:55:00 1.6 C 5.25 g/m*3 1.6 C 0 km/h
2863 03-01-2015 18:00:00 1.6 C 5.25 g/m*3 1.6 C 0 km/h
2864 03-01-2015 18:05:00 1.6 C 5.25 g/m*3 1.6 C 1.6 km/h
2865 03-01-2015 18:10:00 1.7 C 5.28 g/m*3 1.7 C 0 km/h
2866 03-01-2015 18:15:00 1.7 C 5.28 g/m*3 1.7 C 3.2 km/h
2867 03-01-2015 18:20:00 1.7 C 5.28 g/m*3 1.7 C 0 km/h
2868 03-01-2015 18:25:00 1.6 C 5.25 g/m*3 1.6 C 0 km/h
2869 03-01-2015 18:30:00 1.4 C 5.17 g/m*3 1.4 C 0 km/h
2870 03-01-2015 18:35:00 1.3 C 5.14 g/m*3 1.3 C 0 km/h
2871 03-01-2015 18:40:00 1.3 C 5.14 g/m*3 1.3 C 0 km/h
2872 03-01-2015 18:45:00 1.2 C 5.1 g/m*3 1.2 C 0 km/h
2873 03-01-2015 18:50:00 1.2 C 5.1 g/m*3 1.2 C 0 km/h
2874 03-01-2015 18:55:00 1.2 C 5.1 g/m*3 1.2 C 0 km/h
2875 03-01-2015 19:00:00 1.1 C 5.07 g/m*3 1.1 C 0 km/h
Sensor: Nr:Datum:Temp:Abs-Feuchte:Windchill:Wind:
Aussen-T/F 2876 03-01-2015 19:05:00 1.1 C 5.07 g/m*3 1.1 C 0 km/h
2877 03-01-2015 19:10:00 1.1 C 5.07 g/m*3 1.1 C 0 km/h
2878 03-01-2015 19:15:00 1 C 5.03 g/m*3 1 C 0 km/h
2879 03-01-2015 19:20:00 1 C 5.03 g/m*3 1 C 0 km/h
2880 03-01-2015 19:25:00 1 C 5.03 g/m*3 1 C 0 km/h
2881 03-01-2015 19:30:00 0.9 C 5 g/m*3 0.9 C 0 km/h
2882 03-01-2015 19:35:00 1 C 5.03 g/m*3 1 C 0 km/h
2883 03-01-2015 19:40:00 1 C 5.03 g/m*3 1 C 0 km/h
2884 03-01-2015 19:45:00 1 C 5.03 g/m*3 1 C 0 km/h
2885 03-01-2015 19:50:00 1 C 5.03 g/m*3 1 C 0 km/h
2886 03-01-2015 19:55:00 1 C 5.03 g/m*3 1 C 0 km/h
2887 03-01-2015 20:00:00 1 C 5.03 g/m*3 1 C 0 km/h
2888 03-01-2015 20:05:00 1 C 5.03 g/m*3 1 C 0 km/h
2889 03-01-2015 20:10:00 0.9 C 5 g/m*3 0.9 C 0 km/h
2890 03-01-2015 20:15:00 0.9 C 5 g/m*3 0.9 C 0 km/h
2891 03-01-2015 20:20:00 0.9 C 5 g/m*3 0.9 C 0 km/h
2892 03-01-2015 20:25:00 0.9 C 5 g/m*3 0.9 C 0 km/h
2893 03-01-2015 20:30:00 0.9 C 5 g/m*3 0.9 C 0 km/h
2894 03-01-2015 20:35:00 0.8 C 4.97 g/m*3 0.8 C 0 km/h
2895 03-01-2015 20:40:00 0.9 C 5 g/m*3 0.9 C 0 km/h
2896 03-01-2015 20:45:00 0.8 C 5.02 g/m*3 0.8 C 0 km/h
2897 03-01-2015 20:50:00 0.9 C 5.05 g/m*3 0.9 C 0 km/h
2898 03-01-2015 20:55:00 0.9 C 5.05 g/m*3 0.9 C 0 km/h
2899 03-01-2015 21:00:00 0.9 C 5.05 g/m*3 0.9 C 1.6 km/h
2900 03-01-2015 21:05:00 0.9 C 5.05 g/m*3 0.9 C 3.2 km/h
Sensor: Nr:Datum:Temp:Abs-Feuchte:Windchill:Wind:
Aussen-T/F 2901 03-01-2015 21:10:00 0.9 C 5.05 g/m*3 -1.14 C 6.4 km/h
2902 03-01-2015 21:15:00 0.9 C 5.05 g/m*3 0.9 C 3.2 km/h
2903 03-01-2015 21:20:00 1 C 5.09 g/m*3 1 C 3.2 km/h
2904 03-01-2015 21:25:00 1.1 C 5.12 g/m*3 1.1 C 0 km/h
2905 03-01-2015 21:30:00 1.2 C 5.16 g/m*3 1.2 C 4.8 km/h
2906 03-01-2015 21:35:00 1.3 C 5.19 g/m*3 -0.68 C 6.4 km/h
2907 03-01-2015 21:40:00 1.3 C 5.19 g/m*3 1.3 C 4.8 km/h
2908 03-01-2015 21:45:00 1.3 C 5.19 g/m*3 1.3 C 4.8 km/h
2909 03-01-2015 21:50:00 1.3 C 5.19 g/m*3 1.3 C 3.2 km/h
2910 03-01-2015 21:55:00 1.3 C 5.19 g/m*3 1.3 C 1.6 km/h
2911 03-01-2015 22:00:00 1.3 C 5.19 g/m*3 1.3 C 4.8 km/h
2912 03-01-2015 22:05:00 1.3 C 5.19 g/m*3 1.3 C 1.6 km/h
2913 03-01-2015 22:10:00 1.3 C 5.19 g/m*3 1.3 C 4.8 km/h
2914 03-01-2015 22:15:00 1.4 C 5.23 g/m*3 1.4 C 4.8 km/h
2915 03-01-2015 22:20:00 1.5 C 5.26 g/m*3 1.5 C 3.2 km/h
2916 03-01-2015 22:25:00 1.4 C 5.23 g/m*3 1.4 C 4.8 km/h
2917 03-01-2015 22:30:00 1.4 C 5.23 g/m*3 1.4 C 3.2 km/h
2918 03-01-2015 22:35:00 1.6 C 5.3 g/m*3 1.6 C 4.8 km/h
2919 03-01-2015 22:40:00 1.6 C 5.3 g/m*3 1.6 C 1.6 km/h
2920 03-01-2015 22:45:00 1.7 C 5.34 g/m*3 1.7 C 4.8 km/h
2921 03-01-2015 22:50:00 1.8 C 5.37 g/m*3 -0.65 C 8.1 km/h
2922 03-01-2015 22:55:00 1.8 C 5.37 g/m*3 -0.65 C 8.1 km/h
2923 03-01-2015 23:00:00 1.9 C 5.41 g/m*3 0.01 C 6.4 km/h
2924 03-01-2015 23:05:00 1.9 C 5.41 g/m*3 -0.54 C 8.1 km/h
2925 03-01-2015 23:10:00 2 C 5.39 g/m*3 2 C 4.8 km/h
Sensor: Nr:Datum:Temp:Abs-Feuchte:Windchill:Wind:
Aussen-T/F 2926 03-01-2015 23:15:00 2 C 5.39 g/m*3 2 C 3.2 km/h
2927 03-01-2015 23:20:00 2 C 5.39 g/m*3 2 C 0 km/h
2928 03-01-2015 23:25:00 1.9 C 5.35 g/m*3 1.9 C 4.8 km/h
2929 03-01-2015 23:30:00 1.9 C 5.35 g/m*3 1.9 C 0 km/h
2930 03-01-2015 23:35:00 2 C 5.39 g/m*3 0.13 C 6.4 km/h
2931 03-01-2015 23:40:00 2 C 5.39 g/m*3 2 C 1.6 km/h
2932 03-01-2015 23:45:00 2 C 5.39 g/m*3 2 C 4.8 km/h
2933 03-01-2015 23:50:00 2 C 5.39 g/m*3 0.13 C 6.4 km/h
2934 03-01-2015 23:55:00 2 C 5.39 g/m*3 2 C 3.2 km/h
2935 04-01-2015 00:00:00 2 C 5.39 g/m*3 2 C 1.6 km/h
2936 04-01-2015 00:05:00 2 C 5.39 g/m*3 2 C 3.2 km/h
2937 04-01-2015 00:10:00 2 C 5.39 g/m*3 2 C 3.2 km/h
2938 04-01-2015 00:15:00 2.1 C 5.43 g/m*3 0.24 C 6.4 km/h
2939 04-01-2015 00:20:00 2.2 C 5.46 g/m*3 2.2 C 1.6 km/h
2940 04-01-2015 00:25:00 2.1 C 5.43 g/m*3 2.1 C 4.8 km/h
2941 04-01-2015 00:30:00 2.1 C 5.43 g/m*3 2.1 C 4.8 km/h
2942 04-01-2015 00:35:00 2 C 5.39 g/m*3 2 C 3.2 km/h
2943 04-01-2015 00:40:00 2 C 5.39 g/m*3 0.13 C 6.4 km/h
2944 04-01-2015 00:45:00 2.1 C 5.43 g/m*3 0.24 C 6.4 km/h
2945 04-01-2015 00:50:00 2.1 C 5.43 g/m*3 2.1 C 3.2 km/h
2946 04-01-2015 00:55:00 2.1 C 5.43 g/m*3 2.1 C 4.8 km/h
2947 04-01-2015 01:00:00 2.2 C 5.52 g/m*3 2.2 C 3.2 km/h
2948 04-01-2015 01:05:00 2.2 C 5.52 g/m*3 2.2 C 1.6 km/h
2949 04-01-2015 01:10:00 2.2 C 5.52 g/m*3 2.2 C 1.6 km/h
2950 04-01-2015 01:15:00 2.2 C 5.52 g/m*3 2.2 C 0 km/h
Sensor: Nr:Datum:Temp:Abs-Feuchte:Windchill:Wind:
Aussen-T/F 2951 04-01-2015 01:20:00 2.2 C 5.52 g/m*3 2.2 C 1.6 km/h
2952 04-01-2015 01:25:00 2.2 C 5.52 g/m*3 2.2 C 4.8 km/h
2953 04-01-2015 01:30:00 2.2 C 5.52 g/m*3 2.2 C 3.2 km/h
2954 04-01-2015 01:35:00 2.3 C 5.56 g/m*3 2.3 C 4.8 km/h
2955 04-01-2015 01:40:00 2.4 C 5.6 g/m*3 2.4 C 3.2 km/h
2956 04-01-2015 01:45:00 2.7 C 5.71 g/m*3 2.7 C 4.8 km/h
2957 04-01-2015 01:50:00 2.8 C 5.75 g/m*3 0.1 C 9.7 km/h
2958 04-01-2015 01:55:00 2.9 C 5.79 g/m*3 2.9 C 4.8 km/h
2959 04-01-2015 02:00:00 3.1 C 5.87 g/m*3 0.46 C 9.7 km/h
2960 04-01-2015 02:05:00 3.3 C 5.95 g/m*3 3.3 C 4.8 km/h
2961 04-01-2015 02:10:00 3.4 C 5.99 g/m*3 3.4 C 4.8 km/h
2962 04-01-2015 02:15:00 3.4 C 5.92 g/m*3 3.4 C 4.8 km/h
2963 04-01-2015 02:20:00 3.6 C 6 g/m*3 1.46 C 8.1 km/h
2964 04-01-2015 02:25:00 3.7 C 6.04 g/m*3 1.58 C 8.1 km/h
2965 04-01-2015 02:30:00 3.7 C 6.04 g/m*3 3.7 C 1.6 km/h
2966 04-01-2015 02:35:00 3.7 C 5.98 g/m*3 3.7 C 3.2 km/h
2967 04-01-2015 02:40:00 3.8 C 6.02 g/m*3 0.63 C 12.9 km/h
2968 04-01-2015 02:45:00 3.9 C 6.06 g/m*3 1.06 C 11.3 km/h
2969 04-01-2015 02:50:00 4.1 C 6.08 g/m*3 2.55 C 6.4 km/h
2970 04-01-2015 02:55:00 4.1 C 6.08 g/m*3 2.55 C 6.4 km/h
2971 04-01-2015 03:00:00 4.1 C 6.08 g/m*3 2.55 C 6.4 km/h
2972 04-01-2015 03:05:00 4.1 C 6.08 g/m*3 0.72 C 14.5 km/h
2973 04-01-2015 03:10:00 4.1 C 6.02 g/m*3 2.05 C 8.1 km/h
2974 04-01-2015 03:15:00 4.1 C 6.02 g/m*3 4.1 C 4.8 km/h
2975 04-01-2015 03:20:00 4.1 C 6.02 g/m*3 2.55 C 6.4 km/h
Sensor: Nr:Datum:Temp:Abs-Feuchte:Windchill:Wind:
Aussen-T/F 2976 04-01-2015 03:25:00 4.1 C 5.95 g/m*3 2.05 C 8.1 km/h
2977 04-01-2015 03:30:00 4.1 C 5.95 g/m*3 0.72 C 14.5 km/h
2978 04-01-2015 03:35:00 4.1 C 5.95 g/m*3 1.65 C 9.7 km/h
2979 04-01-2015 03:40:00 4.1 C 5.95 g/m*3 2.05 C 8.1 km/h
2980 04-01-2015 03:45:00 4 C 5.91 g/m*3 1.93 C 8.1 km/h
2981 04-01-2015 03:50:00 4 C 5.91 g/m*3 1.93 C 8.1 km/h
2982 04-01-2015 03:55:00 4 C 5.91 g/m*3 1.53 C 9.7 km/h
2983 04-01-2015 04:00:00 3.9 C 5.87 g/m*3 1.82 C 8.1 km/h
2984 04-01-2015 04:05:00 3.9 C 5.87 g/m*3 3.9 C 4.8 km/h
2985 04-01-2015 04:10:00 3.9 C 5.87 g/m*3 1.82 C 8.1 km/h
2986 04-01-2015 04:50:00 2.9 C 5.55 g/m*3 2.9 C 4.8 km/h
2987 04-01-2015 04:55:00 2.8 C 5.51 g/m*3 2.8 C 4.8 km/h
2988 04-01-2015 05:00:00 2.6 C 5.44 g/m*3 2.6 C 0 km/h
2989 04-01-2015 05:05:00 2.4 C 5.37 g/m*3 2.4 C 4.8 km/h
2990 04-01-2015 05:10:00 2.2 C 5.29 g/m*3 2.2 C 4.8 km/h
2991 04-01-2015 05:15:00 2.1 C 5.31 g/m*3 -0.3 C 8.1 km/h
2992 04-01-2015 05:20:00 2.1 C 5.31 g/m*3 2.1 C 3.2 km/h
2993 04-01-2015 05:25:00 2.1 C 5.37 g/m*3 2.1 C 3.2 km/h
2994 04-01-2015 05:30:00 2 C 5.33 g/m*3 2 C 4.8 km/h
2995 04-01-2015 05:35:00 2 C 5.33 g/m*3 2 C 3.2 km/h
2996 04-01-2015 05:40:00 1.9 C 5.3 g/m*3 1.9 C 4.8 km/h
2997 04-01-2015 05:45:00 1.8 C 5.26 g/m*3 1.8 C 4.8 km/h
2998 04-01-2015 05:50:00 1.7 C 5.23 g/m*3 1.7 C 3.2 km/h
2999 04-01-2015 05:55:00 1.7 C 5.23 g/m*3 -0.22 C 6.4 km/h
3000 04-01-2015 06:00:00 1.6 C 5.19 g/m*3 1.6 C 4.8 km/h
Sensor: Nr:Datum:Temp:Abs-Feuchte:Windchill:Wind:
Aussen-T/F 3001 04-01-2015 06:05:00 1.6 C 5.25 g/m*3 1.6 C 4.8 km/h
3002 04-01-2015 06:10:00 1.6 C 5.25 g/m*3 1.6 C 4.8 km/h
3003 04-01-2015 06:15:00 1.5 C 5.16 g/m*3 1.5 C 4.8 km/h
3004 04-01-2015 06:20:00 1.4 C 5.12 g/m*3 1.4 C 1.6 km/h
3005 04-01-2015 06:25:00 1.4 C 5.17 g/m*3 1.4 C 4.8 km/h
3006 04-01-2015 06:30:00 1.3 C 5.14 g/m*3 1.3 C 0 km/h
3007 04-01-2015 06:35:00 1.2 C 5.05 g/m*3 1.2 C 1.6 km/h
3008 04-01-2015 06:40:00 1.2 C 5.05 g/m*3 1.2 C 4.8 km/h
3009 04-01-2015 06:45:00 1.1 C 5.07 g/m*3 -0.91 C 6.4 km/h
3010 04-01-2015 06:50:00 1.1 C 5.07 g/m*3 1.1 C 1.6 km/h
3011 04-01-2015 06:55:00 1.1 C 5.07 g/m*3 1.1 C 1.6 km/h
3012 04-01-2015 07:00:00 1.1 C 5.07 g/m*3 1.1 C 4.8 km/h
3013 04-01-2015 07:05:00 1.1 C 5.07 g/m*3 1.1 C 4.8 km/h
3014 04-01-2015 07:10:00 1.1 C 5.07 g/m*3 1.1 C 3.2 km/h
3015 04-01-2015 07:15:00 1 C 5.03 g/m*3 1 C 3.2 km/h
3016 04-01-2015 07:20:00 0.9 C 5 g/m*3 0.9 C 1.6 km/h
3017 04-01-2015 07:25:00 0.9 C 5 g/m*3 0.9 C 3.2 km/h
3018 04-01-2015 07:30:00 0.9 C 5 g/m*3 0.9 C 3.2 km/h
3019 04-01-2015 07:35:00 1 C 5.03 g/m*3 1 C 3.2 km/h
3020 04-01-2015 07:40:00 1.1 C 5.07 g/m*3 1.1 C 3.2 km/h
3021 04-01-2015 07:45:00 1.2 C 5.1 g/m*3 1.2 C 1.6 km/h
3022 04-01-2015 07:50:00 1.1 C 5.07 g/m*3 1.1 C 1.6 km/h
3023 04-01-2015 07:55:00 1.1 C 5.07 g/m*3 1.1 C 4.8 km/h
3024 04-01-2015 08:00:00 1.1 C 5.07 g/m*3 1.1 C 1.6 km/h
3025 04-01-2015 08:05:00 1.2 C 5.1 g/m*3 1.2 C 1.6 km/h
Sensor: Nr:Datum:Temp:Abs-Feuchte:Windchill:Wind:
Aussen-T/F 3026 04-01-2015 08:10:00 1.2 C 5.1 g/m*3 1.2 C 3.2 km/h
3027 04-01-2015 08:15:00 1.2 C 5.1 g/m*3 1.2 C 1.6 km/h
3028 04-01-2015 08:20:00 1.2 C 5.1 g/m*3 1.2 C 3.2 km/h
3029 04-01-2015 18:15:00 4.1 C 5.89 g/m*3 4.1 C 1.6 km/h
3030 04-01-2015 18:20:00 4.1 C 5.89 g/m*3 4.1 C 1.6 km/h
3031 04-01-2015 18:25:00 4 C 5.85 g/m*3 4 C 3.2 km/h
3032 04-01-2015 18:30:00 4 C 5.85 g/m*3 4 C 1.6 km/h
3033 04-01-2015 18:35:00 3.9 C 5.75 g/m*3 3.9 C 4.8 km/h
3034 04-01-2015 18:40:00 4 C 5.79 g/m*3 4 C 4.8 km/h
3035 04-01-2015 18:45:00 4.1 C 5.76 g/m*3 4.1 C 4.8 km/h
3036 04-01-2015 18:50:00 4.2 C 5.73 g/m*3 2.67 C 6.4 km/h
3037 04-01-2015 18:55:00 4.3 C 5.71 g/m*3 1.89 C 9.7 km/h
3038 04-01-2015 19:00:00 4.4 C 5.68 g/m*3 4.4 C 3.2 km/h
3039 04-01-2015 19:05:00 4.4 C 5.68 g/m*3 4.4 C 3.2 km/h
3040 04-01-2015 19:10:00 4.4 C 5.68 g/m*3 2.9 C 6.4 km/h
3041 04-01-2015 19:15:00 4.3 C 5.64 g/m*3 2.78 C 6.4 km/h
3042 04-01-2015 19:20:00 4.3 C 5.64 g/m*3 4.3 C 1.6 km/h
3043 04-01-2015 19:25:00 4.2 C 5.67 g/m*3 4.2 C 1.6 km/h
3044 04-01-2015 19:30:00 4.2 C 5.67 g/m*3 4.2 C 4.8 km/h
3045 04-01-2015 19:35:00 4.1 C 5.63 g/m*3 2.05 C 8.1 km/h
3046 04-01-2015 19:40:00 4.1 C 5.63 g/m*3 4.1 C 3.2 km/h
3047 04-01-2015 19:45:00 4.1 C 5.63 g/m*3 4.1 C 1.6 km/h
3048 04-01-2015 19:50:00 4 C 5.59 g/m*3 4 C 1.6 km/h
3049 04-01-2015 19:55:00 3.9 C 5.62 g/m*3 2.32 C 6.4 km/h
3050 04-01-2015 20:00:00 3.9 C 5.62 g/m*3 3.9 C 4.8 km/h
Sensor: Nr:Datum:Temp:Abs-Feuchte:Windchill:Wind:
Aussen-T/F 3051 04-01-2015 20:05:00 3.9 C 5.62 g/m*3 3.9 C 4.8 km/h
3052 04-01-2015 20:10:00 3.8 C 5.58 g/m*3 3.8 C 4.8 km/h
3053 04-01-2015 20:15:00 3.8 C 5.58 g/m*3 3.8 C 4.8 km/h
3054 04-01-2015 20:20:00 3.7 C 5.61 g/m*3 3.7 C 3.2 km/h
3055 04-01-2015 20:25:00 3.7 C 5.61 g/m*3 3.7 C 3.2 km/h
3056 04-01-2015 20:30:00 3.6 C 5.57 g/m*3 3.6 C 4.8 km/h
3057 04-01-2015 20:35:00 3.6 C 5.63 g/m*3 3.6 C 1.6 km/h
3058 04-01-2015 20:40:00 3.6 C 5.63 g/m*3 3.6 C 3.2 km/h
3059 04-01-2015 20:45:00 3.6 C 5.63 g/m*3 3.6 C 3.2 km/h
3060 04-01-2015 20:50:00 3.6 C 5.63 g/m*3 3.6 C 4.8 km/h
3061 04-01-2015 20:55:00 3.6 C 5.63 g/m*3 3.6 C 3.2 km/h
3062 04-01-2015 21:00:00 3.7 C 5.67 g/m*3 3.7 C 1.6 km/h
3063 04-01-2015 21:05:00 3.7 C 5.67 g/m*3 3.7 C 3.2 km/h
3064 04-01-2015 21:10:00 3.7 C 5.61 g/m*3 3.7 C 3.2 km/h
3065 04-01-2015 21:15:00 3.7 C 5.61 g/m*3 3.7 C 3.2 km/h
3066 04-01-2015 21:20:00 3.8 C 5.65 g/m*3 3.8 C 3.2 km/h
3067 04-01-2015 21:25:00 3.8 C 5.65 g/m*3 3.8 C 3.2 km/h
3068 04-01-2015 21:30:00 3.8 C 5.65 g/m*3 2.21 C 6.4 km/h
3069 04-01-2015 21:35:00 3.8 C 5.65 g/m*3 3.8 C 4.8 km/h
3070 04-01-2015 21:40:00 3.9 C 5.62 g/m*3 2.32 C 6.4 km/h
3071 04-01-2015 21:45:00 3.9 C 5.62 g/m*3 3.9 C 3.2 km/h
3072 04-01-2015 21:50:00 4 C 5.66 g/m*3 4 C 4.8 km/h
3073 04-01-2015 21:55:00 4 C 5.66 g/m*3 4 C 4.8 km/h
3074 04-01-2015 22:00:00 3.9 C 5.62 g/m*3 3.9 C 4.8 km/h
3075 04-01-2015 22:05:00 3.7 C 5.61 g/m*3 3.7 C 1.6 km/h
Sensor: Nr:Datum:Temp:Abs-Feuchte:Windchill:Wind:
Aussen-T/F 3076 04-01-2015 22:10:00 3.6 C 5.57 g/m*3 3.6 C 3.2 km/h
3077 04-01-2015 22:15:00 3.5 C 5.6 g/m*3 3.5 C 3.2 km/h
3078 04-01-2015 22:20:00 3.4 C 5.56 g/m*3 3.4 C 1.6 km/h
3079 04-01-2015 22:25:00 3.3 C 5.58 g/m*3 3.3 C 1.6 km/h
3080 04-01-2015 22:30:00 3.2 C 5.54 g/m*3 3.2 C 0 km/h
3081 04-01-2015 22:35:00 3.2 C 5.6 g/m*3 3.2 C 1.6 km/h
3082 04-01-2015 22:40:00 3.2 C 5.6 g/m*3 3.2 C 1.6 km/h
3083 04-01-2015 22:45:00 3.2 C 5.6 g/m*3 3.2 C 0 km/h
3084 04-01-2015 22:50:00 3.2 C 5.6 g/m*3 3.2 C 0 km/h
3085 04-01-2015 22:55:00 3.2 C 5.54 g/m*3 3.2 C 3.2 km/h
3086 04-01-2015 23:00:00 3.2 C 5.54 g/m*3 3.2 C 1.6 km/h
3087 04-01-2015 23:05:00 3.2 C 5.54 g/m*3 3.2 C 3.2 km/h
3088 04-01-2015 23:10:00 3.3 C 5.58 g/m*3 3.3 C 1.6 km/h
3089 04-01-2015 23:15:00 3.3 C 5.58 g/m*3 3.3 C 1.6 km/h
3090 04-01-2015 23:20:00 3.3 C 5.58 g/m*3 3.3 C 1.6 km/h
3091 04-01-2015 23:25:00 3.2 C 5.54 g/m*3 3.2 C 3.2 km/h
3092 04-01-2015 23:30:00 3.2 C 5.48 g/m*3 1.51 C 6.4 km/h
3093 04-01-2015 23:35:00 3.2 C 5.54 g/m*3 3.2 C 1.6 km/h
3094 04-01-2015 23:40:00 3.2 C 5.48 g/m*3 3.2 C 4.8 km/h
3095 04-01-2015 23:45:00 3.3 C 5.52 g/m*3 3.3 C 3.2 km/h
3096 04-01-2015 23:50:00 3.3 C 5.46 g/m*3 3.3 C 4.8 km/h
3097 04-01-2015 23:55:00 3.4 C 5.44 g/m*3 3.4 C 3.2 km/h
3098 05-01-2015 00:00:00 3.5 C 5.47 g/m*3 3.5 C 1.6 km/h
3099 05-01-2015 00:05:00 3.4 C 5.5 g/m*3 3.4 C 1.6 km/h
3100 05-01-2015 00:10:00 3.3 C 5.46 g/m*3 3.3 C 3.2 km/h
Sensor: Nr:Datum:Temp:Abs-Feuchte:Windchill:Wind:
Aussen-T/F 3101 05-01-2015 00:15:00 3.2 C 5.42 g/m*3 3.2 C 4.8 km/h
3102 05-01-2015 00:20:00 3.2 C 5.42 g/m*3 3.2 C 3.2 km/h
3103 05-01-2015 00:25:00 3.1 C 5.45 g/m*3 3.1 C 3.2 km/h
3104 05-01-2015 00:30:00 3 C 5.41 g/m*3 3 C 4.8 km/h
3105 05-01-2015 00:35:00 2.9 C 5.37 g/m*3 2.9 C 3.2 km/h
3106 05-01-2015 00:40:00 2.8 C 5.34 g/m*3 2.8 C 3.2 km/h
3107 05-01-2015 00:45:00 2.8 C 5.34 g/m*3 2.8 C 3.2 km/h
3108 05-01-2015 00:50:00 2.8 C 5.34 g/m*3 2.8 C 3.2 km/h
3109 05-01-2015 00:55:00 2.8 C 5.28 g/m*3 2.8 C 3.2 km/h
3110 05-01-2015 01:00:00 2.9 C 5.32 g/m*3 2.9 C 3.2 km/h
3111 05-01-2015 01:05:00 2.9 C 5.26 g/m*3 0.64 C 8.1 km/h
3112 05-01-2015 01:10:00 2.9 C 5.26 g/m*3 0.64 C 8.1 km/h
3113 05-01-2015 01:15:00 2.9 C 5.26 g/m*3 2.9 C 1.6 km/h
3114 05-01-2015 01:20:00 2.8 C 5.22 g/m*3 2.8 C 4.8 km/h
3115 05-01-2015 01:25:00 2.7 C 5.24 g/m*3 2.7 C 3.2 km/h
3116 05-01-2015 01:30:00 2.6 C 5.21 g/m*3 2.6 C 1.6 km/h
3117 05-01-2015 01:35:00 2.6 C 5.21 g/m*3 2.6 C 1.6 km/h
3118 05-01-2015 01:40:00 2.5 C 5.23 g/m*3 2.5 C 1.6 km/h
3119 05-01-2015 01:45:00 2.4 C 5.2 g/m*3 2.4 C 3.2 km/h
3120 05-01-2015 01:50:00 2.3 C 5.16 g/m*3 2.3 C 3.2 km/h
3121 05-01-2015 01:55:00 2.2 C 5.13 g/m*3 2.2 C 1.6 km/h
3122 05-01-2015 02:00:00 2.1 C 5.15 g/m*3 2.1 C 1.6 km/h
3123 05-01-2015 02:05:00 1.9 C 5.08 g/m*3 1.9 C 0 km/h
3124 05-01-2015 02:10:00 1.8 C 5.04 g/m*3 1.8 C 0 km/h
3125 05-01-2015 02:15:00 1.6 C 4.97 g/m*3 1.6 C 1.6 km/h
Sensor: Nr:Datum:Temp:Abs-Feuchte:Windchill:Wind:
Aussen-T/F 3126 05-01-2015 02:20:00 1.4 C 4.91 g/m*3 1.4 C 0 km/h
3127 05-01-2015 02:25:00 1.3 C 4.93 g/m*3 1.3 C 0 km/h
3128 05-01-2015 02:30:00 1.2 C 4.89 g/m*3 1.2 C 1.6 km/h
3129 05-01-2015 02:35:00 1.2 C 4.89 g/m*3 1.2 C 1.6 km/h
3130 05-01-2015 02:40:00 1.1 C 4.91 g/m*3 1.1 C 3.2 km/h
3131 05-01-2015 02:45:00 1.1 C 4.91 g/m*3 1.1 C 1.6 km/h
3132 05-01-2015 02:50:00 1.1 C 4.91 g/m*3 1.1 C 1.6 km/h
3133 05-01-2015 02:55:00 1.1 C 4.91 g/m*3 1.1 C 1.6 km/h
3134 05-01-2015 03:00:00 1 C 4.88 g/m*3 1 C 1.6 km/h
3135 05-01-2015 03:05:00 1 C 4.88 g/m*3 1 C 3.2 km/h
3136 05-01-2015 03:10:00 1 C 4.88 g/m*3 1 C 3.2 km/h
3137 05-01-2015 03:15:00 1 C 4.88 g/m*3 1 C 3.2 km/h
3138 05-01-2015 03:20:00 1 C 4.88 g/m*3 1 C 4.8 km/h
3139 05-01-2015 03:25:00 0.9 C 4.85 g/m*3 0.9 C 1.6 km/h
3140 05-01-2015 03:30:00 1 C 4.88 g/m*3 1 C 4.8 km/h
3141 05-01-2015 03:35:00 1 C 4.88 g/m*3 1 C 0 km/h
3142 05-01-2015 03:40:00 0.9 C 4.85 g/m*3 0.9 C 0 km/h
3143 05-01-2015 03:45:00 0.8 C 4.81 g/m*3 0.8 C 1.6 km/h
3144 05-01-2015 03:50:00 0.8 C 4.81 g/m*3 0.8 C 1.6 km/h
3145 05-01-2015 03:55:00 0.7 C 4.78 g/m*3 0.7 C 0 km/h
3146 05-01-2015 04:00:00 0.7 C 4.78 g/m*3 0.7 C 0 km/h
3147 05-01-2015 04:05:00 0.5 C 4.71 g/m*3 0.5 C 0 km/h
3148 05-01-2015 04:10:00 0.4 C 4.68 g/m*3 0.4 C 3.2 km/h
3149 05-01-2015 04:15:00 0.3 C 4.65 g/m*3 0.3 C 3.2 km/h
3150 05-01-2015 04:20:00 0.2 C 4.62 g/m*3 0.2 C 1.6 km/h
Sensor: Nr:Datum:Temp:Abs-Feuchte:Windchill:Wind:
Aussen-T/F 3151 05-01-2015 04:25:00 0.1 C 4.59 g/m*3 0.1 C 1.6 km/h
3152 05-01-2015 04:30:00 0.1 C 4.59 g/m*3 0.1 C 0 km/h
3153 05-01-2015 04:35:00 -0.1 C 4.52 g/m*3 -0.1 C 0 km/h
3154 05-01-2015 04:40:00 -0.1 C 4.57 g/m*3 -0.1 C 0 km/h
3155 05-01-2015 04:45:00 -0.2 C 4.54 g/m*3 -0.2 C 0 km/h
3156 05-01-2015 04:50:00 -0.3 C 4.51 g/m*3 -0.3 C 0 km/h
3157 05-01-2015 04:55:00 -0.3 C 4.51 g/m*3 -0.3 C 0 km/h
3158 05-01-2015 05:00:00 -0.4 C 4.48 g/m*3 -0.4 C 1.6 km/h
3159 05-01-2015 05:05:00 -0.4 C 4.48 g/m*3 -0.4 C 1.6 km/h
3160 05-01-2015 05:10:00 -0.4 C 4.48 g/m*3 -0.4 C 0 km/h
3161 05-01-2015 05:15:00 -0.4 C 4.48 g/m*3 -0.4 C 0 km/h
3162 05-01-2015 05:20:00 -0.4 C 4.48 g/m*3 -0.4 C 0 km/h
3163 05-01-2015 05:25:00 -0.5 C 4.45 g/m*3 -0.5 C 0 km/h
3164 05-01-2015 05:30:00 -0.6 C 4.42 g/m*3 -0.6 C 1.6 km/h
3165 05-01-2015 05:35:00 -0.6 C 4.46 g/m*3 -0.6 C 0 km/h
3166 05-01-2015 05:40:00 -0.6 C 4.46 g/m*3 -0.6 C 1.6 km/h
3167 05-01-2015 05:45:00 -0.5 C 4.49 g/m*3 -0.5 C 3.2 km/h
3168 05-01-2015 05:50:00 -0.5 C 4.49 g/m*3 -0.5 C 1.6 km/h
3169 05-01-2015 05:55:00 -0.5 C 4.49 g/m*3 -0.5 C 0 km/h
3170 05-01-2015 06:00:00 -0.5 C 4.49 g/m*3 -0.5 C 1.6 km/h
3171 05-01-2015 06:05:00 -0.6 C 4.46 g/m*3 -0.6 C 0 km/h
3172 05-01-2015 06:10:00 -0.6 C 4.46 g/m*3 -0.6 C 0 km/h
3173 05-01-2015 06:15:00 -0.6 C 4.46 g/m*3 -0.6 C 0 km/h
3174 05-01-2015 06:20:00 -0.6 C 4.46 g/m*3 -0.6 C 0 km/h
3175 05-01-2015 06:25:00 -0.9 C 4.37 g/m*3 -0.9 C 0 km/h
Sensor: Nr:Datum:Temp:Abs-Feuchte:Windchill:Wind:
Aussen-T/F 3176 05-01-2015 06:30:00 -1 C 4.34 g/m*3 -1 C 1.6 km/h
3177 05-01-2015 06:35:00 -1 C 4.34 g/m*3 -1 C 0 km/h
3178 05-01-2015 06:40:00 -1 C 4.34 g/m*3 -1 C 0 km/h
3179 05-01-2015 06:45:00 -0.9 C 4.37 g/m*3 -0.9 C 0 km/h
3180 05-01-2015 06:50:00 -0.9 C 4.37 g/m*3 -0.9 C 1.6 km/h
3181 05-01-2015 06:55:00 -0.9 C 4.37 g/m*3 -0.9 C 1.6 km/h
3182 05-01-2015 07:00:00 -0.9 C 4.37 g/m*3 -0.9 C 4.8 km/h
3183 05-01-2015 07:05:00 -0.9 C 4.37 g/m*3 -0.9 C 1.6 km/h
3184 05-01-2015 07:10:00 -0.8 C 4.4 g/m*3 -0.8 C 1.6 km/h
3185 05-01-2015 07:15:00 -0.9 C 4.37 g/m*3 -0.9 C 0 km/h
3186 05-01-2015 07:20:00 -0.9 C 4.37 g/m*3 -0.9 C 0 km/h
3187 05-01-2015 07:25:00 -1 C 4.34 g/m*3 -1 C 1.6 km/h
3188 05-01-2015 07:30:00 -1 C 4.34 g/m*3 -1 C 0 km/h
3189 05-01-2015 07:35:00 -1 C 4.38 g/m*3 -1 C 1.6 km/h
3190 05-01-2015 07:40:00 -0.9 C 4.42 g/m*3 -0.9 C 4.8 km/h
3191 05-01-2015 07:45:00 -0.8 C 4.45 g/m*3 -3.11 C 6.4 km/h
3192 05-01-2015 07:50:00 -0.8 C 4.45 g/m*3 -3.11 C 6.4 km/h
3193 05-01-2015 07:55:00 -0.8 C 4.45 g/m*3 -3.11 C 6.4 km/h
3194 05-01-2015 08:00:00 -0.8 C 4.45 g/m*3 -3.71 C 8.1 km/h
3195 05-01-2015 08:05:00 -0.8 C 4.45 g/m*3 -0.8 C 3.2 km/h
3196 05-01-2015 08:10:00 -0.7 C 4.48 g/m*3 -3.59 C 8.1 km/h
3197 05-01-2015 08:15:00 -0.7 C 4.48 g/m*3 -2.99 C 6.4 km/h
3198 05-01-2015 08:20:00 -0.7 C 4.48 g/m*3 -0.7 C 4.8 km/h
3199 05-01-2015 08:25:00 -0.7 C 4.48 g/m*3 -0.7 C 4.8 km/h
3200 05-01-2015 08:30:00 -0.7 C 4.48 g/m*3 -0.7 C 4.8 km/h
Sensor: Nr:Datum:Temp:Abs-Feuchte:Windchill:Wind:
Aussen-T/F 3201 05-01-2015 08:35:00 -0.7 C 4.48 g/m*3 -4.07 C 9.7 km/h
3202 05-01-2015 08:40:00 -0.8 C 4.45 g/m*3 -3.71 C 8.1 km/h
3203 05-01-2015 08:45:00 -0.8 C 4.45 g/m*3 -0.8 C 4.8 km/h
3204 05-01-2015 08:50:00 -0.8 C 4.45 g/m*3 -3.71 C 8.1 km/h
3205 05-01-2015 08:55:00 -0.8 C 4.45 g/m*3 -0.8 C 4.8 km/h
3206 05-01-2015 09:00:00 -0.8 C 4.45 g/m*3 -0.8 C 4.8 km/h
3207 05-01-2015 09:05:00 -0.8 C 4.45 g/m*3 -3.11 C 6.4 km/h
3208 05-01-2015 09:10:00 -0.8 C 4.45 g/m*3 -3.11 C 6.4 km/h
3209 05-01-2015 09:15:00 -0.8 C 4.45 g/m*3 -3.11 C 6.4 km/h
3210 05-01-2015 09:20:00 -0.8 C 4.45 g/m*3 -0.8 C 4.8 km/h
3211 05-01-2015 09:25:00 -0.8 C 4.45 g/m*3 -0.8 C 4.8 km/h
3212 05-01-2015 09:30:00 -0.8 C 4.45 g/m*3 -0.8 C 3.2 km/h
3213 05-01-2015 09:35:00 -0.8 C 4.45 g/m*3 -3.11 C 6.4 km/h
3214 05-01-2015 09:40:00 -0.6 C 4.51 g/m*3 -3.48 C 8.1 km/h
3215 05-01-2015 09:45:00 -0.6 C 4.51 g/m*3 -3.95 C 9.7 km/h
3216 05-01-2015 09:50:00 -0.6 C 4.51 g/m*3 -0.6 C 4.8 km/h
3217 05-01-2015 09:55:00 -0.6 C 4.51 g/m*3 -0.6 C 4.8 km/h
3218 05-01-2015 10:00:00 -0.6 C 4.51 g/m*3 -0.6 C 3.2 km/h
3219 05-01-2015 10:05:00 -0.6 C 4.51 g/m*3